<?xml version="1.0" encoding="UTF-8" standalone="no" ?>
<gpx xmlns="http://www.topografix.com/GPX/1/1" xmlns:xsi="http://www.w3.org/2001/XMLSchema-instance" xsi:schemaLocation="http://www.topografix.com/GPX/1/1 http://www.topografix.com/GPX/1/1/gpx.xsd" version="1.1" creator="VisuGPX - https://www.visugpx.com">
  <metadata>
    <name>l art dans les chapelles bieuzy</name>
    <desc><![CDATA[exposition d art contemporain dans les chapelles au long du circuit (circuit rouge)
]]></desc>
  </metadata>
  <trk>
    <name><![CDATA[Bieuzy chapelles 1]]></name>
    <trkseg>
      <trkpt lat="47.98317" lon="-3.06289">
        <ele>94.3</ele>
        <time>2018-08-14T12:52:22Z</time>
      </trkpt>
      <trkpt lat="47.98317" lon="-3.06289">
        <ele>94.3</ele>
        <time>2018-08-14T12:52:23Z</time>
      </trkpt>
      <trkpt lat="47.98314" lon="-3.0629">
        <ele>94.3</ele>
        <time>2018-08-14T12:52:28Z</time>
      </trkpt>
      <trkpt lat="47.98314" lon="-3.0629">
        <ele>94.3</ele>
        <time>2018-08-14T12:52:33Z</time>
      </trkpt>
      <trkpt lat="47.98315" lon="-3.0629">
        <ele>94.3</ele>
        <time>2018-08-14T12:52:38Z</time>
      </trkpt>
      <trkpt lat="47.98316" lon="-3.06289">
        <ele>94.3</ele>
        <time>2018-08-14T12:52:43Z</time>
      </trkpt>
      <trkpt lat="47.98314" lon="-3.0629">
        <ele>94.3</ele>
        <time>2018-08-14T12:52:52Z</time>
      </trkpt>
      <trkpt lat="47.98314" lon="-3.0629">
        <ele>94.3</ele>
        <time>2018-08-14T12:52:57Z</time>
      </trkpt>
      <trkpt lat="47.98314" lon="-3.0629">
        <ele>94.3</ele>
        <time>2018-08-14T12:52:58Z</time>
      </trkpt>
      <trkpt lat="47.98314" lon="-3.0629">
        <ele>94.3</ele>
        <time>2018-08-14T12:53:03Z</time>
      </trkpt>
      <trkpt lat="47.98313" lon="-3.0629">
        <ele>94.3</ele>
        <time>2018-08-14T12:53:09Z</time>
      </trkpt>
      <trkpt lat="47.98313" lon="-3.06291">
        <ele>94.3</ele>
        <time>2018-08-14T12:53:13Z</time>
      </trkpt>
      <trkpt lat="47.98312" lon="-3.06291">
        <ele>94.3</ele>
        <time>2018-08-14T12:53:18Z</time>
      </trkpt>
      <trkpt lat="47.98312" lon="-3.06291">
        <ele>94.3</ele>
        <time>2018-08-14T12:53:23Z</time>
      </trkpt>
      <trkpt lat="47.98311" lon="-3.06291">
        <ele>94.3</ele>
        <time>2018-08-14T12:53:28Z</time>
      </trkpt>
      <trkpt lat="47.98312" lon="-3.06292">
        <ele>94.5</ele>
        <time>2018-08-14T12:53:37Z</time>
      </trkpt>
      <trkpt lat="47.98314" lon="-3.06292">
        <ele>94.5</ele>
        <time>2018-08-14T12:53:42Z</time>
      </trkpt>
      <trkpt lat="47.98313" lon="-3.06292">
        <ele>94.5</ele>
        <time>2018-08-14T12:53:46Z</time>
      </trkpt>
      <trkpt lat="47.98312" lon="-3.06293">
        <ele>94.5</ele>
        <time>2018-08-14T12:53:50Z</time>
      </trkpt>
      <trkpt lat="47.98311" lon="-3.06297">
        <ele>94.7</ele>
        <time>2018-08-14T12:53:53Z</time>
      </trkpt>
      <trkpt lat="47.98311" lon="-3.06302">
        <ele>94.8</ele>
        <time>2018-08-14T12:53:58Z</time>
      </trkpt>
      <trkpt lat="47.98313" lon="-3.06304">
        <ele>95</ele>
        <time>2018-08-14T12:54:03Z</time>
      </trkpt>
      <trkpt lat="47.98312" lon="-3.06305">
        <ele>95</ele>
        <time>2018-08-14T12:54:09Z</time>
      </trkpt>
      <trkpt lat="47.98307" lon="-3.06306">
        <ele>95</ele>
        <time>2018-08-14T12:54:18Z</time>
      </trkpt>
      <trkpt lat="47.98306" lon="-3.06306">
        <ele>95</ele>
        <time>2018-08-14T12:54:20Z</time>
      </trkpt>
      <trkpt lat="47.98305" lon="-3.06306">
        <ele>95</ele>
        <time>2018-08-14T12:54:24Z</time>
      </trkpt>
      <trkpt lat="47.98305" lon="-3.06306">
        <ele>95</ele>
        <time>2018-08-14T12:54:29Z</time>
      </trkpt>
      <trkpt lat="47.98305" lon="-3.06306">
        <ele>95</ele>
        <time>2018-08-14T12:54:35Z</time>
      </trkpt>
      <trkpt lat="47.98305" lon="-3.06306">
        <ele>95</ele>
        <time>2018-08-14T12:54:40Z</time>
      </trkpt>
      <trkpt lat="47.98306" lon="-3.06307">
        <ele>95</ele>
        <time>2018-08-14T12:54:45Z</time>
      </trkpt>
      <trkpt lat="47.98306" lon="-3.06307">
        <ele>95</ele>
        <time>2018-08-14T12:54:50Z</time>
      </trkpt>
      <trkpt lat="47.98305" lon="-3.06298">
        <ele>94.7</ele>
        <time>2018-08-14T12:54:59Z</time>
      </trkpt>
      <trkpt lat="47.98303" lon="-3.06295">
        <ele>94.5</ele>
        <time>2018-08-14T12:55:02Z</time>
      </trkpt>
      <trkpt lat="47.98302" lon="-3.06292">
        <ele>94.6</ele>
        <time>2018-08-14T12:55:05Z</time>
      </trkpt>
      <trkpt lat="47.983" lon="-3.0629">
        <ele>94.4</ele>
        <time>2018-08-14T12:55:10Z</time>
      </trkpt>
      <trkpt lat="47.983" lon="-3.06289">
        <ele>94.4</ele>
        <time>2018-08-14T12:55:15Z</time>
      </trkpt>
      <trkpt lat="47.983" lon="-3.06286">
        <ele>94.2</ele>
        <time>2018-08-14T12:55:23Z</time>
      </trkpt>
      <trkpt lat="47.98299" lon="-3.06286">
        <ele>94.2</ele>
        <time>2018-08-14T12:55:25Z</time>
      </trkpt>
      <trkpt lat="47.983" lon="-3.06287">
        <ele>94.2</ele>
        <time>2018-08-14T12:55:30Z</time>
      </trkpt>
      <trkpt lat="47.98291" lon="-3.06284">
        <ele>94.5</ele>
        <time>2018-08-14T12:55:37Z</time>
      </trkpt>
      <trkpt lat="47.9829" lon="-3.06285">
        <ele>94.5</ele>
        <time>2018-08-14T12:55:41Z</time>
      </trkpt>
      <trkpt lat="47.9829" lon="-3.06286">
        <ele>94.5</ele>
        <time>2018-08-14T12:55:50Z</time>
      </trkpt>
      <trkpt lat="47.9829" lon="-3.06286">
        <ele>94.5</ele>
        <time>2018-08-14T12:55:51Z</time>
      </trkpt>
      <trkpt lat="47.98289" lon="-3.06285">
        <ele>94.6</ele>
        <time>2018-08-14T12:55:56Z</time>
      </trkpt>
      <trkpt lat="47.98288" lon="-3.06285">
        <ele>94.6</ele>
        <time>2018-08-14T12:56:01Z</time>
      </trkpt>
      <trkpt lat="47.98288" lon="-3.06284">
        <ele>94.6</ele>
        <time>2018-08-14T12:56:06Z</time>
      </trkpt>
      <trkpt lat="47.98289" lon="-3.06284">
        <ele>94.6</ele>
        <time>2018-08-14T12:56:11Z</time>
      </trkpt>
      <trkpt lat="47.98289" lon="-3.06284">
        <ele>94.6</ele>
        <time>2018-08-14T12:56:16Z</time>
      </trkpt>
      <trkpt lat="47.98289" lon="-3.06284">
        <ele>94.6</ele>
        <time>2018-08-14T12:56:21Z</time>
      </trkpt>
      <trkpt lat="47.98289" lon="-3.06284">
        <ele>94.6</ele>
        <time>2018-08-14T12:56:26Z</time>
      </trkpt>
      <trkpt lat="47.98289" lon="-3.06284">
        <ele>94.6</ele>
        <time>2018-08-14T12:56:31Z</time>
      </trkpt>
      <trkpt lat="47.98289" lon="-3.06284">
        <ele>94.6</ele>
        <time>2018-08-14T12:56:36Z</time>
      </trkpt>
      <trkpt lat="47.98289" lon="-3.06284">
        <ele>94.6</ele>
        <time>2018-08-14T12:56:42Z</time>
      </trkpt>
      <trkpt lat="47.98289" lon="-3.06284">
        <ele>94.6</ele>
        <time>2018-08-14T12:56:46Z</time>
      </trkpt>
      <trkpt lat="47.98289" lon="-3.06284">
        <ele>94.6</ele>
        <time>2018-08-14T12:56:51Z</time>
      </trkpt>
      <trkpt lat="47.98289" lon="-3.06284">
        <ele>94.6</ele>
        <time>2018-08-14T12:56:56Z</time>
      </trkpt>
      <trkpt lat="47.98288" lon="-3.06282">
        <ele>94.7</ele>
        <time>2018-08-14T12:57:01Z</time>
      </trkpt>
      <trkpt lat="47.98288" lon="-3.06282">
        <ele>94.7</ele>
        <time>2018-08-14T12:57:06Z</time>
      </trkpt>
      <trkpt lat="47.98288" lon="-3.06282">
        <ele>94.7</ele>
        <time>2018-08-14T12:57:11Z</time>
      </trkpt>
      <trkpt lat="47.98288" lon="-3.06282">
        <ele>94.7</ele>
        <time>2018-08-14T12:57:17Z</time>
      </trkpt>
      <trkpt lat="47.98288" lon="-3.06282">
        <ele>94.7</ele>
        <time>2018-08-14T12:57:21Z</time>
      </trkpt>
      <trkpt lat="47.98285" lon="-3.06284">
        <ele>94.8</ele>
        <time>2018-08-14T12:57:26Z</time>
      </trkpt>
      <trkpt lat="47.98265" lon="-3.06296">
        <ele>95.1</ele>
        <time>2018-08-14T12:57:34Z</time>
      </trkpt>
      <trkpt lat="47.98258" lon="-3.06299">
        <ele>95.2</ele>
        <time>2018-08-14T12:57:36Z</time>
      </trkpt>
      <trkpt lat="47.98241" lon="-3.06314">
        <ele>95.3</ele>
        <time>2018-08-14T12:57:41Z</time>
      </trkpt>
      <trkpt lat="47.98221" lon="-3.06335">
        <ele>95</ele>
        <time>2018-08-14T12:57:48Z</time>
      </trkpt>
      <trkpt lat="47.98212" lon="-3.06346">
        <ele>94.5</ele>
        <time>2018-08-14T12:57:51Z</time>
      </trkpt>
      <trkpt lat="47.98203" lon="-3.06367">
        <ele>94</ele>
        <time>2018-08-14T12:57:56Z</time>
      </trkpt>
      <trkpt lat="47.982" lon="-3.06409">
        <ele>93.9</ele>
        <time>2018-08-14T12:58:04Z</time>
      </trkpt>
      <trkpt lat="47.98195" lon="-3.06417">
        <ele>93.7</ele>
        <time>2018-08-14T12:58:06Z</time>
      </trkpt>
      <trkpt lat="47.98192" lon="-3.0644">
        <ele>93.4</ele>
        <time>2018-08-14T12:58:11Z</time>
      </trkpt>
      <trkpt lat="47.98191" lon="-3.0646">
        <ele>93.1</ele>
        <time>2018-08-14T12:58:16Z</time>
      </trkpt>
      <trkpt lat="47.98193" lon="-3.06499">
        <ele>92.8</ele>
        <time>2018-08-14T12:58:26Z</time>
      </trkpt>
      <trkpt lat="47.98194" lon="-3.06504">
        <ele>92.8</ele>
        <time>2018-08-14T12:58:27Z</time>
      </trkpt>
      <trkpt lat="47.98194" lon="-3.06582">
        <ele>89.9</ele>
        <time>2018-08-14T12:58:36Z</time>
      </trkpt>
      <trkpt lat="47.98198" lon="-3.06594">
        <ele>88.9</ele>
        <time>2018-08-14T12:58:37Z</time>
      </trkpt>
      <trkpt lat="47.98241" lon="-3.06689">
        <ele>85.7</ele>
        <time>2018-08-14T12:58:46Z</time>
      </trkpt>
      <trkpt lat="47.98235" lon="-3.06715">
        <ele>85.1</ele>
        <time>2018-08-14T12:58:48Z</time>
      </trkpt>
      <trkpt lat="47.9816" lon="-3.06821">
        <ele>78.7</ele>
        <time>2018-08-14T12:58:57Z</time>
      </trkpt>
      <trkpt lat="47.98153" lon="-3.0683">
        <ele>78.5</ele>
        <time>2018-08-14T12:58:58Z</time>
      </trkpt>
      <trkpt lat="47.98123" lon="-3.06903">
        <ele>77.1</ele>
        <time>2018-08-14T12:59:04Z</time>
      </trkpt>
      <trkpt lat="47.9809" lon="-3.07006">
        <ele>70.3</ele>
        <time>2018-08-14T12:59:12Z</time>
      </trkpt>
      <trkpt lat="47.98082" lon="-3.07032">
        <ele>68.6</ele>
        <time>2018-08-14T12:59:14Z</time>
      </trkpt>
      <trkpt lat="47.98052" lon="-3.07123">
        <ele>63.6</ele>
        <time>2018-08-14T12:59:20Z</time>
      </trkpt>
      <trkpt lat="47.98018" lon="-3.07222">
        <ele>60.2</ele>
        <time>2018-08-14T12:59:27Z</time>
      </trkpt>
      <trkpt lat="47.98012" lon="-3.07235">
        <ele>59.9</ele>
        <time>2018-08-14T12:59:28Z</time>
      </trkpt>
      <trkpt lat="47.97988" lon="-3.073">
        <ele>58.8</ele>
        <time>2018-08-14T12:59:33Z</time>
      </trkpt>
      <trkpt lat="47.97967" lon="-3.07358">
        <ele>58.4</ele>
        <time>2018-08-14T12:59:38Z</time>
      </trkpt>
      <trkpt lat="47.97948" lon="-3.07411">
        <ele>58.2</ele>
        <time>2018-08-14T12:59:43Z</time>
      </trkpt>
      <trkpt lat="47.97937" lon="-3.07454">
        <ele>57.7</ele>
        <time>2018-08-14T12:59:48Z</time>
      </trkpt>
      <trkpt lat="47.97936" lon="-3.07492">
        <ele>57.1</ele>
        <time>2018-08-14T12:59:53Z</time>
      </trkpt>
      <trkpt lat="47.97936" lon="-3.0751">
        <ele>56.9</ele>
        <time>2018-08-14T12:59:58Z</time>
      </trkpt>
      <trkpt lat="47.9795" lon="-3.07555">
        <ele>58.8</ele>
        <time>2018-08-14T13:00:03Z</time>
      </trkpt>
      <trkpt lat="47.97951" lon="-3.07587">
        <ele>59.6</ele>
        <time>2018-08-14T13:00:08Z</time>
      </trkpt>
      <trkpt lat="47.97941" lon="-3.07613">
        <ele>59</ele>
        <time>2018-08-14T13:00:13Z</time>
      </trkpt>
      <trkpt lat="47.97939" lon="-3.07647">
        <ele>59.3</ele>
        <time>2018-08-14T13:00:18Z</time>
      </trkpt>
      <trkpt lat="47.97972" lon="-3.07712">
        <ele>59.2</ele>
        <time>2018-08-14T13:00:27Z</time>
      </trkpt>
      <trkpt lat="47.97991" lon="-3.07728">
        <ele>60.1</ele>
        <time>2018-08-14T13:00:32Z</time>
      </trkpt>
      <trkpt lat="47.98011" lon="-3.07729">
        <ele>60.8</ele>
        <time>2018-08-14T13:00:36Z</time>
      </trkpt>
      <trkpt lat="47.98035" lon="-3.07724">
        <ele>61.7</ele>
        <time>2018-08-14T13:00:41Z</time>
      </trkpt>
      <trkpt lat="47.98051" lon="-3.07729">
        <ele>62.2</ele>
        <time>2018-08-14T13:00:46Z</time>
      </trkpt>
      <trkpt lat="47.98062" lon="-3.0773">
        <ele>62.6</ele>
        <time>2018-08-14T13:00:48Z</time>
      </trkpt>
      <trkpt lat="47.98095" lon="-3.0775">
        <ele>63.7</ele>
        <time>2018-08-14T13:00:57Z</time>
      </trkpt>
      <trkpt lat="47.98105" lon="-3.07766">
        <ele>64.1</ele>
        <time>2018-08-14T13:01:00Z</time>
      </trkpt>
      <trkpt lat="47.98116" lon="-3.07782">
        <ele>64.5</ele>
        <time>2018-08-14T13:01:03Z</time>
      </trkpt>
      <trkpt lat="47.98126" lon="-3.07807">
        <ele>65.1</ele>
        <time>2018-08-14T13:01:08Z</time>
      </trkpt>
      <trkpt lat="47.98141" lon="-3.07835">
        <ele>65.8</ele>
        <time>2018-08-14T13:01:13Z</time>
      </trkpt>
      <trkpt lat="47.98173" lon="-3.07893">
        <ele>66.7</ele>
        <time>2018-08-14T13:01:22Z</time>
      </trkpt>
      <trkpt lat="47.98184" lon="-3.07909">
        <ele>66.9</ele>
        <time>2018-08-14T13:01:25Z</time>
      </trkpt>
      <trkpt lat="47.9819" lon="-3.07924">
        <ele>66.9</ele>
        <time>2018-08-14T13:01:28Z</time>
      </trkpt>
      <trkpt lat="47.98211" lon="-3.07962">
        <ele>67</ele>
        <time>2018-08-14T13:01:37Z</time>
      </trkpt>
      <trkpt lat="47.9822" lon="-3.07982">
        <ele>67</ele>
        <time>2018-08-14T13:01:42Z</time>
      </trkpt>
      <trkpt lat="47.9822" lon="-3.07985">
        <ele>67</ele>
        <time>2018-08-14T13:01:43Z</time>
      </trkpt>
      <trkpt lat="47.98224" lon="-3.08003">
        <ele>67</ele>
        <time>2018-08-14T13:01:48Z</time>
      </trkpt>
      <trkpt lat="47.98235" lon="-3.08025">
        <ele>67.1</ele>
        <time>2018-08-14T13:01:53Z</time>
      </trkpt>
      <trkpt lat="47.98251" lon="-3.08051">
        <ele>67.2</ele>
        <time>2018-08-14T13:01:58Z</time>
      </trkpt>
      <trkpt lat="47.98268" lon="-3.08074">
        <ele>67.4</ele>
        <time>2018-08-14T13:02:03Z</time>
      </trkpt>
      <trkpt lat="47.98293" lon="-3.08107">
        <ele>67.8</ele>
        <time>2018-08-14T13:02:09Z</time>
      </trkpt>
      <trkpt lat="47.98319" lon="-3.08159">
        <ele>68.6</ele>
        <time>2018-08-14T13:02:17Z</time>
      </trkpt>
      <trkpt lat="47.98322" lon="-3.08166">
        <ele>68.7</ele>
        <time>2018-08-14T13:02:18Z</time>
      </trkpt>
      <trkpt lat="47.98329" lon="-3.08217">
        <ele>69.2</ele>
        <time>2018-08-14T13:02:25Z</time>
      </trkpt>
      <trkpt lat="47.98329" lon="-3.08264">
        <ele>69.6</ele>
        <time>2018-08-14T13:02:31Z</time>
      </trkpt>
      <trkpt lat="47.98327" lon="-3.08293">
        <ele>69.9</ele>
        <time>2018-08-14T13:02:35Z</time>
      </trkpt>
      <trkpt lat="47.98327" lon="-3.08328">
        <ele>70.4</ele>
        <time>2018-08-14T13:02:40Z</time>
      </trkpt>
      <trkpt lat="47.98328" lon="-3.08351">
        <ele>70.8</ele>
        <time>2018-08-14T13:02:43Z</time>
      </trkpt>
      <trkpt lat="47.98329" lon="-3.08386">
        <ele>71.6</ele>
        <time>2018-08-14T13:02:48Z</time>
      </trkpt>
      <trkpt lat="47.9833" lon="-3.0842">
        <ele>72.5</ele>
        <time>2018-08-14T13:02:53Z</time>
      </trkpt>
      <trkpt lat="47.98331" lon="-3.08448">
        <ele>73.3</ele>
        <time>2018-08-14T13:02:58Z</time>
      </trkpt>
      <trkpt lat="47.98328" lon="-3.08478">
        <ele>74.2</ele>
        <time>2018-08-14T13:03:03Z</time>
      </trkpt>
      <trkpt lat="47.98326" lon="-3.08512">
        <ele>75.2</ele>
        <time>2018-08-14T13:03:08Z</time>
      </trkpt>
      <trkpt lat="47.98325" lon="-3.08547">
        <ele>76.2</ele>
        <time>2018-08-14T13:03:13Z</time>
      </trkpt>
      <trkpt lat="47.9833" lon="-3.08577">
        <ele>77</ele>
        <time>2018-08-14T13:03:18Z</time>
      </trkpt>
      <trkpt lat="47.98339" lon="-3.08602">
        <ele>77.8</ele>
        <time>2018-08-14T13:03:23Z</time>
      </trkpt>
      <trkpt lat="47.98347" lon="-3.08627">
        <ele>78.5</ele>
        <time>2018-08-14T13:03:28Z</time>
      </trkpt>
      <trkpt lat="47.98353" lon="-3.08647">
        <ele>79</ele>
        <time>2018-08-14T13:03:32Z</time>
      </trkpt>
      <trkpt lat="47.98362" lon="-3.08676">
        <ele>79.8</ele>
        <time>2018-08-14T13:03:37Z</time>
      </trkpt>
      <trkpt lat="47.98367" lon="-3.08708">
        <ele>80.6</ele>
        <time>2018-08-14T13:03:42Z</time>
      </trkpt>
      <trkpt lat="47.98367" lon="-3.08737">
        <ele>81.3</ele>
        <time>2018-08-14T13:03:47Z</time>
      </trkpt>
      <trkpt lat="47.98369" lon="-3.08775">
        <ele>82.2</ele>
        <time>2018-08-14T13:03:53Z</time>
      </trkpt>
      <trkpt lat="47.98371" lon="-3.08799">
        <ele>83.4</ele>
        <time>2018-08-14T13:03:57Z</time>
      </trkpt>
      <trkpt lat="47.9837" lon="-3.0882">
        <ele>84.5</ele>
        <time>2018-08-14T13:04:03Z</time>
      </trkpt>
      <trkpt lat="47.98369" lon="-3.08836">
        <ele>85.7</ele>
        <time>2018-08-14T13:04:07Z</time>
      </trkpt>
      <trkpt lat="47.98369" lon="-3.08858">
        <ele>87</ele>
        <time>2018-08-14T13:04:12Z</time>
      </trkpt>
      <trkpt lat="47.9837" lon="-3.08881">
        <ele>88.1</ele>
        <time>2018-08-14T13:04:17Z</time>
      </trkpt>
      <trkpt lat="47.98371" lon="-3.08908">
        <ele>89.4</ele>
        <time>2018-08-14T13:04:22Z</time>
      </trkpt>
      <trkpt lat="47.98368" lon="-3.08972">
        <ele>91.5</ele>
        <time>2018-08-14T13:04:31Z</time>
      </trkpt>
      <trkpt lat="47.98358" lon="-3.09005">
        <ele>92</ele>
        <time>2018-08-14T13:04:36Z</time>
      </trkpt>
      <trkpt lat="47.9835" lon="-3.09025">
        <ele>92.3</ele>
        <time>2018-08-14T13:04:39Z</time>
      </trkpt>
      <trkpt lat="47.98334" lon="-3.09064">
        <ele>92.6</ele>
        <time>2018-08-14T13:04:45Z</time>
      </trkpt>
      <trkpt lat="47.98329" lon="-3.09077">
        <ele>92.6</ele>
        <time>2018-08-14T13:04:47Z</time>
      </trkpt>
      <trkpt lat="47.98311" lon="-3.09132">
        <ele>92.8</ele>
        <time>2018-08-14T13:04:54Z</time>
      </trkpt>
      <trkpt lat="47.983" lon="-3.09159">
        <ele>92.9</ele>
        <time>2018-08-14T13:04:58Z</time>
      </trkpt>
      <trkpt lat="47.98287" lon="-3.09189">
        <ele>92.8</ele>
        <time>2018-08-14T13:05:02Z</time>
      </trkpt>
      <trkpt lat="47.98254" lon="-3.09267">
        <ele>91.4</ele>
        <time>2018-08-14T13:05:10Z</time>
      </trkpt>
      <trkpt lat="47.98245" lon="-3.09289">
        <ele>90.8</ele>
        <time>2018-08-14T13:05:12Z</time>
      </trkpt>
      <trkpt lat="47.98221" lon="-3.09344">
        <ele>89</ele>
        <time>2018-08-14T13:05:17Z</time>
      </trkpt>
      <trkpt lat="47.98209" lon="-3.09415">
        <ele>86.5</ele>
        <time>2018-08-14T13:05:22Z</time>
      </trkpt>
      <trkpt lat="47.98191" lon="-3.09534">
        <ele>81.5</ele>
        <time>2018-08-14T13:05:30Z</time>
      </trkpt>
      <trkpt lat="47.98174" lon="-3.09604">
        <ele>78.5</ele>
        <time>2018-08-14T13:05:35Z</time>
      </trkpt>
      <trkpt lat="47.98174" lon="-3.09636">
        <ele>77.1</ele>
        <time>2018-08-14T13:05:37Z</time>
      </trkpt>
      <trkpt lat="47.98174" lon="-3.09711">
        <ele>74.1</ele>
        <time>2018-08-14T13:05:42Z</time>
      </trkpt>
      <trkpt lat="47.98173" lon="-3.09781">
        <ele>71.2</ele>
        <time>2018-08-14T13:05:47Z</time>
      </trkpt>
      <trkpt lat="47.98176" lon="-3.09836">
        <ele>71</ele>
        <time>2018-08-14T13:05:52Z</time>
      </trkpt>
      <trkpt lat="47.98185" lon="-3.09879">
        <ele>72</ele>
        <time>2018-08-14T13:05:57Z</time>
      </trkpt>
      <trkpt lat="47.98191" lon="-3.09924">
        <ele>73.3</ele>
        <time>2018-08-14T13:06:02Z</time>
      </trkpt>
      <trkpt lat="47.982" lon="-3.09967">
        <ele>74.4</ele>
        <time>2018-08-14T13:06:07Z</time>
      </trkpt>
      <trkpt lat="47.98212" lon="-3.10004">
        <ele>75.4</ele>
        <time>2018-08-14T13:06:12Z</time>
      </trkpt>
      <trkpt lat="47.98218" lon="-3.10047">
        <ele>76</ele>
        <time>2018-08-14T13:06:17Z</time>
      </trkpt>
      <trkpt lat="47.98222" lon="-3.10086">
        <ele>76.4</ele>
        <time>2018-08-14T13:06:22Z</time>
      </trkpt>
      <trkpt lat="47.98226" lon="-3.10123">
        <ele>77</ele>
        <time>2018-08-14T13:06:27Z</time>
      </trkpt>
      <trkpt lat="47.98235" lon="-3.10191">
        <ele>78.3</ele>
        <time>2018-08-14T13:06:34Z</time>
      </trkpt>
      <trkpt lat="47.98247" lon="-3.10253">
        <ele>79.9</ele>
        <time>2018-08-14T13:06:41Z</time>
      </trkpt>
      <trkpt lat="47.98248" lon="-3.10262">
        <ele>79.8</ele>
        <time>2018-08-14T13:06:42Z</time>
      </trkpt>
      <trkpt lat="47.98246" lon="-3.10331">
        <ele>79.6</ele>
        <time>2018-08-14T13:06:51Z</time>
      </trkpt>
      <trkpt lat="47.98245" lon="-3.10338">
        <ele>79.7</ele>
        <time>2018-08-14T13:06:52Z</time>
      </trkpt>
      <trkpt lat="47.98225" lon="-3.10403">
        <ele>79.4</ele>
        <time>2018-08-14T13:07:01Z</time>
      </trkpt>
      <trkpt lat="47.98223" lon="-3.10408">
        <ele>79.2</ele>
        <time>2018-08-14T13:07:02Z</time>
      </trkpt>
      <trkpt lat="47.98212" lon="-3.10431">
        <ele>78.4</ele>
        <time>2018-08-14T13:07:07Z</time>
      </trkpt>
      <trkpt lat="47.98203" lon="-3.10461">
        <ele>77.5</ele>
        <time>2018-08-14T13:07:12Z</time>
      </trkpt>
      <trkpt lat="47.98186" lon="-3.10497">
        <ele>76.2</ele>
        <time>2018-08-14T13:07:17Z</time>
      </trkpt>
      <trkpt lat="47.98132" lon="-3.1057">
        <ele>71.7</ele>
        <time>2018-08-14T13:07:26Z</time>
      </trkpt>
      <trkpt lat="47.98105" lon="-3.10598">
        <ele>70.8</ele>
        <time>2018-08-14T13:07:30Z</time>
      </trkpt>
      <trkpt lat="47.98091" lon="-3.1061">
        <ele>70.3</ele>
        <time>2018-08-14T13:07:32Z</time>
      </trkpt>
      <trkpt lat="47.98052" lon="-3.10636">
        <ele>69.4</ele>
        <time>2018-08-14T13:07:37Z</time>
      </trkpt>
      <trkpt lat="47.9802" lon="-3.1065">
        <ele>68.7</ele>
        <time>2018-08-14T13:07:42Z</time>
      </trkpt>
      <trkpt lat="47.97989" lon="-3.10662">
        <ele>68.1</ele>
        <time>2018-08-14T13:07:47Z</time>
      </trkpt>
      <trkpt lat="47.97964" lon="-3.10692">
        <ele>67.5</ele>
        <time>2018-08-14T13:07:52Z</time>
      </trkpt>
      <trkpt lat="47.97951" lon="-3.10733">
        <ele>66.4</ele>
        <time>2018-08-14T13:07:57Z</time>
      </trkpt>
      <trkpt lat="47.97945" lon="-3.10807">
        <ele>64.3</ele>
        <time>2018-08-14T13:08:05Z</time>
      </trkpt>
      <trkpt lat="47.97939" lon="-3.10866">
        <ele>62.8</ele>
        <time>2018-08-14T13:08:11Z</time>
      </trkpt>
      <trkpt lat="47.97939" lon="-3.10873">
        <ele>62.6</ele>
        <time>2018-08-14T13:08:12Z</time>
      </trkpt>
      <trkpt lat="47.97939" lon="-3.10915">
        <ele>61.4</ele>
        <time>2018-08-14T13:08:17Z</time>
      </trkpt>
      <trkpt lat="47.97943" lon="-3.10955">
        <ele>60.7</ele>
        <time>2018-08-14T13:08:22Z</time>
      </trkpt>
      <trkpt lat="47.9794" lon="-3.10991">
        <ele>60.1</ele>
        <time>2018-08-14T13:08:27Z</time>
      </trkpt>
      <trkpt lat="47.97934" lon="-3.11023">
        <ele>60.7</ele>
        <time>2018-08-14T13:08:32Z</time>
      </trkpt>
      <trkpt lat="47.9793" lon="-3.11058">
        <ele>61</ele>
        <time>2018-08-14T13:08:37Z</time>
      </trkpt>
      <trkpt lat="47.97913" lon="-3.11078">
        <ele>59.7</ele>
        <time>2018-08-14T13:08:42Z</time>
      </trkpt>
      <trkpt lat="47.97901" lon="-3.11112">
        <ele>56</ele>
        <time>2018-08-14T13:08:50Z</time>
      </trkpt>
      <trkpt lat="47.97904" lon="-3.11122">
        <ele>56</ele>
        <time>2018-08-14T13:08:52Z</time>
      </trkpt>
      <trkpt lat="47.97914" lon="-3.11153">
        <ele>56</ele>
        <time>2018-08-14T13:08:59Z</time>
      </trkpt>
      <trkpt lat="47.97922" lon="-3.11161">
        <ele>57.3</ele>
        <time>2018-08-14T13:09:02Z</time>
      </trkpt>
      <trkpt lat="47.97935" lon="-3.11168">
        <ele>59.8</ele>
        <time>2018-08-14T13:09:07Z</time>
      </trkpt>
      <trkpt lat="47.97949" lon="-3.11191">
        <ele>58.9</ele>
        <time>2018-08-14T13:09:14Z</time>
      </trkpt>
      <trkpt lat="47.97958" lon="-3.11203">
        <ele>58.3</ele>
        <time>2018-08-14T13:09:17Z</time>
      </trkpt>
      <trkpt lat="47.97979" lon="-3.1123">
        <ele>56.4</ele>
        <time>2018-08-14T13:09:23Z</time>
      </trkpt>
      <trkpt lat="47.97993" lon="-3.1125">
        <ele>56.4</ele>
        <time>2018-08-14T13:09:27Z</time>
      </trkpt>
      <trkpt lat="47.97998" lon="-3.11292">
        <ele>56.8</ele>
        <time>2018-08-14T13:09:32Z</time>
      </trkpt>
      <trkpt lat="47.97988" lon="-3.11339">
        <ele>56.8</ele>
        <time>2018-08-14T13:09:37Z</time>
      </trkpt>
      <trkpt lat="47.9798" lon="-3.11386">
        <ele>56.7</ele>
        <time>2018-08-14T13:09:42Z</time>
      </trkpt>
      <trkpt lat="47.9797" lon="-3.11435">
        <ele>56.7</ele>
        <time>2018-08-14T13:09:47Z</time>
      </trkpt>
      <trkpt lat="47.97962" lon="-3.11476">
        <ele>56.7</ele>
        <time>2018-08-14T13:09:52Z</time>
      </trkpt>
      <trkpt lat="47.97954" lon="-3.11511">
        <ele>56.7</ele>
        <time>2018-08-14T13:09:57Z</time>
      </trkpt>
      <trkpt lat="47.97948" lon="-3.11547">
        <ele>56.9</ele>
        <time>2018-08-14T13:10:02Z</time>
      </trkpt>
      <trkpt lat="47.97941" lon="-3.11581">
        <ele>57</ele>
        <time>2018-08-14T13:10:07Z</time>
      </trkpt>
      <trkpt lat="47.97934" lon="-3.11622">
        <ele>56.6</ele>
        <time>2018-08-14T13:10:12Z</time>
      </trkpt>
      <trkpt lat="47.9793" lon="-3.11653">
        <ele>56.2</ele>
        <time>2018-08-14T13:10:17Z</time>
      </trkpt>
      <trkpt lat="47.97926" lon="-3.11682">
        <ele>55.7</ele>
        <time>2018-08-14T13:10:22Z</time>
      </trkpt>
      <trkpt lat="47.9792" lon="-3.11757">
        <ele>54.8</ele>
        <time>2018-08-14T13:10:31Z</time>
      </trkpt>
      <trkpt lat="47.97919" lon="-3.11764">
        <ele>54.8</ele>
        <time>2018-08-14T13:10:32Z</time>
      </trkpt>
      <trkpt lat="47.97919" lon="-3.11801">
        <ele>54.8</ele>
        <time>2018-08-14T13:10:37Z</time>
      </trkpt>
      <trkpt lat="47.9792" lon="-3.11842">
        <ele>55</ele>
        <time>2018-08-14T13:10:42Z</time>
      </trkpt>
      <trkpt lat="47.97929" lon="-3.11897">
        <ele>55.4</ele>
        <time>2018-08-14T13:10:49Z</time>
      </trkpt>
      <trkpt lat="47.9793" lon="-3.11935">
        <ele>55.6</ele>
        <time>2018-08-14T13:10:54Z</time>
      </trkpt>
      <trkpt lat="47.97933" lon="-3.11992">
        <ele>56.3</ele>
        <time>2018-08-14T13:11:01Z</time>
      </trkpt>
      <trkpt lat="47.97933" lon="-3.12">
        <ele>56.4</ele>
        <time>2018-08-14T13:11:02Z</time>
      </trkpt>
      <trkpt lat="47.97939" lon="-3.1203">
        <ele>56.8</ele>
        <time>2018-08-14T13:11:07Z</time>
      </trkpt>
      <trkpt lat="47.97952" lon="-3.12066">
        <ele>57.5</ele>
        <time>2018-08-14T13:11:12Z</time>
      </trkpt>
      <trkpt lat="47.97974" lon="-3.12089">
        <ele>58.2</ele>
        <time>2018-08-14T13:11:17Z</time>
      </trkpt>
      <trkpt lat="47.98003" lon="-3.12129">
        <ele>59</ele>
        <time>2018-08-14T13:11:26Z</time>
      </trkpt>
      <trkpt lat="47.98008" lon="-3.12133">
        <ele>59</ele>
        <time>2018-08-14T13:11:27Z</time>
      </trkpt>
      <trkpt lat="47.98028" lon="-3.12164">
        <ele>59.8</ele>
        <time>2018-08-14T13:11:34Z</time>
      </trkpt>
      <trkpt lat="47.9803" lon="-3.12185">
        <ele>60.7</ele>
        <time>2018-08-14T13:11:37Z</time>
      </trkpt>
      <trkpt lat="47.9803" lon="-3.1224">
        <ele>63.7</ele>
        <time>2018-08-14T13:11:46Z</time>
      </trkpt>
      <trkpt lat="47.9803" lon="-3.12245">
        <ele>64</ele>
        <time>2018-08-14T13:11:47Z</time>
      </trkpt>
      <trkpt lat="47.98028" lon="-3.12286">
        <ele>66.6</ele>
        <time>2018-08-14T13:11:54Z</time>
      </trkpt>
      <trkpt lat="47.98027" lon="-3.12325">
        <ele>69.7</ele>
        <time>2018-08-14T13:12:01Z</time>
      </trkpt>
      <trkpt lat="47.98028" lon="-3.12333">
        <ele>70.2</ele>
        <time>2018-08-14T13:12:02Z</time>
      </trkpt>
      <trkpt lat="47.98031" lon="-3.12384">
        <ele>72.8</ele>
        <time>2018-08-14T13:12:08Z</time>
      </trkpt>
      <trkpt lat="47.98029" lon="-3.124">
        <ele>73.5</ele>
        <time>2018-08-14T13:12:12Z</time>
      </trkpt>
      <trkpt lat="47.98028" lon="-3.12424">
        <ele>74.2</ele>
        <time>2018-08-14T13:12:17Z</time>
      </trkpt>
      <trkpt lat="47.98039" lon="-3.12469">
        <ele>75.2</ele>
        <time>2018-08-14T13:12:23Z</time>
      </trkpt>
      <trkpt lat="47.98062" lon="-3.12504">
        <ele>75.7</ele>
        <time>2018-08-14T13:12:27Z</time>
      </trkpt>
      <trkpt lat="47.98102" lon="-3.12525">
        <ele>75.8</ele>
        <time>2018-08-14T13:12:34Z</time>
      </trkpt>
      <trkpt lat="47.98128" lon="-3.12538">
        <ele>75.8</ele>
        <time>2018-08-14T13:12:41Z</time>
      </trkpt>
      <trkpt lat="47.98133" lon="-3.12542">
        <ele>75.8</ele>
        <time>2018-08-14T13:12:45Z</time>
      </trkpt>
      <trkpt lat="47.98145" lon="-3.12542">
        <ele>75.8</ele>
        <time>2018-08-14T13:12:51Z</time>
      </trkpt>
      <trkpt lat="47.98149" lon="-3.12543">
        <ele>75.8</ele>
        <time>2018-08-14T13:12:54Z</time>
      </trkpt>
      <trkpt lat="47.98149" lon="-3.12549">
        <ele>75.8</ele>
        <time>2018-08-14T13:12:57Z</time>
      </trkpt>
      <trkpt lat="47.98148" lon="-3.12553">
        <ele>75.9</ele>
        <time>2018-08-14T13:13:02Z</time>
      </trkpt>
      <trkpt lat="47.98147" lon="-3.12561">
        <ele>75.9</ele>
        <time>2018-08-14T13:13:07Z</time>
      </trkpt>
      <trkpt lat="47.98144" lon="-3.12568">
        <ele>77.5</ele>
        <time>2018-08-14T13:13:12Z</time>
      </trkpt>
      <trkpt lat="47.98144" lon="-3.12573">
        <ele>78.1</ele>
        <time>2018-08-14T13:13:17Z</time>
      </trkpt>
      <trkpt lat="47.98137" lon="-3.1257">
        <ele>78.5</ele>
        <time>2018-08-14T13:13:26Z</time>
      </trkpt>
      <trkpt lat="47.98137" lon="-3.12569">
        <ele>77.5</ele>
        <time>2018-08-14T13:13:27Z</time>
      </trkpt>
      <trkpt lat="47.98136" lon="-3.12559">
        <ele>76.1</ele>
        <time>2018-08-14T13:13:33Z</time>
      </trkpt>
      <trkpt lat="47.98133" lon="-3.12555">
        <ele>75.7</ele>
        <time>2018-08-14T13:13:37Z</time>
      </trkpt>
      <trkpt lat="47.9813" lon="-3.12554">
        <ele>75.8</ele>
        <time>2018-08-14T13:13:42Z</time>
      </trkpt>
      <trkpt lat="47.98131" lon="-3.12551">
        <ele>75.8</ele>
        <time>2018-08-14T13:13:47Z</time>
      </trkpt>
      <trkpt lat="47.98133" lon="-3.12552">
        <ele>75.8</ele>
        <time>2018-08-14T13:13:52Z</time>
      </trkpt>
      <trkpt lat="47.98132" lon="-3.12553">
        <ele>75.8</ele>
        <time>2018-08-14T13:13:57Z</time>
      </trkpt>
      <trkpt lat="47.98132" lon="-3.12551">
        <ele>75.8</ele>
        <time>2018-08-14T13:14:02Z</time>
      </trkpt>
      <trkpt lat="47.98132" lon="-3.12553">
        <ele>75.8</ele>
        <time>2018-08-14T13:14:07Z</time>
      </trkpt>
      <trkpt lat="47.98132" lon="-3.12555">
        <ele>75.8</ele>
        <time>2018-08-14T13:14:12Z</time>
      </trkpt>
      <trkpt lat="47.98132" lon="-3.12555">
        <ele>75.8</ele>
        <time>2018-08-14T13:14:17Z</time>
      </trkpt>
      <trkpt lat="47.98132" lon="-3.12555">
        <ele>75.8</ele>
        <time>2018-08-14T13:14:22Z</time>
      </trkpt>
      <trkpt lat="47.98132" lon="-3.12556">
        <ele>75.8</ele>
        <time>2018-08-14T13:14:27Z</time>
      </trkpt>
      <trkpt lat="47.98131" lon="-3.12556">
        <ele>75.8</ele>
        <time>2018-08-14T13:14:32Z</time>
      </trkpt>
      <trkpt lat="47.98132" lon="-3.12555">
        <ele>75.8</ele>
        <time>2018-08-14T13:14:37Z</time>
      </trkpt>
      <trkpt lat="47.98132" lon="-3.12555">
        <ele>75.8</ele>
        <time>2018-08-14T13:14:42Z</time>
      </trkpt>
      <trkpt lat="47.98134" lon="-3.12557">
        <ele>75.8</ele>
        <time>2018-08-14T13:14:47Z</time>
      </trkpt>
      <trkpt lat="47.98133" lon="-3.12557">
        <ele>75.8</ele>
        <time>2018-08-14T13:14:56Z</time>
      </trkpt>
      <trkpt lat="47.98132" lon="-3.12557">
        <ele>75.8</ele>
        <time>2018-08-14T13:14:57Z</time>
      </trkpt>
      <trkpt lat="47.9813" lon="-3.12552">
        <ele>75.8</ele>
        <time>2018-08-14T13:15:03Z</time>
      </trkpt>
      <trkpt lat="47.98128" lon="-3.12546">
        <ele>75.8</ele>
        <time>2018-08-14T13:15:07Z</time>
      </trkpt>
      <trkpt lat="47.98127" lon="-3.12547">
        <ele>75.8</ele>
        <time>2018-08-14T13:15:14Z</time>
      </trkpt>
      <trkpt lat="47.98126" lon="-3.12546">
        <ele>75.8</ele>
        <time>2018-08-14T13:15:17Z</time>
      </trkpt>
      <trkpt lat="47.98126" lon="-3.12545">
        <ele>75.8</ele>
        <time>2018-08-14T13:15:22Z</time>
      </trkpt>
      <trkpt lat="47.98117" lon="-3.12538">
        <ele>75.8</ele>
        <time>2018-08-14T13:15:27Z</time>
      </trkpt>
      <trkpt lat="47.98103" lon="-3.12535">
        <ele>75.8</ele>
        <time>2018-08-14T13:15:32Z</time>
      </trkpt>
      <trkpt lat="47.9809" lon="-3.12529">
        <ele>75.8</ele>
        <time>2018-08-14T13:15:37Z</time>
      </trkpt>
      <trkpt lat="47.9805" lon="-3.12517">
        <ele>75.7</ele>
        <time>2018-08-14T13:15:46Z</time>
      </trkpt>
      <trkpt lat="47.98045" lon="-3.12507">
        <ele>75.6</ele>
        <time>2018-08-14T13:15:48Z</time>
      </trkpt>
      <trkpt lat="47.98037" lon="-3.12486">
        <ele>75.4</ele>
        <time>2018-08-14T13:15:52Z</time>
      </trkpt>
      <trkpt lat="47.98035" lon="-3.12467">
        <ele>75.2</ele>
        <time>2018-08-14T13:15:57Z</time>
      </trkpt>
      <trkpt lat="47.98035" lon="-3.12429">
        <ele>74.3</ele>
        <time>2018-08-14T13:16:04Z</time>
      </trkpt>
      <trkpt lat="47.98034" lon="-3.12403">
        <ele>73.6</ele>
        <time>2018-08-14T13:16:09Z</time>
      </trkpt>
      <trkpt lat="47.98035" lon="-3.12387">
        <ele>72.9</ele>
        <time>2018-08-14T13:16:12Z</time>
      </trkpt>
      <trkpt lat="47.98038" lon="-3.12347">
        <ele>71</ele>
        <time>2018-08-14T13:16:17Z</time>
      </trkpt>
      <trkpt lat="47.98038" lon="-3.12231">
        <ele>63.3</ele>
        <time>2018-08-14T13:16:26Z</time>
      </trkpt>
      <trkpt lat="47.98039" lon="-3.12212">
        <ele>62.1</ele>
        <time>2018-08-14T13:16:27Z</time>
      </trkpt>
      <trkpt lat="47.98001" lon="-3.1212">
        <ele>59</ele>
        <time>2018-08-14T13:16:36Z</time>
      </trkpt>
      <trkpt lat="47.97996" lon="-3.12114">
        <ele>58.8</ele>
        <time>2018-08-14T13:16:37Z</time>
      </trkpt>
      <trkpt lat="47.97944" lon="-3.12047">
        <ele>57.1</ele>
        <time>2018-08-14T13:16:46Z</time>
      </trkpt>
      <trkpt lat="47.97934" lon="-3.12007">
        <ele>56.5</ele>
        <time>2018-08-14T13:16:50Z</time>
      </trkpt>
      <trkpt lat="47.97931" lon="-3.11987">
        <ele>56.2</ele>
        <time>2018-08-14T13:16:52Z</time>
      </trkpt>
      <trkpt lat="47.97926" lon="-3.11931">
        <ele>55.6</ele>
        <time>2018-08-14T13:16:58Z</time>
      </trkpt>
      <trkpt lat="47.97923" lon="-3.11897">
        <ele>55.4</ele>
        <time>2018-08-14T13:17:02Z</time>
      </trkpt>
      <trkpt lat="47.97918" lon="-3.1186">
        <ele>55</ele>
        <time>2018-08-14T13:17:07Z</time>
      </trkpt>
      <trkpt lat="47.97917" lon="-3.11821">
        <ele>54.8</ele>
        <time>2018-08-14T13:17:12Z</time>
      </trkpt>
      <trkpt lat="47.97915" lon="-3.11794">
        <ele>54.8</ele>
        <time>2018-08-14T13:17:17Z</time>
      </trkpt>
      <trkpt lat="47.97918" lon="-3.11759">
        <ele>54.8</ele>
        <time>2018-08-14T13:17:22Z</time>
      </trkpt>
      <trkpt lat="47.97919" lon="-3.11721">
        <ele>55.2</ele>
        <time>2018-08-14T13:17:27Z</time>
      </trkpt>
      <trkpt lat="47.97924" lon="-3.11691">
        <ele>55.6</ele>
        <time>2018-08-14T13:17:32Z</time>
      </trkpt>
      <trkpt lat="47.9793" lon="-3.11645">
        <ele>56.3</ele>
        <time>2018-08-14T13:17:38Z</time>
      </trkpt>
      <trkpt lat="47.97923" lon="-3.11588">
        <ele>56.8</ele>
        <time>2018-08-14T13:17:46Z</time>
      </trkpt>
      <trkpt lat="47.97906" lon="-3.1158">
        <ele>56.4</ele>
        <time>2018-08-14T13:17:50Z</time>
      </trkpt>
      <trkpt lat="47.97897" lon="-3.11576">
        <ele>56.2</ele>
        <time>2018-08-14T13:17:52Z</time>
      </trkpt>
      <trkpt lat="47.97854" lon="-3.11554">
        <ele>55.4</ele>
        <time>2018-08-14T13:18:01Z</time>
      </trkpt>
      <trkpt lat="47.97849" lon="-3.11551">
        <ele>55.4</ele>
        <time>2018-08-14T13:18:02Z</time>
      </trkpt>
      <trkpt lat="47.97825" lon="-3.11536">
        <ele>55</ele>
        <time>2018-08-14T13:18:07Z</time>
      </trkpt>
      <trkpt lat="47.97794" lon="-3.11515">
        <ele>54.6</ele>
        <time>2018-08-14T13:18:13Z</time>
      </trkpt>
      <trkpt lat="47.97778" lon="-3.115">
        <ele>54.2</ele>
        <time>2018-08-14T13:18:17Z</time>
      </trkpt>
      <trkpt lat="47.97752" lon="-3.11478">
        <ele>53.5</ele>
        <time>2018-08-14T13:18:22Z</time>
      </trkpt>
      <trkpt lat="47.97731" lon="-3.1146">
        <ele>52.9</ele>
        <time>2018-08-14T13:18:27Z</time>
      </trkpt>
      <trkpt lat="47.97693" lon="-3.11427">
        <ele>51.3</ele>
        <time>2018-08-14T13:18:35Z</time>
      </trkpt>
      <trkpt lat="47.97684" lon="-3.11419">
        <ele>51.1</ele>
        <time>2018-08-14T13:18:37Z</time>
      </trkpt>
      <trkpt lat="47.97665" lon="-3.11402">
        <ele>50.4</ele>
        <time>2018-08-14T13:18:42Z</time>
      </trkpt>
      <trkpt lat="47.97641" lon="-3.11406">
        <ele>49.9</ele>
        <time>2018-08-14T13:18:47Z</time>
      </trkpt>
      <trkpt lat="47.97609" lon="-3.11433">
        <ele>49.8</ele>
        <time>2018-08-14T13:18:55Z</time>
      </trkpt>
      <trkpt lat="47.97585" lon="-3.1145">
        <ele>49.7</ele>
        <time>2018-08-14T13:19:01Z</time>
      </trkpt>
      <trkpt lat="47.97563" lon="-3.11467">
        <ele>49.6</ele>
        <time>2018-08-14T13:19:06Z</time>
      </trkpt>
      <trkpt lat="47.97541" lon="-3.11498">
        <ele>49.6</ele>
        <time>2018-08-14T13:19:11Z</time>
      </trkpt>
      <trkpt lat="47.97533" lon="-3.11509">
        <ele>49.6</ele>
        <time>2018-08-14T13:19:13Z</time>
      </trkpt>
      <trkpt lat="47.97505" lon="-3.11551">
        <ele>49.7</ele>
        <time>2018-08-14T13:19:21Z</time>
      </trkpt>
      <trkpt lat="47.97502" lon="-3.11557">
        <ele>49.7</ele>
        <time>2018-08-14T13:19:22Z</time>
      </trkpt>
      <trkpt lat="47.97472" lon="-3.11603">
        <ele>49.8</ele>
        <time>2018-08-14T13:19:31Z</time>
      </trkpt>
      <trkpt lat="47.97468" lon="-3.11609">
        <ele>49.8</ele>
        <time>2018-08-14T13:19:32Z</time>
      </trkpt>
      <trkpt lat="47.97453" lon="-3.11634">
        <ele>49.9</ele>
        <time>2018-08-14T13:19:37Z</time>
      </trkpt>
      <trkpt lat="47.97428" lon="-3.11634">
        <ele>49.4</ele>
        <time>2018-08-14T13:19:42Z</time>
      </trkpt>
      <trkpt lat="47.97401" lon="-3.11624">
        <ele>49</ele>
        <time>2018-08-14T13:19:47Z</time>
      </trkpt>
      <trkpt lat="47.97374" lon="-3.11611">
        <ele>48.7</ele>
        <time>2018-08-14T13:19:52Z</time>
      </trkpt>
      <trkpt lat="47.97346" lon="-3.116">
        <ele>48.6</ele>
        <time>2018-08-14T13:19:57Z</time>
      </trkpt>
      <trkpt lat="47.9732" lon="-3.1159">
        <ele>48.6</ele>
        <time>2018-08-14T13:20:02Z</time>
      </trkpt>
      <trkpt lat="47.97295" lon="-3.11582">
        <ele>48.8</ele>
        <time>2018-08-14T13:20:07Z</time>
      </trkpt>
      <trkpt lat="47.97272" lon="-3.11581">
        <ele>49</ele>
        <time>2018-08-14T13:20:12Z</time>
      </trkpt>
      <trkpt lat="47.97255" lon="-3.11582">
        <ele>49.2</ele>
        <time>2018-08-14T13:20:17Z</time>
      </trkpt>
      <trkpt lat="47.97237" lon="-3.11586">
        <ele>49.7</ele>
        <time>2018-08-14T13:20:22Z</time>
      </trkpt>
      <trkpt lat="47.9721" lon="-3.1159">
        <ele>50.9</ele>
        <time>2018-08-14T13:20:30Z</time>
      </trkpt>
      <trkpt lat="47.97189" lon="-3.11603">
        <ele>52.3</ele>
        <time>2018-08-14T13:20:35Z</time>
      </trkpt>
      <trkpt lat="47.97169" lon="-3.11626">
        <ele>54.1</ele>
        <time>2018-08-14T13:20:40Z</time>
      </trkpt>
      <trkpt lat="47.97147" lon="-3.11643">
        <ele>55.8</ele>
        <time>2018-08-14T13:20:46Z</time>
      </trkpt>
      <trkpt lat="47.97144" lon="-3.11644">
        <ele>56</ele>
        <time>2018-08-14T13:20:47Z</time>
      </trkpt>
      <trkpt lat="47.97128" lon="-3.11651">
        <ele>57.2</ele>
        <time>2018-08-14T13:20:52Z</time>
      </trkpt>
      <trkpt lat="47.97112" lon="-3.11665">
        <ele>58.8</ele>
        <time>2018-08-14T13:20:57Z</time>
      </trkpt>
      <trkpt lat="47.97094" lon="-3.11676">
        <ele>60.3</ele>
        <time>2018-08-14T13:21:03Z</time>
      </trkpt>
      <trkpt lat="47.97074" lon="-3.11702">
        <ele>62.2</ele>
        <time>2018-08-14T13:21:09Z</time>
      </trkpt>
      <trkpt lat="47.97061" lon="-3.11722">
        <ele>63.2</ele>
        <time>2018-08-14T13:21:13Z</time>
      </trkpt>
      <trkpt lat="47.97047" lon="-3.11733">
        <ele>64</ele>
        <time>2018-08-14T13:21:17Z</time>
      </trkpt>
      <trkpt lat="47.9703" lon="-3.11753">
        <ele>65</ele>
        <time>2018-08-14T13:21:22Z</time>
      </trkpt>
      <trkpt lat="47.97013" lon="-3.11776">
        <ele>66.4</ele>
        <time>2018-08-14T13:21:27Z</time>
      </trkpt>
      <trkpt lat="47.96998" lon="-3.11787">
        <ele>67.4</ele>
        <time>2018-08-14T13:21:32Z</time>
      </trkpt>
      <trkpt lat="47.96966" lon="-3.11803">
        <ele>69.6</ele>
        <time>2018-08-14T13:21:41Z</time>
      </trkpt>
      <trkpt lat="47.96962" lon="-3.11802">
        <ele>69.8</ele>
        <time>2018-08-14T13:21:42Z</time>
      </trkpt>
      <trkpt lat="47.96948" lon="-3.11808">
        <ele>70.7</ele>
        <time>2018-08-14T13:21:47Z</time>
      </trkpt>
      <trkpt lat="47.9691" lon="-3.11825">
        <ele>73.5</ele>
        <time>2018-08-14T13:21:56Z</time>
      </trkpt>
      <trkpt lat="47.96893" lon="-3.11832">
        <ele>74.7</ele>
        <time>2018-08-14T13:22:00Z</time>
      </trkpt>
      <trkpt lat="47.96879" lon="-3.11838">
        <ele>75.8</ele>
        <time>2018-08-14T13:22:04Z</time>
      </trkpt>
      <trkpt lat="47.96873" lon="-3.11839">
        <ele>76.3</ele>
        <time>2018-08-14T13:22:07Z</time>
      </trkpt>
      <trkpt lat="47.96859" lon="-3.11844">
        <ele>77.1</ele>
        <time>2018-08-14T13:22:12Z</time>
      </trkpt>
      <trkpt lat="47.96841" lon="-3.11842">
        <ele>78.1</ele>
        <time>2018-08-14T13:22:17Z</time>
      </trkpt>
      <trkpt lat="47.96817" lon="-3.11847">
        <ele>79.2</ele>
        <time>2018-08-14T13:22:23Z</time>
      </trkpt>
      <trkpt lat="47.96794" lon="-3.11857">
        <ele>80.8</ele>
        <time>2018-08-14T13:22:30Z</time>
      </trkpt>
      <trkpt lat="47.96776" lon="-3.11869">
        <ele>81.9</ele>
        <time>2018-08-14T13:22:35Z</time>
      </trkpt>
      <trkpt lat="47.96772" lon="-3.11872">
        <ele>82.2</ele>
        <time>2018-08-14T13:22:37Z</time>
      </trkpt>
      <trkpt lat="47.96758" lon="-3.11884">
        <ele>83.2</ele>
        <time>2018-08-14T13:22:42Z</time>
      </trkpt>
      <trkpt lat="47.96746" lon="-3.11893">
        <ele>84.2</ele>
        <time>2018-08-14T13:22:47Z</time>
      </trkpt>
      <trkpt lat="47.96732" lon="-3.11902">
        <ele>85.5</ele>
        <time>2018-08-14T13:22:52Z</time>
      </trkpt>
      <trkpt lat="47.96714" lon="-3.11915">
        <ele>87.7</ele>
        <time>2018-08-14T13:22:58Z</time>
      </trkpt>
      <trkpt lat="47.96697" lon="-3.11928">
        <ele>89.3</ele>
        <time>2018-08-14T13:23:04Z</time>
      </trkpt>
      <trkpt lat="47.96686" lon="-3.11931">
        <ele>90</ele>
        <time>2018-08-14T13:23:07Z</time>
      </trkpt>
      <trkpt lat="47.96656" lon="-3.11938">
        <ele>92.8</ele>
        <time>2018-08-14T13:23:16Z</time>
      </trkpt>
      <trkpt lat="47.96655" lon="-3.11937">
        <ele>92.9</ele>
        <time>2018-08-14T13:23:17Z</time>
      </trkpt>
      <trkpt lat="47.96639" lon="-3.11935">
        <ele>94.2</ele>
        <time>2018-08-14T13:23:22Z</time>
      </trkpt>
      <trkpt lat="47.96615" lon="-3.11941">
        <ele>96</ele>
        <time>2018-08-14T13:23:30Z</time>
      </trkpt>
      <trkpt lat="47.96608" lon="-3.11941">
        <ele>96.4</ele>
        <time>2018-08-14T13:23:32Z</time>
      </trkpt>
      <trkpt lat="47.96592" lon="-3.1195">
        <ele>97.1</ele>
        <time>2018-08-14T13:23:38Z</time>
      </trkpt>
      <trkpt lat="47.96576" lon="-3.11965">
        <ele>97.3</ele>
        <time>2018-08-14T13:23:43Z</time>
      </trkpt>
      <trkpt lat="47.96566" lon="-3.11976">
        <ele>97.5</ele>
        <time>2018-08-14T13:23:47Z</time>
      </trkpt>
      <trkpt lat="47.96547" lon="-3.12002">
        <ele>97.8</ele>
        <time>2018-08-14T13:23:54Z</time>
      </trkpt>
      <trkpt lat="47.96527" lon="-3.1203">
        <ele>98</ele>
        <time>2018-08-14T13:24:01Z</time>
      </trkpt>
      <trkpt lat="47.96511" lon="-3.12048">
        <ele>98</ele>
        <time>2018-08-14T13:24:06Z</time>
      </trkpt>
      <trkpt lat="47.96499" lon="-3.12058">
        <ele>98</ele>
        <time>2018-08-14T13:24:10Z</time>
      </trkpt>
      <trkpt lat="47.96483" lon="-3.12076">
        <ele>98.2</ele>
        <time>2018-08-14T13:24:15Z</time>
      </trkpt>
      <trkpt lat="47.96478" lon="-3.12084">
        <ele>98.3</ele>
        <time>2018-08-14T13:24:17Z</time>
      </trkpt>
      <trkpt lat="47.96467" lon="-3.12097">
        <ele>98.4</ele>
        <time>2018-08-14T13:24:22Z</time>
      </trkpt>
      <trkpt lat="47.96454" lon="-3.12115">
        <ele>98.6</ele>
        <time>2018-08-14T13:24:27Z</time>
      </trkpt>
      <trkpt lat="47.96442" lon="-3.12141">
        <ele>98.9</ele>
        <time>2018-08-14T13:24:33Z</time>
      </trkpt>
      <trkpt lat="47.96435" lon="-3.12153">
        <ele>99</ele>
        <time>2018-08-14T13:24:37Z</time>
      </trkpt>
      <trkpt lat="47.96422" lon="-3.12166">
        <ele>99.2</ele>
        <time>2018-08-14T13:24:42Z</time>
      </trkpt>
      <trkpt lat="47.96406" lon="-3.12184">
        <ele>99.7</ele>
        <time>2018-08-14T13:24:47Z</time>
      </trkpt>
      <trkpt lat="47.96383" lon="-3.12191">
        <ele>100.1</ele>
        <time>2018-08-14T13:24:54Z</time>
      </trkpt>
      <trkpt lat="47.96374" lon="-3.12193">
        <ele>100.2</ele>
        <time>2018-08-14T13:24:57Z</time>
      </trkpt>
      <trkpt lat="47.96351" lon="-3.12196">
        <ele>100.5</ele>
        <time>2018-08-14T13:25:03Z</time>
      </trkpt>
      <trkpt lat="47.96337" lon="-3.12198">
        <ele>100.8</ele>
        <time>2018-08-14T13:25:07Z</time>
      </trkpt>
      <trkpt lat="47.96311" lon="-3.122">
        <ele>101.7</ele>
        <time>2018-08-14T13:25:14Z</time>
      </trkpt>
      <trkpt lat="47.96285" lon="-3.12202">
        <ele>102.9</ele>
        <time>2018-08-14T13:25:21Z</time>
      </trkpt>
      <trkpt lat="47.96282" lon="-3.12202">
        <ele>103</ele>
        <time>2018-08-14T13:25:22Z</time>
      </trkpt>
      <trkpt lat="47.96263" lon="-3.12203">
        <ele>103.9</ele>
        <time>2018-08-14T13:25:27Z</time>
      </trkpt>
      <trkpt lat="47.96245" lon="-3.12202">
        <ele>104.9</ele>
        <time>2018-08-14T13:25:32Z</time>
      </trkpt>
      <trkpt lat="47.96214" lon="-3.12203">
        <ele>105</ele>
        <time>2018-08-14T13:25:41Z</time>
      </trkpt>
      <trkpt lat="47.9621" lon="-3.12204">
        <ele>105</ele>
        <time>2018-08-14T13:25:42Z</time>
      </trkpt>
      <trkpt lat="47.96191" lon="-3.12208">
        <ele>105.3</ele>
        <time>2018-08-14T13:25:47Z</time>
      </trkpt>
      <trkpt lat="47.96173" lon="-3.12208">
        <ele>105.4</ele>
        <time>2018-08-14T13:25:52Z</time>
      </trkpt>
      <trkpt lat="47.96156" lon="-3.1221">
        <ele>105.4</ele>
        <time>2018-08-14T13:25:57Z</time>
      </trkpt>
      <trkpt lat="47.96121" lon="-3.12225">
        <ele>105.2</ele>
        <time>2018-08-14T13:26:05Z</time>
      </trkpt>
      <trkpt lat="47.961" lon="-3.12239">
        <ele>105.1</ele>
        <time>2018-08-14T13:26:10Z</time>
      </trkpt>
      <trkpt lat="47.96093" lon="-3.12247">
        <ele>105</ele>
        <time>2018-08-14T13:26:12Z</time>
      </trkpt>
      <trkpt lat="47.96068" lon="-3.12268">
        <ele>104.7</ele>
        <time>2018-08-14T13:26:19Z</time>
      </trkpt>
      <trkpt lat="47.96057" lon="-3.12279">
        <ele>104.6</ele>
        <time>2018-08-14T13:26:22Z</time>
      </trkpt>
      <trkpt lat="47.96018" lon="-3.1231">
        <ele>104</ele>
        <time>2018-08-14T13:26:31Z</time>
      </trkpt>
      <trkpt lat="47.96013" lon="-3.12311">
        <ele>103.9</ele>
        <time>2018-08-14T13:26:32Z</time>
      </trkpt>
      <trkpt lat="47.95991" lon="-3.12307">
        <ele>103.6</ele>
        <time>2018-08-14T13:26:37Z</time>
      </trkpt>
      <trkpt lat="47.95965" lon="-3.12301">
        <ele>103.3</ele>
        <time>2018-08-14T13:26:42Z</time>
      </trkpt>
      <trkpt lat="47.95921" lon="-3.12286">
        <ele>102.6</ele>
        <time>2018-08-14T13:26:50Z</time>
      </trkpt>
      <trkpt lat="47.95882" lon="-3.12268">
        <ele>101.2</ele>
        <time>2018-08-14T13:26:56Z</time>
      </trkpt>
      <trkpt lat="47.95877" lon="-3.12263">
        <ele>100.9</ele>
        <time>2018-08-14T13:26:57Z</time>
      </trkpt>
      <trkpt lat="47.95846" lon="-3.12232">
        <ele>99.1</ele>
        <time>2018-08-14T13:27:02Z</time>
      </trkpt>
      <trkpt lat="47.95813" lon="-3.12196">
        <ele>97.2</ele>
        <time>2018-08-14T13:27:07Z</time>
      </trkpt>
      <trkpt lat="47.95771" lon="-3.12172">
        <ele>95.1</ele>
        <time>2018-08-14T13:27:12Z</time>
      </trkpt>
      <trkpt lat="47.95699" lon="-3.12171">
        <ele>91.3</ele>
        <time>2018-08-14T13:27:20Z</time>
      </trkpt>
      <trkpt lat="47.95654" lon="-3.12186">
        <ele>88.4</ele>
        <time>2018-08-14T13:27:25Z</time>
      </trkpt>
      <trkpt lat="47.95627" lon="-3.12191">
        <ele>86.6</ele>
        <time>2018-08-14T13:27:28Z</time>
      </trkpt>
      <trkpt lat="47.95591" lon="-3.12187">
        <ele>84.2</ele>
        <time>2018-08-14T13:27:32Z</time>
      </trkpt>
      <trkpt lat="47.95549" lon="-3.12152">
        <ele>81.2</ele>
        <time>2018-08-14T13:27:37Z</time>
      </trkpt>
      <trkpt lat="47.95502" lon="-3.12126">
        <ele>78.2</ele>
        <time>2018-08-14T13:27:42Z</time>
      </trkpt>
      <trkpt lat="47.95453" lon="-3.12115">
        <ele>76.1</ele>
        <time>2018-08-14T13:27:47Z</time>
      </trkpt>
      <trkpt lat="47.95391" lon="-3.12113">
        <ele>73.7</ele>
        <time>2018-08-14T13:27:54Z</time>
      </trkpt>
      <trkpt lat="47.95364" lon="-3.12111">
        <ele>72.8</ele>
        <time>2018-08-14T13:27:57Z</time>
      </trkpt>
      <trkpt lat="47.95324" lon="-3.12115">
        <ele>71.9</ele>
        <time>2018-08-14T13:28:02Z</time>
      </trkpt>
      <trkpt lat="47.95288" lon="-3.12135">
        <ele>70.9</ele>
        <time>2018-08-14T13:28:07Z</time>
      </trkpt>
      <trkpt lat="47.95265" lon="-3.12151">
        <ele>70.4</ele>
        <time>2018-08-14T13:28:11Z</time>
      </trkpt>
      <trkpt lat="47.95228" lon="-3.1218">
        <ele>69.9</ele>
        <time>2018-08-14T13:28:20Z</time>
      </trkpt>
      <trkpt lat="47.95212" lon="-3.12194">
        <ele>70</ele>
        <time>2018-08-14T13:28:24Z</time>
      </trkpt>
      <trkpt lat="47.95204" lon="-3.12201">
        <ele>70.1</ele>
        <time>2018-08-14T13:28:26Z</time>
      </trkpt>
      <trkpt lat="47.95183" lon="-3.12212">
        <ele>70.8</ele>
        <time>2018-08-14T13:28:31Z</time>
      </trkpt>
      <trkpt lat="47.95163" lon="-3.12221">
        <ele>71.8</ele>
        <time>2018-08-14T13:28:36Z</time>
      </trkpt>
      <trkpt lat="47.95143" lon="-3.1223">
        <ele>72.8</ele>
        <time>2018-08-14T13:28:41Z</time>
      </trkpt>
      <trkpt lat="47.95125" lon="-3.1223">
        <ele>73.6</ele>
        <time>2018-08-14T13:28:46Z</time>
      </trkpt>
      <trkpt lat="47.95104" lon="-3.12228">
        <ele>74.5</ele>
        <time>2018-08-14T13:28:52Z</time>
      </trkpt>
      <trkpt lat="47.9509" lon="-3.12227">
        <ele>74.9</ele>
        <time>2018-08-14T13:28:56Z</time>
      </trkpt>
      <trkpt lat="47.95069" lon="-3.12224">
        <ele>75.4</ele>
        <time>2018-08-14T13:29:02Z</time>
      </trkpt>
      <trkpt lat="47.95028" lon="-3.12211">
        <ele>76.2</ele>
        <time>2018-08-14T13:29:10Z</time>
      </trkpt>
      <trkpt lat="47.95004" lon="-3.12204">
        <ele>76.5</ele>
        <time>2018-08-14T13:29:15Z</time>
      </trkpt>
      <trkpt lat="47.94988" lon="-3.12202">
        <ele>76.7</ele>
        <time>2018-08-14T13:29:18Z</time>
      </trkpt>
      <trkpt lat="47.94972" lon="-3.12197">
        <ele>76.9</ele>
        <time>2018-08-14T13:29:21Z</time>
      </trkpt>
      <trkpt lat="47.94939" lon="-3.12191">
        <ele>77</ele>
        <time>2018-08-14T13:29:26Z</time>
      </trkpt>
      <trkpt lat="47.94902" lon="-3.12182">
        <ele>75.6</ele>
        <time>2018-08-14T13:29:31Z</time>
      </trkpt>
      <trkpt lat="47.94863" lon="-3.12188">
        <ele>74.1</ele>
        <time>2018-08-14T13:29:36Z</time>
      </trkpt>
      <trkpt lat="47.94809" lon="-3.12236">
        <ele>71</ele>
        <time>2018-08-14T13:29:43Z</time>
      </trkpt>
      <trkpt lat="47.94772" lon="-3.12253">
        <ele>68.6</ele>
        <time>2018-08-14T13:29:48Z</time>
      </trkpt>
      <trkpt lat="47.94723" lon="-3.12268">
        <ele>66.9</ele>
        <time>2018-08-14T13:29:53Z</time>
      </trkpt>
      <trkpt lat="47.94692" lon="-3.12272">
        <ele>66.6</ele>
        <time>2018-08-14T13:29:56Z</time>
      </trkpt>
      <trkpt lat="47.94637" lon="-3.12262">
        <ele>66.5</ele>
        <time>2018-08-14T13:30:02Z</time>
      </trkpt>
      <trkpt lat="47.94599" lon="-3.12253">
        <ele>66.9</ele>
        <time>2018-08-14T13:30:07Z</time>
      </trkpt>
      <trkpt lat="47.94568" lon="-3.12241">
        <ele>68.4</ele>
        <time>2018-08-14T13:30:13Z</time>
      </trkpt>
      <trkpt lat="47.9455" lon="-3.12211">
        <ele>68.8</ele>
        <time>2018-08-14T13:30:18Z</time>
      </trkpt>
      <trkpt lat="47.94547" lon="-3.12194">
        <ele>68.7</ele>
        <time>2018-08-14T13:30:21Z</time>
      </trkpt>
      <trkpt lat="47.94543" lon="-3.12163">
        <ele>68.7</ele>
        <time>2018-08-14T13:30:26Z</time>
      </trkpt>
      <trkpt lat="47.94546" lon="-3.12136">
        <ele>68.9</ele>
        <time>2018-08-14T13:30:31Z</time>
      </trkpt>
      <trkpt lat="47.94557" lon="-3.12097">
        <ele>69.4</ele>
        <time>2018-08-14T13:30:39Z</time>
      </trkpt>
      <trkpt lat="47.94566" lon="-3.12058">
        <ele>70.3</ele>
        <time>2018-08-14T13:30:44Z</time>
      </trkpt>
      <trkpt lat="47.9457" lon="-3.12029">
        <ele>70.9</ele>
        <time>2018-08-14T13:30:49Z</time>
      </trkpt>
      <trkpt lat="47.9457" lon="-3.12017">
        <ele>71.2</ele>
        <time>2018-08-14T13:30:51Z</time>
      </trkpt>
      <trkpt lat="47.9457" lon="-3.11983">
        <ele>71.8</ele>
        <time>2018-08-14T13:30:56Z</time>
      </trkpt>
      <trkpt lat="47.94573" lon="-3.1196">
        <ele>72.1</ele>
        <time>2018-08-14T13:31:01Z</time>
      </trkpt>
      <trkpt lat="47.94575" lon="-3.11938">
        <ele>72.4</ele>
        <time>2018-08-14T13:31:06Z</time>
      </trkpt>
      <trkpt lat="47.94576" lon="-3.11911">
        <ele>73.1</ele>
        <time>2018-08-14T13:31:11Z</time>
      </trkpt>
      <trkpt lat="47.94574" lon="-3.11884">
        <ele>73.8</ele>
        <time>2018-08-14T13:31:16Z</time>
      </trkpt>
      <trkpt lat="47.94571" lon="-3.11849">
        <ele>74.4</ele>
        <time>2018-08-14T13:31:21Z</time>
      </trkpt>
      <trkpt lat="47.94566" lon="-3.11812">
        <ele>74.8</ele>
        <time>2018-08-14T13:31:26Z</time>
      </trkpt>
      <trkpt lat="47.94563" lon="-3.11791">
        <ele>75</ele>
        <time>2018-08-14T13:31:31Z</time>
      </trkpt>
      <trkpt lat="47.94555" lon="-3.11762">
        <ele>75.1</ele>
        <time>2018-08-14T13:31:36Z</time>
      </trkpt>
      <trkpt lat="47.94543" lon="-3.11684">
        <ele>75.3</ele>
        <time>2018-08-14T13:31:44Z</time>
      </trkpt>
      <trkpt lat="47.94539" lon="-3.11644">
        <ele>75.5</ele>
        <time>2018-08-14T13:31:48Z</time>
      </trkpt>
      <trkpt lat="47.9452" lon="-3.11615">
        <ele>75.5</ele>
        <time>2018-08-14T13:31:52Z</time>
      </trkpt>
      <trkpt lat="47.94471" lon="-3.11603">
        <ele>74.9</ele>
        <time>2018-08-14T13:31:59Z</time>
      </trkpt>
      <trkpt lat="47.94432" lon="-3.11586">
        <ele>73.9</ele>
        <time>2018-08-14T13:32:04Z</time>
      </trkpt>
      <trkpt lat="47.9442" lon="-3.11585">
        <ele>73.7</ele>
        <time>2018-08-14T13:32:06Z</time>
      </trkpt>
      <trkpt lat="47.94359" lon="-3.11575">
        <ele>72</ele>
        <time>2018-08-14T13:32:13Z</time>
      </trkpt>
      <trkpt lat="47.94338" lon="-3.11567">
        <ele>71.5</ele>
        <time>2018-08-14T13:32:16Z</time>
      </trkpt>
      <trkpt lat="47.9432" lon="-3.11531">
        <ele>71</ele>
        <time>2018-08-14T13:32:21Z</time>
      </trkpt>
      <trkpt lat="47.94309" lon="-3.11472">
        <ele>70.6</ele>
        <time>2018-08-14T13:32:30Z</time>
      </trkpt>
      <trkpt lat="47.9431" lon="-3.11468">
        <ele>70.6</ele>
        <time>2018-08-14T13:32:31Z</time>
      </trkpt>
      <trkpt lat="47.94314" lon="-3.1142">
        <ele>70.5</ele>
        <time>2018-08-14T13:32:38Z</time>
      </trkpt>
      <trkpt lat="47.94315" lon="-3.11395">
        <ele>70.4</ele>
        <time>2018-08-14T13:32:42Z</time>
      </trkpt>
      <trkpt lat="47.94314" lon="-3.11377">
        <ele>70.4</ele>
        <time>2018-08-14T13:32:46Z</time>
      </trkpt>
      <trkpt lat="47.94303" lon="-3.1137">
        <ele>70.4</ele>
        <time>2018-08-14T13:32:51Z</time>
      </trkpt>
      <trkpt lat="47.9427" lon="-3.11349">
        <ele>70.4</ele>
        <time>2018-08-14T13:32:59Z</time>
      </trkpt>
      <trkpt lat="47.94259" lon="-3.11346">
        <ele>70.5</ele>
        <time>2018-08-14T13:33:02Z</time>
      </trkpt>
      <trkpt lat="47.94244" lon="-3.11344">
        <ele>70.7</ele>
        <time>2018-08-14T13:33:06Z</time>
      </trkpt>
      <trkpt lat="47.94214" lon="-3.11335">
        <ele>71.2</ele>
        <time>2018-08-14T13:33:12Z</time>
      </trkpt>
      <trkpt lat="47.942" lon="-3.11326">
        <ele>71.5</ele>
        <time>2018-08-14T13:33:16Z</time>
      </trkpt>
      <trkpt lat="47.94179" lon="-3.11317">
        <ele>71.9</ele>
        <time>2018-08-14T13:33:21Z</time>
      </trkpt>
      <trkpt lat="47.94158" lon="-3.113">
        <ele>72.2</ele>
        <time>2018-08-14T13:33:26Z</time>
      </trkpt>
      <trkpt lat="47.94117" lon="-3.11277">
        <ele>72.5</ele>
        <time>2018-08-14T13:33:35Z</time>
      </trkpt>
      <trkpt lat="47.94113" lon="-3.11273">
        <ele>72.6</ele>
        <time>2018-08-14T13:33:36Z</time>
      </trkpt>
      <trkpt lat="47.94094" lon="-3.11267">
        <ele>72.6</ele>
        <time>2018-08-14T13:33:41Z</time>
      </trkpt>
      <trkpt lat="47.94065" lon="-3.11258">
        <ele>72.8</ele>
        <time>2018-08-14T13:33:46Z</time>
      </trkpt>
      <trkpt lat="47.9403" lon="-3.11233">
        <ele>73.2</ele>
        <time>2018-08-14T13:33:54Z</time>
      </trkpt>
      <trkpt lat="47.93998" lon="-3.11212">
        <ele>72.2</ele>
        <time>2018-08-14T13:33:59Z</time>
      </trkpt>
      <trkpt lat="47.9398" lon="-3.1117">
        <ele>69.2</ele>
        <time>2018-08-14T13:34:03Z</time>
      </trkpt>
      <trkpt lat="47.93975" lon="-3.11117">
        <ele>66.4</ele>
        <time>2018-08-14T13:34:07Z</time>
      </trkpt>
      <trkpt lat="47.93978" lon="-3.11064">
        <ele>64.7</ele>
        <time>2018-08-14T13:34:11Z</time>
      </trkpt>
      <trkpt lat="47.93959" lon="-3.10993">
        <ele>63.8</ele>
        <time>2018-08-14T13:34:20Z</time>
      </trkpt>
      <trkpt lat="47.93956" lon="-3.10988">
        <ele>63.7</ele>
        <time>2018-08-14T13:34:21Z</time>
      </trkpt>
      <trkpt lat="47.93937" lon="-3.10968">
        <ele>63.7</ele>
        <time>2018-08-14T13:34:27Z</time>
      </trkpt>
      <trkpt lat="47.93924" lon="-3.10953">
        <ele>63.8</ele>
        <time>2018-08-14T13:34:31Z</time>
      </trkpt>
      <trkpt lat="47.93912" lon="-3.10935">
        <ele>64.5</ele>
        <time>2018-08-14T13:34:36Z</time>
      </trkpt>
      <trkpt lat="47.93901" lon="-3.10919">
        <ele>65.8</ele>
        <time>2018-08-14T13:34:41Z</time>
      </trkpt>
      <trkpt lat="47.9389" lon="-3.10902">
        <ele>67.1</ele>
        <time>2018-08-14T13:34:46Z</time>
      </trkpt>
      <trkpt lat="47.93879" lon="-3.10885">
        <ele>68.2</ele>
        <time>2018-08-14T13:34:51Z</time>
      </trkpt>
      <trkpt lat="47.93864" lon="-3.10871">
        <ele>69.5</ele>
        <time>2018-08-14T13:34:56Z</time>
      </trkpt>
      <trkpt lat="47.9385" lon="-3.10858">
        <ele>70.7</ele>
        <time>2018-08-14T13:35:01Z</time>
      </trkpt>
      <trkpt lat="47.93834" lon="-3.10845">
        <ele>72.3</ele>
        <time>2018-08-14T13:35:06Z</time>
      </trkpt>
      <trkpt lat="47.93821" lon="-3.10832">
        <ele>73.4</ele>
        <time>2018-08-14T13:35:11Z</time>
      </trkpt>
      <trkpt lat="47.93807" lon="-3.10821">
        <ele>74.6</ele>
        <time>2018-08-14T13:35:16Z</time>
      </trkpt>
      <trkpt lat="47.93795" lon="-3.10811">
        <ele>75.6</ele>
        <time>2018-08-14T13:35:21Z</time>
      </trkpt>
      <trkpt lat="47.9378" lon="-3.10801">
        <ele>77.3</ele>
        <time>2018-08-14T13:35:26Z</time>
      </trkpt>
      <trkpt lat="47.93768" lon="-3.10793">
        <ele>77.3</ele>
        <time>2018-08-14T13:35:31Z</time>
      </trkpt>
      <trkpt lat="47.93754" lon="-3.10785">
        <ele>77.2</ele>
        <time>2018-08-14T13:35:36Z</time>
      </trkpt>
      <trkpt lat="47.93739" lon="-3.10776">
        <ele>77.2</ele>
        <time>2018-08-14T13:35:41Z</time>
      </trkpt>
      <trkpt lat="47.93726" lon="-3.10768">
        <ele>77.2</ele>
        <time>2018-08-14T13:35:46Z</time>
      </trkpt>
      <trkpt lat="47.93711" lon="-3.10759">
        <ele>77.1</ele>
        <time>2018-08-14T13:35:51Z</time>
      </trkpt>
      <trkpt lat="47.9368" lon="-3.10741">
        <ele>77.2</ele>
        <time>2018-08-14T13:36:00Z</time>
      </trkpt>
      <trkpt lat="47.93677" lon="-3.10739">
        <ele>77.2</ele>
        <time>2018-08-14T13:36:01Z</time>
      </trkpt>
      <trkpt lat="47.93662" lon="-3.10725">
        <ele>77.3</ele>
        <time>2018-08-14T13:36:06Z</time>
      </trkpt>
      <trkpt lat="47.93651" lon="-3.10705">
        <ele>77.8</ele>
        <time>2018-08-14T13:36:11Z</time>
      </trkpt>
      <trkpt lat="47.9364" lon="-3.10684">
        <ele>79</ele>
        <time>2018-08-14T13:36:16Z</time>
      </trkpt>
      <trkpt lat="47.93629" lon="-3.10664">
        <ele>80.1</ele>
        <time>2018-08-14T13:36:21Z</time>
      </trkpt>
      <trkpt lat="47.93617" lon="-3.1065">
        <ele>82</ele>
        <time>2018-08-14T13:36:26Z</time>
      </trkpt>
      <trkpt lat="47.93604" lon="-3.10628">
        <ele>84.4</ele>
        <time>2018-08-14T13:36:34Z</time>
      </trkpt>
      <trkpt lat="47.93601" lon="-3.10622">
        <ele>84.8</ele>
        <time>2018-08-14T13:36:36Z</time>
      </trkpt>
      <trkpt lat="47.93594" lon="-3.10602">
        <ele>86.4</ele>
        <time>2018-08-14T13:36:42Z</time>
      </trkpt>
      <trkpt lat="47.93592" lon="-3.10585">
        <ele>87.3</ele>
        <time>2018-08-14T13:36:46Z</time>
      </trkpt>
      <trkpt lat="47.93594" lon="-3.10564">
        <ele>88.1</ele>
        <time>2018-08-14T13:36:51Z</time>
      </trkpt>
      <trkpt lat="47.936" lon="-3.10524">
        <ele>88.3</ele>
        <time>2018-08-14T13:36:58Z</time>
      </trkpt>
      <trkpt lat="47.93605" lon="-3.1049">
        <ele>88.3</ele>
        <time>2018-08-14T13:37:02Z</time>
      </trkpt>
      <trkpt lat="47.93608" lon="-3.10459">
        <ele>88.1</ele>
        <time>2018-08-14T13:37:06Z</time>
      </trkpt>
      <trkpt lat="47.93618" lon="-3.10393">
        <ele>87.7</ele>
        <time>2018-08-14T13:37:13Z</time>
      </trkpt>
      <trkpt lat="47.93608" lon="-3.10313">
        <ele>85.1</ele>
        <time>2018-08-14T13:37:20Z</time>
      </trkpt>
      <trkpt lat="47.93601" lon="-3.10257">
        <ele>83.4</ele>
        <time>2018-08-14T13:37:24Z</time>
      </trkpt>
      <trkpt lat="47.936" lon="-3.10226">
        <ele>82.5</ele>
        <time>2018-08-14T13:37:26Z</time>
      </trkpt>
      <trkpt lat="47.93599" lon="-3.10147">
        <ele>80.1</ele>
        <time>2018-08-14T13:37:31Z</time>
      </trkpt>
      <trkpt lat="47.93599" lon="-3.10085">
        <ele>78.2</ele>
        <time>2018-08-14T13:37:35Z</time>
      </trkpt>
      <trkpt lat="47.93599" lon="-3.10001">
        <ele>75.7</ele>
        <time>2018-08-14T13:37:40Z</time>
      </trkpt>
      <trkpt lat="47.93598" lon="-3.0994">
        <ele>74</ele>
        <time>2018-08-14T13:37:44Z</time>
      </trkpt>
      <trkpt lat="47.93593" lon="-3.09865">
        <ele>72.9</ele>
        <time>2018-08-14T13:37:49Z</time>
      </trkpt>
      <trkpt lat="47.93538" lon="-3.09803">
        <ele>70.7</ele>
        <time>2018-08-14T13:37:57Z</time>
      </trkpt>
      <trkpt lat="47.93525" lon="-3.09798">
        <ele>71.1</ele>
        <time>2018-08-14T13:37:59Z</time>
      </trkpt>
      <trkpt lat="47.93492" lon="-3.09786">
        <ele>74.1</ele>
        <time>2018-08-14T13:38:04Z</time>
      </trkpt>
      <trkpt lat="47.93465" lon="-3.09776">
        <ele>75.7</ele>
        <time>2018-08-14T13:38:09Z</time>
      </trkpt>
      <trkpt lat="47.9344" lon="-3.09764">
        <ele>76.9</ele>
        <time>2018-08-14T13:38:14Z</time>
      </trkpt>
      <trkpt lat="47.93382" lon="-3.09702">
        <ele>75.2</ele>
        <time>2018-08-14T13:38:23Z</time>
      </trkpt>
      <trkpt lat="47.9337" lon="-3.09682">
        <ele>74.1</ele>
        <time>2018-08-14T13:38:25Z</time>
      </trkpt>
      <trkpt lat="47.9334" lon="-3.09646">
        <ele>73.4</ele>
        <time>2018-08-14T13:38:31Z</time>
      </trkpt>
      <trkpt lat="47.93304" lon="-3.09634">
        <ele>75.2</ele>
        <time>2018-08-14T13:38:38Z</time>
      </trkpt>
      <trkpt lat="47.93299" lon="-3.09632">
        <ele>75.3</ele>
        <time>2018-08-14T13:38:39Z</time>
      </trkpt>
      <trkpt lat="47.93275" lon="-3.09633">
        <ele>75.7</ele>
        <time>2018-08-14T13:38:44Z</time>
      </trkpt>
      <trkpt lat="47.93242" lon="-3.09634">
        <ele>76.5</ele>
        <time>2018-08-14T13:38:51Z</time>
      </trkpt>
      <trkpt lat="47.93227" lon="-3.09635">
        <ele>77.4</ele>
        <time>2018-08-14T13:38:54Z</time>
      </trkpt>
      <trkpt lat="47.93199" lon="-3.09632">
        <ele>78</ele>
        <time>2018-08-14T13:39:00Z</time>
      </trkpt>
      <trkpt lat="47.9318" lon="-3.09624">
        <ele>77.5</ele>
        <time>2018-08-14T13:39:04Z</time>
      </trkpt>
      <trkpt lat="47.93158" lon="-3.0961">
        <ele>77</ele>
        <time>2018-08-14T13:39:09Z</time>
      </trkpt>
      <trkpt lat="47.93135" lon="-3.09595">
        <ele>76.3</ele>
        <time>2018-08-14T13:39:14Z</time>
      </trkpt>
      <trkpt lat="47.93113" lon="-3.09581">
        <ele>75.5</ele>
        <time>2018-08-14T13:39:19Z</time>
      </trkpt>
      <trkpt lat="47.93094" lon="-3.09566">
        <ele>75</ele>
        <time>2018-08-14T13:39:24Z</time>
      </trkpt>
      <trkpt lat="47.93076" lon="-3.09544">
        <ele>74.6</ele>
        <time>2018-08-14T13:39:29Z</time>
      </trkpt>
      <trkpt lat="47.93046" lon="-3.095">
        <ele>73.9</ele>
        <time>2018-08-14T13:39:37Z</time>
      </trkpt>
      <trkpt lat="47.93036" lon="-3.09486">
        <ele>73.7</ele>
        <time>2018-08-14T13:39:39Z</time>
      </trkpt>
      <trkpt lat="47.93012" lon="-3.09453">
        <ele>73</ele>
        <time>2018-08-14T13:39:44Z</time>
      </trkpt>
      <trkpt lat="47.9298" lon="-3.0942">
        <ele>71.3</ele>
        <time>2018-08-14T13:39:49Z</time>
      </trkpt>
      <trkpt lat="47.92942" lon="-3.09394">
        <ele>69.5</ele>
        <time>2018-08-14T13:39:54Z</time>
      </trkpt>
      <trkpt lat="47.929" lon="-3.09368">
        <ele>67.5</ele>
        <time>2018-08-14T13:39:59Z</time>
      </trkpt>
      <trkpt lat="47.92829" lon="-3.09322">
        <ele>67.1</ele>
        <time>2018-08-14T13:40:08Z</time>
      </trkpt>
      <trkpt lat="47.92803" lon="-3.09303">
        <ele>67.4</ele>
        <time>2018-08-14T13:40:13Z</time>
      </trkpt>
      <trkpt lat="47.92796" lon="-3.09297">
        <ele>67.7</ele>
        <time>2018-08-14T13:40:15Z</time>
      </trkpt>
      <trkpt lat="47.92783" lon="-3.09286">
        <ele>68</ele>
        <time>2018-08-14T13:40:19Z</time>
      </trkpt>
      <trkpt lat="47.92783" lon="-3.0927">
        <ele>67.9</ele>
        <time>2018-08-14T13:40:23Z</time>
      </trkpt>
      <trkpt lat="47.92793" lon="-3.09264">
        <ele>67.7</ele>
        <time>2018-08-14T13:40:28Z</time>
      </trkpt>
      <trkpt lat="47.928" lon="-3.09265">
        <ele>67.6</ele>
        <time>2018-08-14T13:40:33Z</time>
      </trkpt>
      <trkpt lat="47.92802" lon="-3.09264">
        <ele>67.6</ele>
        <time>2018-08-14T13:40:38Z</time>
      </trkpt>
      <trkpt lat="47.92804" lon="-3.09265">
        <ele>67.6</ele>
        <time>2018-08-14T13:40:43Z</time>
      </trkpt>
      <trkpt lat="47.92803" lon="-3.09266">
        <ele>67.7</ele>
        <time>2018-08-14T13:40:51Z</time>
      </trkpt>
      <trkpt lat="47.92803" lon="-3.09267">
        <ele>67.7</ele>
        <time>2018-08-14T13:40:53Z</time>
      </trkpt>
      <trkpt lat="47.92802" lon="-3.09269">
        <ele>67.7</ele>
        <time>2018-08-14T13:40:58Z</time>
      </trkpt>
      <trkpt lat="47.92801" lon="-3.09269">
        <ele>67.7</ele>
        <time>2018-08-14T13:41:03Z</time>
      </trkpt>
      <trkpt lat="47.92801" lon="-3.09269">
        <ele>67.7</ele>
        <time>2018-08-14T13:41:08Z</time>
      </trkpt>
      <trkpt lat="47.92801" lon="-3.09269">
        <ele>67.8</ele>
        <time>2018-08-14T13:41:13Z</time>
      </trkpt>
      <trkpt lat="47.92801" lon="-3.09269">
        <ele>67.8</ele>
        <time>2018-08-14T13:41:18Z</time>
      </trkpt>
      <trkpt lat="47.92801" lon="-3.09269">
        <ele>67.8</ele>
        <time>2018-08-14T13:41:23Z</time>
      </trkpt>
      <trkpt lat="47.92801" lon="-3.09269">
        <ele>67.8</ele>
        <time>2018-08-14T13:41:29Z</time>
      </trkpt>
      <trkpt lat="47.92801" lon="-3.09269">
        <ele>67.8</ele>
        <time>2018-08-14T13:41:32Z</time>
      </trkpt>
      <trkpt lat="47.92801" lon="-3.09269">
        <ele>67.8</ele>
        <time>2018-08-14T13:41:36Z</time>
      </trkpt>
      <trkpt lat="47.92801" lon="-3.09269">
        <ele>67.8</ele>
        <time>2018-08-14T13:41:41Z</time>
      </trkpt>
      <trkpt lat="47.92801" lon="-3.09269">
        <ele>67.8</ele>
        <time>2018-08-14T13:41:46Z</time>
      </trkpt>
      <trkpt lat="47.92801" lon="-3.09269">
        <ele>67.9</ele>
        <time>2018-08-14T13:41:51Z</time>
      </trkpt>
      <trkpt lat="47.92798" lon="-3.09268">
        <ele>67.9</ele>
        <time>2018-08-14T13:41:56Z</time>
      </trkpt>
      <trkpt lat="47.92799" lon="-3.09268">
        <ele>67.9</ele>
        <time>2018-08-14T13:42:01Z</time>
      </trkpt>
      <trkpt lat="47.92798" lon="-3.09268">
        <ele>67.9</ele>
        <time>2018-08-14T13:42:05Z</time>
      </trkpt>
      <trkpt lat="47.92794" lon="-3.09265">
        <ele>67.9</ele>
        <time>2018-08-14T13:42:13Z</time>
      </trkpt>
      <trkpt lat="47.92792" lon="-3.09264">
        <ele>67.9</ele>
        <time>2018-08-14T13:42:15Z</time>
      </trkpt>
      <trkpt lat="47.92789" lon="-3.09267">
        <ele>67.9</ele>
        <time>2018-08-14T13:42:20Z</time>
      </trkpt>
      <trkpt lat="47.92786" lon="-3.09266">
        <ele>67.8</ele>
        <time>2018-08-14T13:42:25Z</time>
      </trkpt>
      <trkpt lat="47.92779" lon="-3.09259">
        <ele>67.7</ele>
        <time>2018-08-14T13:42:30Z</time>
      </trkpt>
      <trkpt lat="47.92768" lon="-3.09255">
        <ele>67.6</ele>
        <time>2018-08-14T13:42:35Z</time>
      </trkpt>
      <trkpt lat="47.92744" lon="-3.0922">
        <ele>66.9</ele>
        <time>2018-08-14T13:42:44Z</time>
      </trkpt>
      <trkpt lat="47.92741" lon="-3.09214">
        <ele>66.8</ele>
        <time>2018-08-14T13:42:45Z</time>
      </trkpt>
      <trkpt lat="47.92727" lon="-3.09189">
        <ele>66</ele>
        <time>2018-08-14T13:42:49Z</time>
      </trkpt>
      <trkpt lat="47.92705" lon="-3.0915">
        <ele>64</ele>
        <time>2018-08-14T13:42:54Z</time>
      </trkpt>
      <trkpt lat="47.92659" lon="-3.09066">
        <ele>58.7</ele>
        <time>2018-08-14T13:43:02Z</time>
      </trkpt>
      <trkpt lat="47.92653" lon="-3.09055">
        <ele>57.9</ele>
        <time>2018-08-14T13:43:03Z</time>
      </trkpt>
      <trkpt lat="47.92632" lon="-3.09013">
        <ele>55.7</ele>
        <time>2018-08-14T13:43:08Z</time>
      </trkpt>
      <trkpt lat="47.92618" lon="-3.0899">
        <ele>55.4</ele>
        <time>2018-08-14T13:43:12Z</time>
      </trkpt>
      <trkpt lat="47.92604" lon="-3.08966">
        <ele>56.1</ele>
        <time>2018-08-14T13:43:17Z</time>
      </trkpt>
      <trkpt lat="47.92587" lon="-3.08947">
        <ele>57.1</ele>
        <time>2018-08-14T13:43:22Z</time>
      </trkpt>
      <trkpt lat="47.92567" lon="-3.08934">
        <ele>58.4</ele>
        <time>2018-08-14T13:43:27Z</time>
      </trkpt>
      <trkpt lat="47.92543" lon="-3.08918">
        <ele>59.8</ele>
        <time>2018-08-14T13:43:33Z</time>
      </trkpt>
      <trkpt lat="47.92526" lon="-3.08918">
        <ele>60.6</ele>
        <time>2018-08-14T13:43:39Z</time>
      </trkpt>
      <trkpt lat="47.92519" lon="-3.08928">
        <ele>61.2</ele>
        <time>2018-08-14T13:43:42Z</time>
      </trkpt>
      <trkpt lat="47.92513" lon="-3.08949">
        <ele>62.2</ele>
        <time>2018-08-14T13:43:47Z</time>
      </trkpt>
      <trkpt lat="47.92509" lon="-3.08986">
        <ele>63.8</ele>
        <time>2018-08-14T13:43:55Z</time>
      </trkpt>
      <trkpt lat="47.92505" lon="-3.09011">
        <ele>65</ele>
        <time>2018-08-14T13:44:00Z</time>
      </trkpt>
      <trkpt lat="47.92504" lon="-3.0902">
        <ele>65.4</ele>
        <time>2018-08-14T13:44:02Z</time>
      </trkpt>
      <trkpt lat="47.92499" lon="-3.09045">
        <ele>66.7</ele>
        <time>2018-08-14T13:44:07Z</time>
      </trkpt>
      <trkpt lat="47.92496" lon="-3.0907">
        <ele>68.1</ele>
        <time>2018-08-14T13:44:12Z</time>
      </trkpt>
      <trkpt lat="47.92488" lon="-3.0911">
        <ele>70.6</ele>
        <time>2018-08-14T13:44:21Z</time>
      </trkpt>
      <trkpt lat="47.92487" lon="-3.09115">
        <ele>70.9</ele>
        <time>2018-08-14T13:44:22Z</time>
      </trkpt>
      <trkpt lat="47.92482" lon="-3.09138">
        <ele>72.1</ele>
        <time>2018-08-14T13:44:27Z</time>
      </trkpt>
      <trkpt lat="47.92473" lon="-3.09159">
        <ele>73.3</ele>
        <time>2018-08-14T13:44:32Z</time>
      </trkpt>
      <trkpt lat="47.9246" lon="-3.09185">
        <ele>75</ele>
        <time>2018-08-14T13:44:39Z</time>
      </trkpt>
      <trkpt lat="47.9245" lon="-3.09196">
        <ele>75.8</ele>
        <time>2018-08-14T13:44:44Z</time>
      </trkpt>
      <trkpt lat="47.92437" lon="-3.09214">
        <ele>77</ele>
        <time>2018-08-14T13:44:50Z</time>
      </trkpt>
      <trkpt lat="47.92433" lon="-3.09225">
        <ele>77.5</ele>
        <time>2018-08-14T13:44:53Z</time>
      </trkpt>
      <trkpt lat="47.92425" lon="-3.09242">
        <ele>78.2</ele>
        <time>2018-08-14T13:44:57Z</time>
      </trkpt>
      <trkpt lat="47.92416" lon="-3.0927">
        <ele>78.9</ele>
        <time>2018-08-14T13:45:02Z</time>
      </trkpt>
      <trkpt lat="47.9241" lon="-3.09294">
        <ele>79.2</ele>
        <time>2018-08-14T13:45:07Z</time>
      </trkpt>
      <trkpt lat="47.92402" lon="-3.09322">
        <ele>79.1</ele>
        <time>2018-08-14T13:45:12Z</time>
      </trkpt>
      <trkpt lat="47.92397" lon="-3.09349">
        <ele>79.4</ele>
        <time>2018-08-14T13:45:17Z</time>
      </trkpt>
      <trkpt lat="47.9239" lon="-3.09386">
        <ele>82.3</ele>
        <time>2018-08-14T13:45:24Z</time>
      </trkpt>
      <trkpt lat="47.92386" lon="-3.09402">
        <ele>83.4</ele>
        <time>2018-08-14T13:45:27Z</time>
      </trkpt>
      <trkpt lat="47.92377" lon="-3.09428">
        <ele>84.8</ele>
        <time>2018-08-14T13:45:32Z</time>
      </trkpt>
      <trkpt lat="47.92366" lon="-3.09447">
        <ele>85.9</ele>
        <time>2018-08-14T13:45:37Z</time>
      </trkpt>
      <trkpt lat="47.92354" lon="-3.09463">
        <ele>87.4</ele>
        <time>2018-08-14T13:45:42Z</time>
      </trkpt>
      <trkpt lat="47.92339" lon="-3.09475">
        <ele>89.1</ele>
        <time>2018-08-14T13:45:47Z</time>
      </trkpt>
      <trkpt lat="47.92322" lon="-3.09474">
        <ele>90.4</ele>
        <time>2018-08-14T13:45:52Z</time>
      </trkpt>
      <trkpt lat="47.92306" lon="-3.09465">
        <ele>91.5</ele>
        <time>2018-08-14T13:45:57Z</time>
      </trkpt>
      <trkpt lat="47.92287" lon="-3.09457">
        <ele>92.3</ele>
        <time>2018-08-14T13:46:02Z</time>
      </trkpt>
      <trkpt lat="47.92266" lon="-3.09445">
        <ele>92.9</ele>
        <time>2018-08-14T13:46:07Z</time>
      </trkpt>
      <trkpt lat="47.92241" lon="-3.09441">
        <ele>93.3</ele>
        <time>2018-08-14T13:46:12Z</time>
      </trkpt>
      <trkpt lat="47.92219" lon="-3.0945">
        <ele>93.9</ele>
        <time>2018-08-14T13:46:17Z</time>
      </trkpt>
      <trkpt lat="47.92199" lon="-3.09466">
        <ele>94.3</ele>
        <time>2018-08-14T13:46:22Z</time>
      </trkpt>
      <trkpt lat="47.92165" lon="-3.09473">
        <ele>95</ele>
        <time>2018-08-14T13:46:30Z</time>
      </trkpt>
      <trkpt lat="47.92157" lon="-3.0947">
        <ele>95.3</ele>
        <time>2018-08-14T13:46:32Z</time>
      </trkpt>
      <trkpt lat="47.92125" lon="-3.09452">
        <ele>96.4</ele>
        <time>2018-08-14T13:46:38Z</time>
      </trkpt>
      <trkpt lat="47.92105" lon="-3.09437">
        <ele>97</ele>
        <time>2018-08-14T13:46:42Z</time>
      </trkpt>
      <trkpt lat="47.92084" lon="-3.09421">
        <ele>97.6</ele>
        <time>2018-08-14T13:46:47Z</time>
      </trkpt>
      <trkpt lat="47.92045" lon="-3.09396">
        <ele>97.3</ele>
        <time>2018-08-14T13:46:55Z</time>
      </trkpt>
      <trkpt lat="47.92035" lon="-3.0939">
        <ele>97.3</ele>
        <time>2018-08-14T13:46:57Z</time>
      </trkpt>
      <trkpt lat="47.9201" lon="-3.09378">
        <ele>97.9</ele>
        <time>2018-08-14T13:47:02Z</time>
      </trkpt>
      <trkpt lat="47.91981" lon="-3.0937">
        <ele>98.6</ele>
        <time>2018-08-14T13:47:08Z</time>
      </trkpt>
      <trkpt lat="47.91962" lon="-3.09365">
        <ele>99.4</ele>
        <time>2018-08-14T13:47:12Z</time>
      </trkpt>
      <trkpt lat="47.91924" lon="-3.09358">
        <ele>101.6</ele>
        <time>2018-08-14T13:47:20Z</time>
      </trkpt>
      <trkpt lat="47.91911" lon="-3.09353">
        <ele>102.4</ele>
        <time>2018-08-14T13:47:23Z</time>
      </trkpt>
      <trkpt lat="47.91883" lon="-3.09327">
        <ele>103.7</ele>
        <time>2018-08-14T13:47:31Z</time>
      </trkpt>
      <trkpt lat="47.91875" lon="-3.0932">
        <ele>103</ele>
        <time>2018-08-14T13:47:33Z</time>
      </trkpt>
      <trkpt lat="47.91844" lon="-3.09301">
        <ele>101.2</ele>
        <time>2018-08-14T13:47:39Z</time>
      </trkpt>
      <trkpt lat="47.91825" lon="-3.09295">
        <ele>100</ele>
        <time>2018-08-14T13:47:42Z</time>
      </trkpt>
      <trkpt lat="47.91786" lon="-3.09267">
        <ele>97.8</ele>
        <time>2018-08-14T13:47:48Z</time>
      </trkpt>
      <trkpt lat="47.91719" lon="-3.09236">
        <ele>92.7</ele>
        <time>2018-08-14T13:47:56Z</time>
      </trkpt>
      <trkpt lat="47.91709" lon="-3.09234">
        <ele>92</ele>
        <time>2018-08-14T13:47:57Z</time>
      </trkpt>
      <trkpt lat="47.91665" lon="-3.0922">
        <ele>87.6</ele>
        <time>2018-08-14T13:48:02Z</time>
      </trkpt>
      <trkpt lat="47.91619" lon="-3.09188">
        <ele>83.7</ele>
        <time>2018-08-14T13:48:07Z</time>
      </trkpt>
      <trkpt lat="47.91594" lon="-3.09138">
        <ele>81.2</ele>
        <time>2018-08-14T13:48:12Z</time>
      </trkpt>
      <trkpt lat="47.91607" lon="-3.09071">
        <ele>79.5</ele>
        <time>2018-08-14T13:48:17Z</time>
      </trkpt>
      <trkpt lat="47.91639" lon="-3.09034">
        <ele>74.8</ele>
        <time>2018-08-14T13:48:22Z</time>
      </trkpt>
      <trkpt lat="47.91634" lon="-3.08983">
        <ele>71.5</ele>
        <time>2018-08-14T13:48:27Z</time>
      </trkpt>
      <trkpt lat="47.91589" lon="-3.08898">
        <ele>66.7</ele>
        <time>2018-08-14T13:48:34Z</time>
      </trkpt>
      <trkpt lat="47.91534" lon="-3.08848">
        <ele>61.4</ele>
        <time>2018-08-14T13:48:39Z</time>
      </trkpt>
      <trkpt lat="47.91475" lon="-3.08789">
        <ele>55.8</ele>
        <time>2018-08-14T13:48:46Z</time>
      </trkpt>
      <trkpt lat="47.91469" lon="-3.08783">
        <ele>55.3</ele>
        <time>2018-08-14T13:48:47Z</time>
      </trkpt>
      <trkpt lat="47.91414" lon="-3.08784">
        <ele>54.1</ele>
        <time>2018-08-14T13:48:53Z</time>
      </trkpt>
      <trkpt lat="47.91354" lon="-3.0881">
        <ele>52.6</ele>
        <time>2018-08-14T13:49:01Z</time>
      </trkpt>
      <trkpt lat="47.91324" lon="-3.08814">
        <ele>51.5</ele>
        <time>2018-08-14T13:49:06Z</time>
      </trkpt>
      <trkpt lat="47.91317" lon="-3.08815">
        <ele>51.3</ele>
        <time>2018-08-14T13:49:07Z</time>
      </trkpt>
      <trkpt lat="47.91257" lon="-3.08815">
        <ele>49.5</ele>
        <time>2018-08-14T13:49:15Z</time>
      </trkpt>
      <trkpt lat="47.91214" lon="-3.08797">
        <ele>49.1</ele>
        <time>2018-08-14T13:49:21Z</time>
      </trkpt>
      <trkpt lat="47.91206" lon="-3.08792">
        <ele>49.1</ele>
        <time>2018-08-14T13:49:22Z</time>
      </trkpt>
      <trkpt lat="47.91157" lon="-3.08759">
        <ele>48.9</ele>
        <time>2018-08-14T13:49:29Z</time>
      </trkpt>
      <trkpt lat="47.91142" lon="-3.08746">
        <ele>48.9</ele>
        <time>2018-08-14T13:49:32Z</time>
      </trkpt>
      <trkpt lat="47.91124" lon="-3.08716">
        <ele>48.9</ele>
        <time>2018-08-14T13:49:37Z</time>
      </trkpt>
      <trkpt lat="47.911" lon="-3.08671">
        <ele>48.8</ele>
        <time>2018-08-14T13:49:46Z</time>
      </trkpt>
      <trkpt lat="47.91097" lon="-3.08667">
        <ele>48.8</ele>
        <time>2018-08-14T13:49:47Z</time>
      </trkpt>
      <trkpt lat="47.9107" lon="-3.08619">
        <ele>48.7</ele>
        <time>2018-08-14T13:49:56Z</time>
      </trkpt>
      <trkpt lat="47.91066" lon="-3.08612">
        <ele>48.7</ele>
        <time>2018-08-14T13:49:57Z</time>
      </trkpt>
      <trkpt lat="47.91047" lon="-3.08553">
        <ele>48.6</ele>
        <time>2018-08-14T13:50:06Z</time>
      </trkpt>
      <trkpt lat="47.91041" lon="-3.08519">
        <ele>48.5</ele>
        <time>2018-08-14T13:50:10Z</time>
      </trkpt>
      <trkpt lat="47.91038" lon="-3.085">
        <ele>48.4</ele>
        <time>2018-08-14T13:50:12Z</time>
      </trkpt>
      <trkpt lat="47.91038" lon="-3.0846">
        <ele>48.3</ele>
        <time>2018-08-14T13:50:17Z</time>
      </trkpt>
      <trkpt lat="47.9104" lon="-3.08417">
        <ele>48.3</ele>
        <time>2018-08-14T13:50:22Z</time>
      </trkpt>
      <trkpt lat="47.91038" lon="-3.08381">
        <ele>48.2</ele>
        <time>2018-08-14T13:50:27Z</time>
      </trkpt>
      <trkpt lat="47.91041" lon="-3.08336">
        <ele>48.2</ele>
        <time>2018-08-14T13:50:32Z</time>
      </trkpt>
      <trkpt lat="47.91035" lon="-3.08261">
        <ele>48</ele>
        <time>2018-08-14T13:50:41Z</time>
      </trkpt>
      <trkpt lat="47.91032" lon="-3.08251">
        <ele>48</ele>
        <time>2018-08-14T13:50:42Z</time>
      </trkpt>
      <trkpt lat="47.9102" lon="-3.08197">
        <ele>48.1</ele>
        <time>2018-08-14T13:50:49Z</time>
      </trkpt>
      <trkpt lat="47.91013" lon="-3.08137">
        <ele>48.4</ele>
        <time>2018-08-14T13:50:56Z</time>
      </trkpt>
      <trkpt lat="47.91013" lon="-3.0811">
        <ele>48.5</ele>
        <time>2018-08-14T13:50:59Z</time>
      </trkpt>
      <trkpt lat="47.91011" lon="-3.08082">
        <ele>48.7</ele>
        <time>2018-08-14T13:51:02Z</time>
      </trkpt>
      <trkpt lat="47.9101" lon="-3.0804">
        <ele>48.8</ele>
        <time>2018-08-14T13:51:07Z</time>
      </trkpt>
      <trkpt lat="47.91003" lon="-3.08001">
        <ele>49.1</ele>
        <time>2018-08-14T13:51:12Z</time>
      </trkpt>
      <trkpt lat="47.90991" lon="-3.07962">
        <ele>49.3</ele>
        <time>2018-08-14T13:51:18Z</time>
      </trkpt>
      <trkpt lat="47.90978" lon="-3.07919">
        <ele>49.7</ele>
        <time>2018-08-14T13:51:25Z</time>
      </trkpt>
      <trkpt lat="47.90975" lon="-3.07908">
        <ele>49.8</ele>
        <time>2018-08-14T13:51:27Z</time>
      </trkpt>
      <trkpt lat="47.90978" lon="-3.0788">
        <ele>50</ele>
        <time>2018-08-14T13:51:32Z</time>
      </trkpt>
      <trkpt lat="47.90995" lon="-3.07867">
        <ele>45.6</ele>
        <time>2018-08-14T13:51:41Z</time>
      </trkpt>
      <trkpt lat="47.90998" lon="-3.07866">
        <ele>44.5</ele>
        <time>2018-08-14T13:51:42Z</time>
      </trkpt>
      <trkpt lat="47.91011" lon="-3.07857">
        <ele>39.1</ele>
        <time>2018-08-14T13:51:47Z</time>
      </trkpt>
      <trkpt lat="47.91024" lon="-3.07844">
        <ele>33.3</ele>
        <time>2018-08-14T13:51:52Z</time>
      </trkpt>
      <trkpt lat="47.91029" lon="-3.07843">
        <ele>31.8</ele>
        <time>2018-08-14T13:51:58Z</time>
      </trkpt>
      <trkpt lat="47.91018" lon="-3.0785">
        <ele>36</ele>
        <time>2018-08-14T13:52:04Z</time>
      </trkpt>
      <trkpt lat="47.91012" lon="-3.07856">
        <ele>38.7</ele>
        <time>2018-08-14T13:52:07Z</time>
      </trkpt>
      <trkpt lat="47.91002" lon="-3.07866">
        <ele>43</ele>
        <time>2018-08-14T13:52:12Z</time>
      </trkpt>
      <trkpt lat="47.90989" lon="-3.07878">
        <ele>49.1</ele>
        <time>2018-08-14T13:52:19Z</time>
      </trkpt>
      <trkpt lat="47.90985" lon="-3.07879">
        <ele>50</ele>
        <time>2018-08-14T13:52:22Z</time>
      </trkpt>
      <trkpt lat="47.90979" lon="-3.07881">
        <ele>50</ele>
        <time>2018-08-14T13:52:27Z</time>
      </trkpt>
      <trkpt lat="47.90997" lon="-3.07864">
        <ele>44.5</ele>
        <time>2018-08-14T13:52:36Z</time>
      </trkpt>
      <trkpt lat="47.91001" lon="-3.07861">
        <ele>43</ele>
        <time>2018-08-14T13:52:37Z</time>
      </trkpt>
      <trkpt lat="47.91019" lon="-3.07848">
        <ele>35.4</ele>
        <time>2018-08-14T13:52:43Z</time>
      </trkpt>
      <trkpt lat="47.9103" lon="-3.07842">
        <ele>31.4</ele>
        <time>2018-08-14T13:52:47Z</time>
      </trkpt>
      <trkpt lat="47.91045" lon="-3.07825">
        <ele>29.6</ele>
        <time>2018-08-14T13:52:52Z</time>
      </trkpt>
      <trkpt lat="47.91059" lon="-3.078">
        <ele>28.4</ele>
        <time>2018-08-14T13:52:58Z</time>
      </trkpt>
      <trkpt lat="47.91068" lon="-3.07764">
        <ele>29.4</ele>
        <time>2018-08-14T13:53:04Z</time>
      </trkpt>
      <trkpt lat="47.9107" lon="-3.07734">
        <ele>29.8</ele>
        <time>2018-08-14T13:53:09Z</time>
      </trkpt>
      <trkpt lat="47.91064" lon="-3.07707">
        <ele>30.1</ele>
        <time>2018-08-14T13:53:14Z</time>
      </trkpt>
      <trkpt lat="47.91059" lon="-3.07682">
        <ele>30.6</ele>
        <time>2018-08-14T13:53:19Z</time>
      </trkpt>
      <trkpt lat="47.91057" lon="-3.07664">
        <ele>30.9</ele>
        <time>2018-08-14T13:53:23Z</time>
      </trkpt>
      <trkpt lat="47.91054" lon="-3.07645">
        <ele>31</ele>
        <time>2018-08-14T13:53:27Z</time>
      </trkpt>
      <trkpt lat="47.91055" lon="-3.07617">
        <ele>31</ele>
        <time>2018-08-14T13:53:33Z</time>
      </trkpt>
      <trkpt lat="47.91055" lon="-3.076">
        <ele>31</ele>
        <time>2018-08-14T13:53:38Z</time>
      </trkpt>
      <trkpt lat="47.91052" lon="-3.07593">
        <ele>31</ele>
        <time>2018-08-14T13:53:44Z</time>
      </trkpt>
      <trkpt lat="47.91054" lon="-3.07587">
        <ele>31</ele>
        <time>2018-08-14T13:53:47Z</time>
      </trkpt>
      <trkpt lat="47.91064" lon="-3.07588">
        <ele>31.1</ele>
        <time>2018-08-14T13:53:52Z</time>
      </trkpt>
      <trkpt lat="47.91078" lon="-3.07584">
        <ele>31.3</ele>
        <time>2018-08-14T13:53:57Z</time>
      </trkpt>
      <trkpt lat="47.91091" lon="-3.07584">
        <ele>31.8</ele>
        <time>2018-08-14T13:54:02Z</time>
      </trkpt>
      <trkpt lat="47.91111" lon="-3.07578">
        <ele>32.6</ele>
        <time>2018-08-14T13:54:10Z</time>
      </trkpt>
      <trkpt lat="47.91117" lon="-3.07578">
        <ele>33</ele>
        <time>2018-08-14T13:54:12Z</time>
      </trkpt>
      <trkpt lat="47.91137" lon="-3.07574">
        <ele>34.3</ele>
        <time>2018-08-14T13:54:19Z</time>
      </trkpt>
      <trkpt lat="47.91145" lon="-3.07573">
        <ele>34.7</ele>
        <time>2018-08-14T13:54:22Z</time>
      </trkpt>
      <trkpt lat="47.91163" lon="-3.07573">
        <ele>36.1</ele>
        <time>2018-08-14T13:54:27Z</time>
      </trkpt>
      <trkpt lat="47.91177" lon="-3.07573">
        <ele>37.2</ele>
        <time>2018-08-14T13:54:32Z</time>
      </trkpt>
      <trkpt lat="47.91192" lon="-3.07573">
        <ele>38</ele>
        <time>2018-08-14T13:54:37Z</time>
      </trkpt>
      <trkpt lat="47.91206" lon="-3.07568">
        <ele>38.7</ele>
        <time>2018-08-14T13:54:42Z</time>
      </trkpt>
      <trkpt lat="47.91222" lon="-3.07562">
        <ele>39.6</ele>
        <time>2018-08-14T13:54:47Z</time>
      </trkpt>
      <trkpt lat="47.91243" lon="-3.07556">
        <ele>40.8</ele>
        <time>2018-08-14T13:54:52Z</time>
      </trkpt>
      <trkpt lat="47.91265" lon="-3.07563">
        <ele>42</ele>
        <time>2018-08-14T13:55:01Z</time>
      </trkpt>
      <trkpt lat="47.91268" lon="-3.07565">
        <ele>42.2</ele>
        <time>2018-08-14T13:55:02Z</time>
      </trkpt>
      <trkpt lat="47.9128" lon="-3.07568">
        <ele>42.7</ele>
        <time>2018-08-14T13:55:07Z</time>
      </trkpt>
      <trkpt lat="47.91295" lon="-3.07566">
        <ele>43.3</ele>
        <time>2018-08-14T13:55:13Z</time>
      </trkpt>
      <trkpt lat="47.91305" lon="-3.07563">
        <ele>43.7</ele>
        <time>2018-08-14T13:55:17Z</time>
      </trkpt>
      <trkpt lat="47.91316" lon="-3.07549">
        <ele>44.4</ele>
        <time>2018-08-14T13:55:22Z</time>
      </trkpt>
      <trkpt lat="47.91327" lon="-3.07537">
        <ele>45.2</ele>
        <time>2018-08-14T13:55:27Z</time>
      </trkpt>
      <trkpt lat="47.91339" lon="-3.07521">
        <ele>46.2</ele>
        <time>2018-08-14T13:55:33Z</time>
      </trkpt>
      <trkpt lat="47.91346" lon="-3.07505">
        <ele>46.9</ele>
        <time>2018-08-14T13:55:37Z</time>
      </trkpt>
      <trkpt lat="47.91366" lon="-3.07473">
        <ele>48.7</ele>
        <time>2018-08-14T13:55:46Z</time>
      </trkpt>
      <trkpt lat="47.91376" lon="-3.07458">
        <ele>49.4</ele>
        <time>2018-08-14T13:55:50Z</time>
      </trkpt>
      <trkpt lat="47.91391" lon="-3.07443">
        <ele>50.5</ele>
        <time>2018-08-14T13:55:56Z</time>
      </trkpt>
      <trkpt lat="47.91394" lon="-3.0744">
        <ele>50.7</ele>
        <time>2018-08-14T13:55:57Z</time>
      </trkpt>
      <trkpt lat="47.91408" lon="-3.07429">
        <ele>51.6</ele>
        <time>2018-08-14T13:56:02Z</time>
      </trkpt>
      <trkpt lat="47.91423" lon="-3.07428">
        <ele>52.6</ele>
        <time>2018-08-14T13:56:07Z</time>
      </trkpt>
      <trkpt lat="47.91438" lon="-3.07422">
        <ele>53.7</ele>
        <time>2018-08-14T13:56:12Z</time>
      </trkpt>
      <trkpt lat="47.91459" lon="-3.07414">
        <ele>55.2</ele>
        <time>2018-08-14T13:56:19Z</time>
      </trkpt>
      <trkpt lat="47.9147" lon="-3.07408">
        <ele>56</ele>
        <time>2018-08-14T13:56:22Z</time>
      </trkpt>
      <trkpt lat="47.91481" lon="-3.07404">
        <ele>56.7</ele>
        <time>2018-08-14T13:56:27Z</time>
      </trkpt>
      <trkpt lat="47.915" lon="-3.07385">
        <ele>57.9</ele>
        <time>2018-08-14T13:56:35Z</time>
      </trkpt>
      <trkpt lat="47.91503" lon="-3.07378">
        <ele>58.1</ele>
        <time>2018-08-14T13:56:37Z</time>
      </trkpt>
      <trkpt lat="47.91508" lon="-3.07361">
        <ele>58.7</ele>
        <time>2018-08-14T13:56:42Z</time>
      </trkpt>
      <trkpt lat="47.91511" lon="-3.07325">
        <ele>60</ele>
        <time>2018-08-14T13:56:49Z</time>
      </trkpt>
      <trkpt lat="47.9151" lon="-3.07298">
        <ele>61</ele>
        <time>2018-08-14T13:56:54Z</time>
      </trkpt>
      <trkpt lat="47.91508" lon="-3.07279">
        <ele>61.7</ele>
        <time>2018-08-14T13:56:58Z</time>
      </trkpt>
      <trkpt lat="47.91507" lon="-3.07258">
        <ele>62.4</ele>
        <time>2018-08-14T13:57:02Z</time>
      </trkpt>
      <trkpt lat="47.91504" lon="-3.0723">
        <ele>63.2</ele>
        <time>2018-08-14T13:57:07Z</time>
      </trkpt>
      <trkpt lat="47.91501" lon="-3.07188">
        <ele>64.3</ele>
        <time>2018-08-14T13:57:16Z</time>
      </trkpt>
      <trkpt lat="47.91501" lon="-3.07183">
        <ele>64.4</ele>
        <time>2018-08-14T13:57:17Z</time>
      </trkpt>
      <trkpt lat="47.91499" lon="-3.07158">
        <ele>64.9</ele>
        <time>2018-08-14T13:57:22Z</time>
      </trkpt>
      <trkpt lat="47.91496" lon="-3.07107">
        <ele>65.3</ele>
        <time>2018-08-14T13:57:31Z</time>
      </trkpt>
      <trkpt lat="47.91494" lon="-3.07079">
        <ele>65.2</ele>
        <time>2018-08-14T13:57:35Z</time>
      </trkpt>
      <trkpt lat="47.91494" lon="-3.07052">
        <ele>64.9</ele>
        <time>2018-08-14T13:57:39Z</time>
      </trkpt>
      <trkpt lat="47.91492" lon="-3.07">
        <ele>64.6</ele>
        <time>2018-08-14T13:57:46Z</time>
      </trkpt>
      <trkpt lat="47.91491" lon="-3.06992">
        <ele>64.5</ele>
        <time>2018-08-14T13:57:47Z</time>
      </trkpt>
      <trkpt lat="47.91488" lon="-3.06953">
        <ele>63.9</ele>
        <time>2018-08-14T13:57:52Z</time>
      </trkpt>
      <trkpt lat="47.91484" lon="-3.06912">
        <ele>63.1</ele>
        <time>2018-08-14T13:57:57Z</time>
      </trkpt>
      <trkpt lat="47.9148" lon="-3.06872">
        <ele>62.7</ele>
        <time>2018-08-14T13:58:02Z</time>
      </trkpt>
      <trkpt lat="47.91476" lon="-3.06834">
        <ele>63.2</ele>
        <time>2018-08-14T13:58:07Z</time>
      </trkpt>
      <trkpt lat="47.91473" lon="-3.06793">
        <ele>64.2</ele>
        <time>2018-08-14T13:58:12Z</time>
      </trkpt>
      <trkpt lat="47.91472" lon="-3.06756">
        <ele>65.2</ele>
        <time>2018-08-14T13:58:17Z</time>
      </trkpt>
      <trkpt lat="47.91473" lon="-3.0672">
        <ele>65.8</ele>
        <time>2018-08-14T13:58:22Z</time>
      </trkpt>
      <trkpt lat="47.91473" lon="-3.06651">
        <ele>67.1</ele>
        <time>2018-08-14T13:58:31Z</time>
      </trkpt>
      <trkpt lat="47.91472" lon="-3.06622">
        <ele>67.5</ele>
        <time>2018-08-14T13:58:35Z</time>
      </trkpt>
      <trkpt lat="47.9147" lon="-3.06578">
        <ele>68.1</ele>
        <time>2018-08-14T13:58:41Z</time>
      </trkpt>
      <trkpt lat="47.9147" lon="-3.0657">
        <ele>68.2</ele>
        <time>2018-08-14T13:58:42Z</time>
      </trkpt>
      <trkpt lat="47.91467" lon="-3.06507">
        <ele>69.1</ele>
        <time>2018-08-14T13:58:51Z</time>
      </trkpt>
      <trkpt lat="47.91467" lon="-3.06492">
        <ele>69.2</ele>
        <time>2018-08-14T13:58:53Z</time>
      </trkpt>
      <trkpt lat="47.91465" lon="-3.06455">
        <ele>69.6</ele>
        <time>2018-08-14T13:58:58Z</time>
      </trkpt>
      <trkpt lat="47.91464" lon="-3.06427">
        <ele>69.9</ele>
        <time>2018-08-14T13:59:02Z</time>
      </trkpt>
      <trkpt lat="47.91463" lon="-3.06391">
        <ele>70.3</ele>
        <time>2018-08-14T13:59:07Z</time>
      </trkpt>
      <trkpt lat="47.91463" lon="-3.06362">
        <ele>70.5</ele>
        <time>2018-08-14T13:59:11Z</time>
      </trkpt>
      <trkpt lat="47.91464" lon="-3.06325">
        <ele>70.8</ele>
        <time>2018-08-14T13:59:16Z</time>
      </trkpt>
      <trkpt lat="47.91466" lon="-3.06286">
        <ele>71</ele>
        <time>2018-08-14T13:59:21Z</time>
      </trkpt>
      <trkpt lat="47.91469" lon="-3.06217">
        <ele>71.3</ele>
        <time>2018-08-14T13:59:30Z</time>
      </trkpt>
      <trkpt lat="47.91471" lon="-3.06167">
        <ele>70.9</ele>
        <time>2018-08-14T13:59:35Z</time>
      </trkpt>
      <trkpt lat="47.9148" lon="-3.06122">
        <ele>69.8</ele>
        <time>2018-08-14T13:59:39Z</time>
      </trkpt>
      <trkpt lat="47.91488" lon="-3.06099">
        <ele>69.1</ele>
        <time>2018-08-14T13:59:41Z</time>
      </trkpt>
      <trkpt lat="47.91512" lon="-3.06044">
        <ele>67</ele>
        <time>2018-08-14T13:59:46Z</time>
      </trkpt>
      <trkpt lat="47.91524" lon="-3.05985">
        <ele>67.4</ele>
        <time>2018-08-14T13:59:51Z</time>
      </trkpt>
      <trkpt lat="47.91491" lon="-3.05883">
        <ele>70.9</ele>
        <time>2018-08-14T14:00:00Z</time>
      </trkpt>
      <trkpt lat="47.91488" lon="-3.05873">
        <ele>70.7</ele>
        <time>2018-08-14T14:00:01Z</time>
      </trkpt>
      <trkpt lat="47.91487" lon="-3.05828">
        <ele>69.6</ele>
        <time>2018-08-14T14:00:06Z</time>
      </trkpt>
      <trkpt lat="47.91498" lon="-3.0576">
        <ele>69.6</ele>
        <time>2018-08-14T14:00:12Z</time>
      </trkpt>
      <trkpt lat="47.91521" lon="-3.05702">
        <ele>69.2</ele>
        <time>2018-08-14T14:00:19Z</time>
      </trkpt>
      <trkpt lat="47.9153" lon="-3.05679">
        <ele>69</ele>
        <time>2018-08-14T14:00:22Z</time>
      </trkpt>
      <trkpt lat="47.91571" lon="-3.0562">
        <ele>69.3</ele>
        <time>2018-08-14T14:00:31Z</time>
      </trkpt>
      <trkpt lat="47.91576" lon="-3.05615">
        <ele>69.3</ele>
        <time>2018-08-14T14:00:32Z</time>
      </trkpt>
      <trkpt lat="47.91607" lon="-3.0558">
        <ele>69.7</ele>
        <time>2018-08-14T14:00:38Z</time>
      </trkpt>
      <trkpt lat="47.91624" lon="-3.05558">
        <ele>70</ele>
        <time>2018-08-14T14:00:42Z</time>
      </trkpt>
      <trkpt lat="47.91661" lon="-3.0552">
        <ele>70.5</ele>
        <time>2018-08-14T14:00:50Z</time>
      </trkpt>
      <trkpt lat="47.9167" lon="-3.05509">
        <ele>70.6</ele>
        <time>2018-08-14T14:00:52Z</time>
      </trkpt>
      <trkpt lat="47.91696" lon="-3.05491">
        <ele>70.7</ele>
        <time>2018-08-14T14:00:57Z</time>
      </trkpt>
      <trkpt lat="47.91724" lon="-3.05482">
        <ele>70.5</ele>
        <time>2018-08-14T14:01:02Z</time>
      </trkpt>
      <trkpt lat="47.91753" lon="-3.05472">
        <ele>68.7</ele>
        <time>2018-08-14T14:01:07Z</time>
      </trkpt>
      <trkpt lat="47.91802" lon="-3.05466">
        <ele>64</ele>
        <time>2018-08-14T14:01:16Z</time>
      </trkpt>
      <trkpt lat="47.91813" lon="-3.05464">
        <ele>64</ele>
        <time>2018-08-14T14:01:18Z</time>
      </trkpt>
      <trkpt lat="47.91836" lon="-3.05455">
        <ele>64.2</ele>
        <time>2018-08-14T14:01:22Z</time>
      </trkpt>
      <trkpt lat="47.91859" lon="-3.0544">
        <ele>64.6</ele>
        <time>2018-08-14T14:01:27Z</time>
      </trkpt>
      <trkpt lat="47.91881" lon="-3.05418">
        <ele>65.1</ele>
        <time>2018-08-14T14:01:32Z</time>
      </trkpt>
      <trkpt lat="47.91917" lon="-3.05378">
        <ele>66.1</ele>
        <time>2018-08-14T14:01:41Z</time>
      </trkpt>
      <trkpt lat="47.91921" lon="-3.05373">
        <ele>66.2</ele>
        <time>2018-08-14T14:01:42Z</time>
      </trkpt>
      <trkpt lat="47.91935" lon="-3.05344">
        <ele>66.8</ele>
        <time>2018-08-14T14:01:47Z</time>
      </trkpt>
      <trkpt lat="47.91957" lon="-3.05312">
        <ele>67.5</ele>
        <time>2018-08-14T14:01:53Z</time>
      </trkpt>
      <trkpt lat="47.91981" lon="-3.05272">
        <ele>68.7</ele>
        <time>2018-08-14T14:02:01Z</time>
      </trkpt>
      <trkpt lat="47.91986" lon="-3.05268">
        <ele>68.8</ele>
        <time>2018-08-14T14:02:02Z</time>
      </trkpt>
      <trkpt lat="47.92003" lon="-3.05253">
        <ele>69.4</ele>
        <time>2018-08-14T14:02:07Z</time>
      </trkpt>
      <trkpt lat="47.92027" lon="-3.05231">
        <ele>70.3</ele>
        <time>2018-08-14T14:02:13Z</time>
      </trkpt>
      <trkpt lat="47.92039" lon="-3.05223">
        <ele>70.8</ele>
        <time>2018-08-14T14:02:17Z</time>
      </trkpt>
      <trkpt lat="47.92054" lon="-3.05215">
        <ele>71.3</ele>
        <time>2018-08-14T14:02:22Z</time>
      </trkpt>
      <trkpt lat="47.92076" lon="-3.05202">
        <ele>72.3</ele>
        <time>2018-08-14T14:02:28Z</time>
      </trkpt>
      <trkpt lat="47.92094" lon="-3.05185">
        <ele>73.2</ele>
        <time>2018-08-14T14:02:33Z</time>
      </trkpt>
      <trkpt lat="47.92109" lon="-3.05175">
        <ele>74</ele>
        <time>2018-08-14T14:02:37Z</time>
      </trkpt>
      <trkpt lat="47.92131" lon="-3.05173">
        <ele>75.1</ele>
        <time>2018-08-14T14:02:42Z</time>
      </trkpt>
      <trkpt lat="47.92154" lon="-3.0517">
        <ele>76.4</ele>
        <time>2018-08-14T14:02:47Z</time>
      </trkpt>
      <trkpt lat="47.92172" lon="-3.05172">
        <ele>77.3</ele>
        <time>2018-08-14T14:02:52Z</time>
      </trkpt>
      <trkpt lat="47.92191" lon="-3.05175">
        <ele>78.1</ele>
        <time>2018-08-14T14:02:57Z</time>
      </trkpt>
      <trkpt lat="47.92213" lon="-3.05175">
        <ele>79.1</ele>
        <time>2018-08-14T14:03:02Z</time>
      </trkpt>
      <trkpt lat="47.92241" lon="-3.05171">
        <ele>80.3</ele>
        <time>2018-08-14T14:03:10Z</time>
      </trkpt>
      <trkpt lat="47.92263" lon="-3.05153">
        <ele>81.3</ele>
        <time>2018-08-14T14:03:16Z</time>
      </trkpt>
      <trkpt lat="47.92265" lon="-3.05148">
        <ele>81.4</ele>
        <time>2018-08-14T14:03:17Z</time>
      </trkpt>
      <trkpt lat="47.92276" lon="-3.05125">
        <ele>80.9</ele>
        <time>2018-08-14T14:03:22Z</time>
      </trkpt>
      <trkpt lat="47.92286" lon="-3.05082">
        <ele>79.4</ele>
        <time>2018-08-14T14:03:29Z</time>
      </trkpt>
      <trkpt lat="47.92292" lon="-3.0506">
        <ele>78.7</ele>
        <time>2018-08-14T14:03:32Z</time>
      </trkpt>
      <trkpt lat="47.92302" lon="-3.05026">
        <ele>77.6</ele>
        <time>2018-08-14T14:03:37Z</time>
      </trkpt>
      <trkpt lat="47.92314" lon="-3.0498">
        <ele>76.3</ele>
        <time>2018-08-14T14:03:44Z</time>
      </trkpt>
      <trkpt lat="47.9232" lon="-3.04961">
        <ele>76</ele>
        <time>2018-08-14T14:03:47Z</time>
      </trkpt>
      <trkpt lat="47.9233" lon="-3.04934">
        <ele>78.9</ele>
        <time>2018-08-14T14:03:52Z</time>
      </trkpt>
      <trkpt lat="47.92339" lon="-3.04908">
        <ele>82</ele>
        <time>2018-08-14T14:03:57Z</time>
      </trkpt>
      <trkpt lat="47.92347" lon="-3.04884">
        <ele>82</ele>
        <time>2018-08-14T14:04:02Z</time>
      </trkpt>
      <trkpt lat="47.92356" lon="-3.04859">
        <ele>82</ele>
        <time>2018-08-14T14:04:07Z</time>
      </trkpt>
      <trkpt lat="47.92365" lon="-3.04837">
        <ele>82</ele>
        <time>2018-08-14T14:04:12Z</time>
      </trkpt>
      <trkpt lat="47.9238" lon="-3.04813">
        <ele>83.7</ele>
        <time>2018-08-14T14:04:18Z</time>
      </trkpt>
      <trkpt lat="47.92401" lon="-3.04782">
        <ele>86.4</ele>
        <time>2018-08-14T14:04:25Z</time>
      </trkpt>
      <trkpt lat="47.92407" lon="-3.04773">
        <ele>87.4</ele>
        <time>2018-08-14T14:04:27Z</time>
      </trkpt>
      <trkpt lat="47.92437" lon="-3.0474">
        <ele>90.1</ele>
        <time>2018-08-14T14:04:36Z</time>
      </trkpt>
      <trkpt lat="47.92442" lon="-3.0473">
        <ele>90.3</ele>
        <time>2018-08-14T14:04:38Z</time>
      </trkpt>
      <trkpt lat="47.92454" lon="-3.04715">
        <ele>90.6</ele>
        <time>2018-08-14T14:04:42Z</time>
      </trkpt>
      <trkpt lat="47.9247" lon="-3.04695">
        <ele>90.9</ele>
        <time>2018-08-14T14:04:47Z</time>
      </trkpt>
      <trkpt lat="47.92487" lon="-3.04676">
        <ele>91.1</ele>
        <time>2018-08-14T14:04:52Z</time>
      </trkpt>
      <trkpt lat="47.92503" lon="-3.04656">
        <ele>91.3</ele>
        <time>2018-08-14T14:04:57Z</time>
      </trkpt>
      <trkpt lat="47.92519" lon="-3.04636">
        <ele>91.4</ele>
        <time>2018-08-14T14:05:02Z</time>
      </trkpt>
      <trkpt lat="47.92544" lon="-3.04609">
        <ele>91.7</ele>
        <time>2018-08-14T14:05:09Z</time>
      </trkpt>
      <trkpt lat="47.92562" lon="-3.04586">
        <ele>91.9</ele>
        <time>2018-08-14T14:05:14Z</time>
      </trkpt>
      <trkpt lat="47.9259" lon="-3.04557">
        <ele>92.4</ele>
        <time>2018-08-14T14:05:21Z</time>
      </trkpt>
      <trkpt lat="47.92594" lon="-3.04553">
        <ele>92.4</ele>
        <time>2018-08-14T14:05:22Z</time>
      </trkpt>
      <trkpt lat="47.92613" lon="-3.04528">
        <ele>92.7</ele>
        <time>2018-08-14T14:05:27Z</time>
      </trkpt>
      <trkpt lat="47.9263" lon="-3.04495">
        <ele>92.9</ele>
        <time>2018-08-14T14:05:36Z</time>
      </trkpt>
      <trkpt lat="47.92637" lon="-3.04475">
        <ele>92.9</ele>
        <time>2018-08-14T14:05:40Z</time>
      </trkpt>
      <trkpt lat="47.92638" lon="-3.04462">
        <ele>92.9</ele>
        <time>2018-08-14T14:05:42Z</time>
      </trkpt>
      <trkpt lat="47.92641" lon="-3.04427">
        <ele>93</ele>
        <time>2018-08-14T14:05:47Z</time>
      </trkpt>
      <trkpt lat="47.92642" lon="-3.04393">
        <ele>92.4</ele>
        <time>2018-08-14T14:05:52Z</time>
      </trkpt>
      <trkpt lat="47.92643" lon="-3.04355">
        <ele>91.8</ele>
        <time>2018-08-14T14:05:57Z</time>
      </trkpt>
      <trkpt lat="47.92645" lon="-3.04323">
        <ele>91.4</ele>
        <time>2018-08-14T14:06:02Z</time>
      </trkpt>
      <trkpt lat="47.92647" lon="-3.04279">
        <ele>90.8</ele>
        <time>2018-08-14T14:06:08Z</time>
      </trkpt>
      <trkpt lat="47.92649" lon="-3.0425">
        <ele>90.7</ele>
        <time>2018-08-14T14:06:12Z</time>
      </trkpt>
      <trkpt lat="47.92651" lon="-3.04198">
        <ele>90.8</ele>
        <time>2018-08-14T14:06:19Z</time>
      </trkpt>
      <trkpt lat="47.92652" lon="-3.0418">
        <ele>90.8</ele>
        <time>2018-08-14T14:06:22Z</time>
      </trkpt>
      <trkpt lat="47.92655" lon="-3.04142">
        <ele>90.6</ele>
        <time>2018-08-14T14:06:27Z</time>
      </trkpt>
      <trkpt lat="47.92659" lon="-3.04097">
        <ele>90</ele>
        <time>2018-08-14T14:06:33Z</time>
      </trkpt>
      <trkpt lat="47.92661" lon="-3.04065">
        <ele>91.5</ele>
        <time>2018-08-14T14:06:37Z</time>
      </trkpt>
      <trkpt lat="47.92665" lon="-3.04026">
        <ele>93.3</ele>
        <time>2018-08-14T14:06:42Z</time>
      </trkpt>
      <trkpt lat="47.9267" lon="-3.03989">
        <ele>94.5</ele>
        <time>2018-08-14T14:06:47Z</time>
      </trkpt>
      <trkpt lat="47.92673" lon="-3.03949">
        <ele>95.4</ele>
        <time>2018-08-14T14:06:52Z</time>
      </trkpt>
      <trkpt lat="47.92677" lon="-3.03907">
        <ele>96.2</ele>
        <time>2018-08-14T14:06:57Z</time>
      </trkpt>
      <trkpt lat="47.9268" lon="-3.03866">
        <ele>97</ele>
        <time>2018-08-14T14:07:02Z</time>
      </trkpt>
      <trkpt lat="47.92684" lon="-3.03826">
        <ele>97.5</ele>
        <time>2018-08-14T14:07:07Z</time>
      </trkpt>
      <trkpt lat="47.92688" lon="-3.03786">
        <ele>98</ele>
        <time>2018-08-14T14:07:12Z</time>
      </trkpt>
      <trkpt lat="47.92693" lon="-3.03738">
        <ele>99</ele>
        <time>2018-08-14T14:07:18Z</time>
      </trkpt>
      <trkpt lat="47.92703" lon="-3.03675">
        <ele>100.1</ele>
        <time>2018-08-14T14:07:26Z</time>
      </trkpt>
      <trkpt lat="47.92704" lon="-3.03667">
        <ele>100.3</ele>
        <time>2018-08-14T14:07:27Z</time>
      </trkpt>
      <trkpt lat="47.92711" lon="-3.0363">
        <ele>101.2</ele>
        <time>2018-08-14T14:07:32Z</time>
      </trkpt>
      <trkpt lat="47.92717" lon="-3.03592">
        <ele>102</ele>
        <time>2018-08-14T14:07:37Z</time>
      </trkpt>
      <trkpt lat="47.92724" lon="-3.03553">
        <ele>104.5</ele>
        <time>2018-08-14T14:07:42Z</time>
      </trkpt>
      <trkpt lat="47.92731" lon="-3.03515">
        <ele>105.7</ele>
        <time>2018-08-14T14:07:47Z</time>
      </trkpt>
      <trkpt lat="47.92738" lon="-3.03475">
        <ele>107</ele>
        <time>2018-08-14T14:07:52Z</time>
      </trkpt>
      <trkpt lat="47.92746" lon="-3.03438">
        <ele>108</ele>
        <time>2018-08-14T14:07:57Z</time>
      </trkpt>
      <trkpt lat="47.92756" lon="-3.03403">
        <ele>108.7</ele>
        <time>2018-08-14T14:08:02Z</time>
      </trkpt>
      <trkpt lat="47.92769" lon="-3.03371">
        <ele>109.4</ele>
        <time>2018-08-14T14:08:07Z</time>
      </trkpt>
      <trkpt lat="47.92783" lon="-3.03342">
        <ele>109.6</ele>
        <time>2018-08-14T14:08:12Z</time>
      </trkpt>
      <trkpt lat="47.928" lon="-3.03315">
        <ele>109.7</ele>
        <time>2018-08-14T14:08:17Z</time>
      </trkpt>
      <trkpt lat="47.92818" lon="-3.03284">
        <ele>109.8</ele>
        <time>2018-08-14T14:08:22Z</time>
      </trkpt>
      <trkpt lat="47.92837" lon="-3.03253">
        <ele>110</ele>
        <time>2018-08-14T14:08:27Z</time>
      </trkpt>
      <trkpt lat="47.92857" lon="-3.03221">
        <ele>109.8</ele>
        <time>2018-08-14T14:08:32Z</time>
      </trkpt>
      <trkpt lat="47.92877" lon="-3.03188">
        <ele>109.3</ele>
        <time>2018-08-14T14:08:37Z</time>
      </trkpt>
      <trkpt lat="47.92894" lon="-3.03149">
        <ele>109.1</ele>
        <time>2018-08-14T14:08:42Z</time>
      </trkpt>
      <trkpt lat="47.92909" lon="-3.03108">
        <ele>109.4</ele>
        <time>2018-08-14T14:08:47Z</time>
      </trkpt>
      <trkpt lat="47.9292" lon="-3.03065">
        <ele>109.6</ele>
        <time>2018-08-14T14:08:52Z</time>
      </trkpt>
      <trkpt lat="47.92931" lon="-3.03021">
        <ele>109.8</ele>
        <time>2018-08-14T14:08:57Z</time>
      </trkpt>
      <trkpt lat="47.92943" lon="-3.02979">
        <ele>110</ele>
        <time>2018-08-14T14:09:02Z</time>
      </trkpt>
      <trkpt lat="47.92956" lon="-3.02936">
        <ele>110</ele>
        <time>2018-08-14T14:09:07Z</time>
      </trkpt>
      <trkpt lat="47.92968" lon="-3.02893">
        <ele>110.4</ele>
        <time>2018-08-14T14:09:12Z</time>
      </trkpt>
      <trkpt lat="47.9298" lon="-3.02852">
        <ele>110.7</ele>
        <time>2018-08-14T14:09:17Z</time>
      </trkpt>
      <trkpt lat="47.92991" lon="-3.0281">
        <ele>110.7</ele>
        <time>2018-08-14T14:09:22Z</time>
      </trkpt>
      <trkpt lat="47.93001" lon="-3.02769">
        <ele>111.1</ele>
        <time>2018-08-14T14:09:27Z</time>
      </trkpt>
      <trkpt lat="47.93009" lon="-3.02728">
        <ele>111.6</ele>
        <time>2018-08-14T14:09:32Z</time>
      </trkpt>
      <trkpt lat="47.93018" lon="-3.0269">
        <ele>112.1</ele>
        <time>2018-08-14T14:09:37Z</time>
      </trkpt>
      <trkpt lat="47.93025" lon="-3.02649">
        <ele>113.8</ele>
        <time>2018-08-14T14:09:42Z</time>
      </trkpt>
      <trkpt lat="47.93032" lon="-3.02611">
        <ele>114.8</ele>
        <time>2018-08-14T14:09:47Z</time>
      </trkpt>
      <trkpt lat="47.93039" lon="-3.02571">
        <ele>115.5</ele>
        <time>2018-08-14T14:09:52Z</time>
      </trkpt>
      <trkpt lat="47.93046" lon="-3.02528">
        <ele>116.1</ele>
        <time>2018-08-14T14:09:57Z</time>
      </trkpt>
      <trkpt lat="47.93053" lon="-3.02485">
        <ele>116.6</ele>
        <time>2018-08-14T14:10:02Z</time>
      </trkpt>
      <trkpt lat="47.93062" lon="-3.0244">
        <ele>117.2</ele>
        <time>2018-08-14T14:10:07Z</time>
      </trkpt>
      <trkpt lat="47.93074" lon="-3.02399">
        <ele>117.9</ele>
        <time>2018-08-14T14:10:12Z</time>
      </trkpt>
      <trkpt lat="47.93084" lon="-3.02358">
        <ele>117.2</ele>
        <time>2018-08-14T14:10:17Z</time>
      </trkpt>
      <trkpt lat="47.93096" lon="-3.02324">
        <ele>117.7</ele>
        <time>2018-08-14T14:10:22Z</time>
      </trkpt>
      <trkpt lat="47.93107" lon="-3.02288">
        <ele>118.4</ele>
        <time>2018-08-14T14:10:27Z</time>
      </trkpt>
      <trkpt lat="47.93118" lon="-3.02249">
        <ele>119.1</ele>
        <time>2018-08-14T14:10:32Z</time>
      </trkpt>
      <trkpt lat="47.93137" lon="-3.02186">
        <ele>119.8</ele>
        <time>2018-08-14T14:10:41Z</time>
      </trkpt>
      <trkpt lat="47.93139" lon="-3.02178">
        <ele>119.9</ele>
        <time>2018-08-14T14:10:42Z</time>
      </trkpt>
      <trkpt lat="47.93145" lon="-3.0214">
        <ele>120</ele>
        <time>2018-08-14T14:10:47Z</time>
      </trkpt>
      <trkpt lat="47.93154" lon="-3.02093">
        <ele>120</ele>
        <time>2018-08-14T14:10:53Z</time>
      </trkpt>
      <trkpt lat="47.93157" lon="-3.02058">
        <ele>120.2</ele>
        <time>2018-08-14T14:10:57Z</time>
      </trkpt>
      <trkpt lat="47.93162" lon="-3.02016">
        <ele>121</ele>
        <time>2018-08-14T14:11:03Z</time>
      </trkpt>
      <trkpt lat="47.93166" lon="-3.01989">
        <ele>121.6</ele>
        <time>2018-08-14T14:11:07Z</time>
      </trkpt>
      <trkpt lat="47.93169" lon="-3.01953">
        <ele>122.3</ele>
        <time>2018-08-14T14:11:12Z</time>
      </trkpt>
      <trkpt lat="47.93172" lon="-3.01915">
        <ele>123.1</ele>
        <time>2018-08-14T14:11:17Z</time>
      </trkpt>
      <trkpt lat="47.93175" lon="-3.01879">
        <ele>123.8</ele>
        <time>2018-08-14T14:11:22Z</time>
      </trkpt>
      <trkpt lat="47.93178" lon="-3.01844">
        <ele>124</ele>
        <time>2018-08-14T14:11:27Z</time>
      </trkpt>
      <trkpt lat="47.93181" lon="-3.01808">
        <ele>124.2</ele>
        <time>2018-08-14T14:11:32Z</time>
      </trkpt>
      <trkpt lat="47.93184" lon="-3.01774">
        <ele>124.9</ele>
        <time>2018-08-14T14:11:37Z</time>
      </trkpt>
      <trkpt lat="47.93186" lon="-3.01736">
        <ele>125.7</ele>
        <time>2018-08-14T14:11:42Z</time>
      </trkpt>
      <trkpt lat="47.9319" lon="-3.01699">
        <ele>126.5</ele>
        <time>2018-08-14T14:11:47Z</time>
      </trkpt>
      <trkpt lat="47.93192" lon="-3.0166">
        <ele>127</ele>
        <time>2018-08-14T14:11:52Z</time>
      </trkpt>
      <trkpt lat="47.93195" lon="-3.01617">
        <ele>127</ele>
        <time>2018-08-14T14:11:58Z</time>
      </trkpt>
      <trkpt lat="47.93199" lon="-3.01587">
        <ele>127.5</ele>
        <time>2018-08-14T14:12:02Z</time>
      </trkpt>
      <trkpt lat="47.93202" lon="-3.01549">
        <ele>128.2</ele>
        <time>2018-08-14T14:12:07Z</time>
      </trkpt>
      <trkpt lat="47.93207" lon="-3.01504">
        <ele>128.4</ele>
        <time>2018-08-14T14:12:13Z</time>
      </trkpt>
      <trkpt lat="47.93211" lon="-3.01474">
        <ele>128.4</ele>
        <time>2018-08-14T14:12:17Z</time>
      </trkpt>
      <trkpt lat="47.93217" lon="-3.01433">
        <ele>128.2</ele>
        <time>2018-08-14T14:12:22Z</time>
      </trkpt>
      <trkpt lat="47.93222" lon="-3.01391">
        <ele>127.6</ele>
        <time>2018-08-14T14:12:27Z</time>
      </trkpt>
      <trkpt lat="47.93229" lon="-3.01348">
        <ele>126.8</ele>
        <time>2018-08-14T14:12:32Z</time>
      </trkpt>
      <trkpt lat="47.93235" lon="-3.01305">
        <ele>125.9</ele>
        <time>2018-08-14T14:12:37Z</time>
      </trkpt>
      <trkpt lat="47.93242" lon="-3.01256">
        <ele>124.8</ele>
        <time>2018-08-14T14:12:42Z</time>
      </trkpt>
      <trkpt lat="47.93249" lon="-3.01206">
        <ele>122.8</ele>
        <time>2018-08-14T14:12:47Z</time>
      </trkpt>
      <trkpt lat="47.93256" lon="-3.01154">
        <ele>120.6</ele>
        <time>2018-08-14T14:12:52Z</time>
      </trkpt>
      <trkpt lat="47.93265" lon="-3.01098">
        <ele>119.3</ele>
        <time>2018-08-14T14:12:57Z</time>
      </trkpt>
      <trkpt lat="47.93273" lon="-3.01041">
        <ele>119.3</ele>
        <time>2018-08-14T14:13:02Z</time>
      </trkpt>
      <trkpt lat="47.93281" lon="-3.0099">
        <ele>119.7</ele>
        <time>2018-08-14T14:13:07Z</time>
      </trkpt>
      <trkpt lat="47.9329" lon="-3.00949">
        <ele>120.6</ele>
        <time>2018-08-14T14:13:12Z</time>
      </trkpt>
      <trkpt lat="47.933" lon="-3.00912">
        <ele>121.9</ele>
        <time>2018-08-14T14:13:17Z</time>
      </trkpt>
      <trkpt lat="47.93314" lon="-3.00871">
        <ele>123</ele>
        <time>2018-08-14T14:13:23Z</time>
      </trkpt>
      <trkpt lat="47.93325" lon="-3.00848">
        <ele>123.2</ele>
        <time>2018-08-14T14:13:27Z</time>
      </trkpt>
      <trkpt lat="47.93339" lon="-3.0082">
        <ele>123.5</ele>
        <time>2018-08-14T14:13:32Z</time>
      </trkpt>
      <trkpt lat="47.93353" lon="-3.00785">
        <ele>124</ele>
        <time>2018-08-14T14:13:37Z</time>
      </trkpt>
      <trkpt lat="47.93365" lon="-3.00753">
        <ele>124.5</ele>
        <time>2018-08-14T14:13:42Z</time>
      </trkpt>
      <trkpt lat="47.93376" lon="-3.00718">
        <ele>125.4</ele>
        <time>2018-08-14T14:13:47Z</time>
      </trkpt>
      <trkpt lat="47.93385" lon="-3.00681">
        <ele>126.8</ele>
        <time>2018-08-14T14:13:52Z</time>
      </trkpt>
      <trkpt lat="47.93392" lon="-3.00644">
        <ele>127.2</ele>
        <time>2018-08-14T14:13:57Z</time>
      </trkpt>
      <trkpt lat="47.93401" lon="-3.00607">
        <ele>127.5</ele>
        <time>2018-08-14T14:14:02Z</time>
      </trkpt>
      <trkpt lat="47.93409" lon="-3.00572">
        <ele>127.8</ele>
        <time>2018-08-14T14:14:07Z</time>
      </trkpt>
      <trkpt lat="47.93416" lon="-3.00537">
        <ele>128</ele>
        <time>2018-08-14T14:14:12Z</time>
      </trkpt>
      <trkpt lat="47.93422" lon="-3.00501">
        <ele>128.1</ele>
        <time>2018-08-14T14:14:17Z</time>
      </trkpt>
      <trkpt lat="47.93426" lon="-3.00466">
        <ele>128.6</ele>
        <time>2018-08-14T14:14:22Z</time>
      </trkpt>
      <trkpt lat="47.9343" lon="-3.00414">
        <ele>129.3</ele>
        <time>2018-08-14T14:14:29Z</time>
      </trkpt>
      <trkpt lat="47.93432" lon="-3.00388">
        <ele>129.4</ele>
        <time>2018-08-14T14:14:32Z</time>
      </trkpt>
      <trkpt lat="47.93439" lon="-3.00351">
        <ele>129.1</ele>
        <time>2018-08-14T14:14:37Z</time>
      </trkpt>
      <trkpt lat="47.93451" lon="-3.00301">
        <ele>129.2</ele>
        <time>2018-08-14T14:14:44Z</time>
      </trkpt>
      <trkpt lat="47.93457" lon="-3.00278">
        <ele>129.6</ele>
        <time>2018-08-14T14:14:47Z</time>
      </trkpt>
      <trkpt lat="47.93465" lon="-3.00239">
        <ele>130.6</ele>
        <time>2018-08-14T14:14:52Z</time>
      </trkpt>
      <trkpt lat="47.93474" lon="-3.00203">
        <ele>131.9</ele>
        <time>2018-08-14T14:14:57Z</time>
      </trkpt>
      <trkpt lat="47.93488" lon="-3.00171">
        <ele>133.3</ele>
        <time>2018-08-14T14:15:02Z</time>
      </trkpt>
      <trkpt lat="47.93507" lon="-3.00152">
        <ele>134.6</ele>
        <time>2018-08-14T14:15:07Z</time>
      </trkpt>
      <trkpt lat="47.93528" lon="-3.00134">
        <ele>135.9</ele>
        <time>2018-08-14T14:15:12Z</time>
      </trkpt>
      <trkpt lat="47.9356" lon="-3.00118">
        <ele>138.3</ele>
        <time>2018-08-14T14:15:20Z</time>
      </trkpt>
      <trkpt lat="47.93568" lon="-3.00121">
        <ele>139</ele>
        <time>2018-08-14T14:15:22Z</time>
      </trkpt>
      <trkpt lat="47.93607" lon="-3.00115">
        <ele>142.4</ele>
        <time>2018-08-14T14:15:31Z</time>
      </trkpt>
      <trkpt lat="47.93611" lon="-3.00114">
        <ele>142.7</ele>
        <time>2018-08-14T14:15:32Z</time>
      </trkpt>
      <trkpt lat="47.93631" lon="-3.0011">
        <ele>143.8</ele>
        <time>2018-08-14T14:15:37Z</time>
      </trkpt>
      <trkpt lat="47.93653" lon="-3.00099">
        <ele>144.5</ele>
        <time>2018-08-14T14:15:42Z</time>
      </trkpt>
      <trkpt lat="47.93672" lon="-3.00081">
        <ele>145.2</ele>
        <time>2018-08-14T14:15:47Z</time>
      </trkpt>
      <trkpt lat="47.93687" lon="-3.00058">
        <ele>146.2</ele>
        <time>2018-08-14T14:15:52Z</time>
      </trkpt>
      <trkpt lat="47.937" lon="-3.00029">
        <ele>147.6</ele>
        <time>2018-08-14T14:15:57Z</time>
      </trkpt>
      <trkpt lat="47.93709" lon="-3.00001">
        <ele>149</ele>
        <time>2018-08-14T14:16:02Z</time>
      </trkpt>
      <trkpt lat="47.93717" lon="-2.99972">
        <ele>149.9</ele>
        <time>2018-08-14T14:16:07Z</time>
      </trkpt>
      <trkpt lat="47.93725" lon="-2.99943">
        <ele>150</ele>
        <time>2018-08-14T14:16:12Z</time>
      </trkpt>
      <trkpt lat="47.93733" lon="-2.99916">
        <ele>150.1</ele>
        <time>2018-08-14T14:16:17Z</time>
      </trkpt>
      <trkpt lat="47.93741" lon="-2.99886">
        <ele>152.1</ele>
        <time>2018-08-14T14:16:22Z</time>
      </trkpt>
      <trkpt lat="47.9375" lon="-2.99857">
        <ele>154</ele>
        <time>2018-08-14T14:16:27Z</time>
      </trkpt>
      <trkpt lat="47.93758" lon="-2.99826">
        <ele>154</ele>
        <time>2018-08-14T14:16:32Z</time>
      </trkpt>
      <trkpt lat="47.93768" lon="-2.99789">
        <ele>154</ele>
        <time>2018-08-14T14:16:37Z</time>
      </trkpt>
      <trkpt lat="47.93762" lon="-2.99745">
        <ele>154.8</ele>
        <time>2018-08-14T14:16:42Z</time>
      </trkpt>
      <trkpt lat="47.93774" lon="-2.99703">
        <ele>154.7</ele>
        <time>2018-08-14T14:16:47Z</time>
      </trkpt>
      <trkpt lat="47.93805" lon="-2.99704">
        <ele>155</ele>
        <time>2018-08-14T14:16:52Z</time>
      </trkpt>
      <trkpt lat="47.93821" lon="-2.99742">
        <ele>155</ele>
        <time>2018-08-14T14:16:57Z</time>
      </trkpt>
      <trkpt lat="47.93842" lon="-2.99762">
        <ele>155</ele>
        <time>2018-08-14T14:17:02Z</time>
      </trkpt>
      <trkpt lat="47.93868" lon="-2.99785">
        <ele>155</ele>
        <time>2018-08-14T14:17:07Z</time>
      </trkpt>
      <trkpt lat="47.93891" lon="-2.99816">
        <ele>155</ele>
        <time>2018-08-14T14:17:12Z</time>
      </trkpt>
      <trkpt lat="47.93914" lon="-2.99848">
        <ele>154.9</ele>
        <time>2018-08-14T14:17:17Z</time>
      </trkpt>
      <trkpt lat="47.93944" lon="-2.99886">
        <ele>154.9</ele>
        <time>2018-08-14T14:17:23Z</time>
      </trkpt>
      <trkpt lat="47.93978" lon="-2.9994">
        <ele>154.6</ele>
        <time>2018-08-14T14:17:31Z</time>
      </trkpt>
      <trkpt lat="47.93996" lon="-2.99951">
        <ele>154.3</ele>
        <time>2018-08-14T14:17:34Z</time>
      </trkpt>
      <trkpt lat="47.94014" lon="-2.99958">
        <ele>154</ele>
        <time>2018-08-14T14:17:37Z</time>
      </trkpt>
      <trkpt lat="47.94045" lon="-2.99966">
        <ele>153.6</ele>
        <time>2018-08-14T14:17:42Z</time>
      </trkpt>
      <trkpt lat="47.94078" lon="-2.99978">
        <ele>153.4</ele>
        <time>2018-08-14T14:17:47Z</time>
      </trkpt>
      <trkpt lat="47.94106" lon="-2.99988">
        <ele>153</ele>
        <time>2018-08-14T14:17:52Z</time>
      </trkpt>
      <trkpt lat="47.94133" lon="-2.99998">
        <ele>152.6</ele>
        <time>2018-08-14T14:17:57Z</time>
      </trkpt>
      <trkpt lat="47.94158" lon="-3.00005">
        <ele>152.1</ele>
        <time>2018-08-14T14:18:02Z</time>
      </trkpt>
      <trkpt lat="47.94197" lon="-3.00017">
        <ele>151.6</ele>
        <time>2018-08-14T14:18:09Z</time>
      </trkpt>
      <trkpt lat="47.94213" lon="-3.00023">
        <ele>151.5</ele>
        <time>2018-08-14T14:18:12Z</time>
      </trkpt>
      <trkpt lat="47.94237" lon="-3.00033">
        <ele>151.2</ele>
        <time>2018-08-14T14:18:17Z</time>
      </trkpt>
      <trkpt lat="47.9427" lon="-3.00046">
        <ele>151.1</ele>
        <time>2018-08-14T14:18:23Z</time>
      </trkpt>
      <trkpt lat="47.94319" lon="-3.0006">
        <ele>151.6</ele>
        <time>2018-08-14T14:18:31Z</time>
      </trkpt>
      <trkpt lat="47.94324" lon="-3.00062">
        <ele>151.6</ele>
        <time>2018-08-14T14:18:32Z</time>
      </trkpt>
      <trkpt lat="47.94352" lon="-3.00071">
        <ele>151.8</ele>
        <time>2018-08-14T14:18:37Z</time>
      </trkpt>
      <trkpt lat="47.94382" lon="-3.00077">
        <ele>152.1</ele>
        <time>2018-08-14T14:18:42Z</time>
      </trkpt>
      <trkpt lat="47.94412" lon="-3.00091">
        <ele>152.3</ele>
        <time>2018-08-14T14:18:47Z</time>
      </trkpt>
      <trkpt lat="47.94462" lon="-3.00105">
        <ele>152.8</ele>
        <time>2018-08-14T14:18:55Z</time>
      </trkpt>
      <trkpt lat="47.9448" lon="-3.00109">
        <ele>152.9</ele>
        <time>2018-08-14T14:18:58Z</time>
      </trkpt>
      <trkpt lat="47.94503" lon="-3.00115">
        <ele>153.1</ele>
        <time>2018-08-14T14:19:02Z</time>
      </trkpt>
      <trkpt lat="47.94531" lon="-3.00125">
        <ele>153.3</ele>
        <time>2018-08-14T14:19:07Z</time>
      </trkpt>
      <trkpt lat="47.94581" lon="-3.00143">
        <ele>153.5</ele>
        <time>2018-08-14T14:19:15Z</time>
      </trkpt>
      <trkpt lat="47.94593" lon="-3.00148">
        <ele>153.5</ele>
        <time>2018-08-14T14:19:17Z</time>
      </trkpt>
      <trkpt lat="47.94647" lon="-3.00169">
        <ele>152.1</ele>
        <time>2018-08-14T14:19:26Z</time>
      </trkpt>
      <trkpt lat="47.94666" lon="-3.0017">
        <ele>151.8</ele>
        <time>2018-08-14T14:19:29Z</time>
      </trkpt>
      <trkpt lat="47.94694" lon="-3.00178">
        <ele>151.5</ele>
        <time>2018-08-14T14:19:33Z</time>
      </trkpt>
      <trkpt lat="47.94724" lon="-3.00185">
        <ele>151.1</ele>
        <time>2018-08-14T14:19:37Z</time>
      </trkpt>
      <trkpt lat="47.94761" lon="-3.00193">
        <ele>150.3</ele>
        <time>2018-08-14T14:19:42Z</time>
      </trkpt>
      <trkpt lat="47.94841" lon="-3.0021">
        <ele>147.5</ele>
        <time>2018-08-14T14:19:51Z</time>
      </trkpt>
      <trkpt lat="47.94849" lon="-3.00213">
        <ele>147.1</ele>
        <time>2018-08-14T14:19:52Z</time>
      </trkpt>
      <trkpt lat="47.94893" lon="-3.00223">
        <ele>145</ele>
        <time>2018-08-14T14:19:57Z</time>
      </trkpt>
      <trkpt lat="47.9493" lon="-3.00234">
        <ele>143.3</ele>
        <time>2018-08-14T14:20:02Z</time>
      </trkpt>
      <trkpt lat="47.94981" lon="-3.00243">
        <ele>141.9</ele>
        <time>2018-08-14T14:20:10Z</time>
      </trkpt>
      <trkpt lat="47.94999" lon="-3.00247">
        <ele>141.6</ele>
        <time>2018-08-14T14:20:13Z</time>
      </trkpt>
      <trkpt lat="47.95024" lon="-3.00246">
        <ele>141.2</ele>
        <time>2018-08-14T14:20:18Z</time>
      </trkpt>
      <trkpt lat="47.9505" lon="-3.00242">
        <ele>140.9</ele>
        <time>2018-08-14T14:20:22Z</time>
      </trkpt>
      <trkpt lat="47.95087" lon="-3.00232">
        <ele>140.4</ele>
        <time>2018-08-14T14:20:27Z</time>
      </trkpt>
      <trkpt lat="47.95122" lon="-3.00207">
        <ele>139.7</ele>
        <time>2018-08-14T14:20:32Z</time>
      </trkpt>
      <trkpt lat="47.95153" lon="-3.00166">
        <ele>138.8</ele>
        <time>2018-08-14T14:20:37Z</time>
      </trkpt>
      <trkpt lat="47.95179" lon="-3.00117">
        <ele>137.7</ele>
        <time>2018-08-14T14:20:42Z</time>
      </trkpt>
      <trkpt lat="47.95201" lon="-3.00067">
        <ele>136.7</ele>
        <time>2018-08-14T14:20:47Z</time>
      </trkpt>
      <trkpt lat="47.95223" lon="-3.00027">
        <ele>136.1</ele>
        <time>2018-08-14T14:20:52Z</time>
      </trkpt>
      <trkpt lat="47.95252" lon="-3.00003">
        <ele>135.8</ele>
        <time>2018-08-14T14:20:57Z</time>
      </trkpt>
      <trkpt lat="47.95284" lon="-2.99984">
        <ele>135.7</ele>
        <time>2018-08-14T14:21:02Z</time>
      </trkpt>
      <trkpt lat="47.95315" lon="-2.99968">
        <ele>136</ele>
        <time>2018-08-14T14:21:07Z</time>
      </trkpt>
      <trkpt lat="47.95345" lon="-2.99954">
        <ele>140.4</ele>
        <time>2018-08-14T14:21:12Z</time>
      </trkpt>
      <trkpt lat="47.95378" lon="-2.99942">
        <ele>141.4</ele>
        <time>2018-08-14T14:21:17Z</time>
      </trkpt>
      <trkpt lat="47.95419" lon="-2.9992">
        <ele>143</ele>
        <time>2018-08-14T14:21:24Z</time>
      </trkpt>
      <trkpt lat="47.95438" lon="-2.99915">
        <ele>143.8</ele>
        <time>2018-08-14T14:21:27Z</time>
      </trkpt>
      <trkpt lat="47.95474" lon="-2.99896">
        <ele>145</ele>
        <time>2018-08-14T14:21:33Z</time>
      </trkpt>
      <trkpt lat="47.95496" lon="-2.99883">
        <ele>145</ele>
        <time>2018-08-14T14:21:37Z</time>
      </trkpt>
      <trkpt lat="47.95524" lon="-2.99867">
        <ele>145.1</ele>
        <time>2018-08-14T14:21:42Z</time>
      </trkpt>
      <trkpt lat="47.9555" lon="-2.99849">
        <ele>145.2</ele>
        <time>2018-08-14T14:21:47Z</time>
      </trkpt>
      <trkpt lat="47.95576" lon="-2.99835">
        <ele>145.3</ele>
        <time>2018-08-14T14:21:52Z</time>
      </trkpt>
      <trkpt lat="47.95602" lon="-2.9982">
        <ele>145.3</ele>
        <time>2018-08-14T14:21:57Z</time>
      </trkpt>
      <trkpt lat="47.95629" lon="-2.99811">
        <ele>145.2</ele>
        <time>2018-08-14T14:22:02Z</time>
      </trkpt>
      <trkpt lat="47.95658" lon="-2.99808">
        <ele>145</ele>
        <time>2018-08-14T14:22:07Z</time>
      </trkpt>
      <trkpt lat="47.95687" lon="-2.99805">
        <ele>144.8</ele>
        <time>2018-08-14T14:22:12Z</time>
      </trkpt>
      <trkpt lat="47.95717" lon="-2.99803">
        <ele>144.2</ele>
        <time>2018-08-14T14:22:17Z</time>
      </trkpt>
      <trkpt lat="47.95748" lon="-2.998">
        <ele>143.2</ele>
        <time>2018-08-14T14:22:22Z</time>
      </trkpt>
      <trkpt lat="47.95779" lon="-2.99797">
        <ele>142.1</ele>
        <time>2018-08-14T14:22:27Z</time>
      </trkpt>
      <trkpt lat="47.95823" lon="-2.99787">
        <ele>140.5</ele>
        <time>2018-08-14T14:22:34Z</time>
      </trkpt>
      <trkpt lat="47.95853" lon="-2.99784">
        <ele>139.4</ele>
        <time>2018-08-14T14:22:39Z</time>
      </trkpt>
      <trkpt lat="47.95871" lon="-2.99782">
        <ele>138.5</ele>
        <time>2018-08-14T14:22:42Z</time>
      </trkpt>
      <trkpt lat="47.95901" lon="-2.99779">
        <ele>137.3</ele>
        <time>2018-08-14T14:22:47Z</time>
      </trkpt>
      <trkpt lat="47.95929" lon="-2.99776">
        <ele>136.4</ele>
        <time>2018-08-14T14:22:52Z</time>
      </trkpt>
      <trkpt lat="47.95959" lon="-2.99771">
        <ele>135.6</ele>
        <time>2018-08-14T14:22:57Z</time>
      </trkpt>
      <trkpt lat="47.95988" lon="-2.99767">
        <ele>134.9</ele>
        <time>2018-08-14T14:23:02Z</time>
      </trkpt>
      <trkpt lat="47.9602" lon="-2.99765">
        <ele>134.2</ele>
        <time>2018-08-14T14:23:07Z</time>
      </trkpt>
      <trkpt lat="47.9605" lon="-2.99759">
        <ele>133.6</ele>
        <time>2018-08-14T14:23:12Z</time>
      </trkpt>
      <trkpt lat="47.96082" lon="-2.99752">
        <ele>133.1</ele>
        <time>2018-08-14T14:23:17Z</time>
      </trkpt>
      <trkpt lat="47.96115" lon="-2.99749">
        <ele>132.3</ele>
        <time>2018-08-14T14:23:22Z</time>
      </trkpt>
      <trkpt lat="47.96148" lon="-2.99745">
        <ele>131.7</ele>
        <time>2018-08-14T14:23:27Z</time>
      </trkpt>
      <trkpt lat="47.96179" lon="-2.9974">
        <ele>131.2</ele>
        <time>2018-08-14T14:23:32Z</time>
      </trkpt>
      <trkpt lat="47.96207" lon="-2.99737">
        <ele>131</ele>
        <time>2018-08-14T14:23:37Z</time>
      </trkpt>
      <trkpt lat="47.96231" lon="-2.99734">
        <ele>131</ele>
        <time>2018-08-14T14:23:42Z</time>
      </trkpt>
      <trkpt lat="47.96258" lon="-2.9973">
        <ele>131</ele>
        <time>2018-08-14T14:23:47Z</time>
      </trkpt>
      <trkpt lat="47.96284" lon="-2.99724">
        <ele>131.1</ele>
        <time>2018-08-14T14:23:52Z</time>
      </trkpt>
      <trkpt lat="47.9631" lon="-2.99715">
        <ele>132.1</ele>
        <time>2018-08-14T14:23:57Z</time>
      </trkpt>
      <trkpt lat="47.96336" lon="-2.99718">
        <ele>133</ele>
        <time>2018-08-14T14:24:02Z</time>
      </trkpt>
      <trkpt lat="47.9636" lon="-2.99718">
        <ele>134</ele>
        <time>2018-08-14T14:24:07Z</time>
      </trkpt>
      <trkpt lat="47.96386" lon="-2.99716">
        <ele>135.1</ele>
        <time>2018-08-14T14:24:12Z</time>
      </trkpt>
      <trkpt lat="47.96421" lon="-2.99711">
        <ele>136.3</ele>
        <time>2018-08-14T14:24:19Z</time>
      </trkpt>
      <trkpt lat="47.96435" lon="-2.99708">
        <ele>136.8</ele>
        <time>2018-08-14T14:24:22Z</time>
      </trkpt>
      <trkpt lat="47.96461" lon="-2.99702">
        <ele>137.5</ele>
        <time>2018-08-14T14:24:27Z</time>
      </trkpt>
      <trkpt lat="47.96499" lon="-2.99692">
        <ele>138.6</ele>
        <time>2018-08-14T14:24:35Z</time>
      </trkpt>
      <trkpt lat="47.9652" lon="-2.99683">
        <ele>139</ele>
        <time>2018-08-14T14:24:39Z</time>
      </trkpt>
      <trkpt lat="47.96538" lon="-2.99676">
        <ele>139.2</ele>
        <time>2018-08-14T14:24:43Z</time>
      </trkpt>
      <trkpt lat="47.96553" lon="-2.99662">
        <ele>139.3</ele>
        <time>2018-08-14T14:24:47Z</time>
      </trkpt>
      <trkpt lat="47.96566" lon="-2.99632">
        <ele>139.4</ele>
        <time>2018-08-14T14:24:52Z</time>
      </trkpt>
      <trkpt lat="47.96575" lon="-2.99596">
        <ele>139.5</ele>
        <time>2018-08-14T14:24:57Z</time>
      </trkpt>
      <trkpt lat="47.96575" lon="-2.99558">
        <ele>139.4</ele>
        <time>2018-08-14T14:25:02Z</time>
      </trkpt>
      <trkpt lat="47.96573" lon="-2.99523">
        <ele>139.3</ele>
        <time>2018-08-14T14:25:07Z</time>
      </trkpt>
      <trkpt lat="47.96565" lon="-2.99486">
        <ele>139.1</ele>
        <time>2018-08-14T14:25:12Z</time>
      </trkpt>
      <trkpt lat="47.96557" lon="-2.99446">
        <ele>138.8</ele>
        <time>2018-08-14T14:25:17Z</time>
      </trkpt>
      <trkpt lat="47.96557" lon="-2.99402">
        <ele>138.5</ele>
        <time>2018-08-14T14:25:22Z</time>
      </trkpt>
      <trkpt lat="47.96568" lon="-2.99359">
        <ele>138.2</ele>
        <time>2018-08-14T14:25:27Z</time>
      </trkpt>
      <trkpt lat="47.96584" lon="-2.99323">
        <ele>136.7</ele>
        <time>2018-08-14T14:25:32Z</time>
      </trkpt>
      <trkpt lat="47.96607" lon="-2.99295">
        <ele>135.9</ele>
        <time>2018-08-14T14:25:37Z</time>
      </trkpt>
      <trkpt lat="47.96627" lon="-2.99272">
        <ele>135.9</ele>
        <time>2018-08-14T14:25:42Z</time>
      </trkpt>
      <trkpt lat="47.96643" lon="-2.99249">
        <ele>136</ele>
        <time>2018-08-14T14:25:47Z</time>
      </trkpt>
      <trkpt lat="47.9666" lon="-2.99274">
        <ele>135.8</ele>
        <time>2018-08-14T14:25:52Z</time>
      </trkpt>
      <trkpt lat="47.96673" lon="-2.99299">
        <ele>135.5</ele>
        <time>2018-08-14T14:25:57Z</time>
      </trkpt>
      <trkpt lat="47.96691" lon="-2.99334">
        <ele>135</ele>
        <time>2018-08-14T14:26:03Z</time>
      </trkpt>
      <trkpt lat="47.96702" lon="-2.99358">
        <ele>135</ele>
        <time>2018-08-14T14:26:07Z</time>
      </trkpt>
      <trkpt lat="47.96716" lon="-2.99387">
        <ele>135.5</ele>
        <time>2018-08-14T14:26:12Z</time>
      </trkpt>
      <trkpt lat="47.9673" lon="-2.99417">
        <ele>136.1</ele>
        <time>2018-08-14T14:26:17Z</time>
      </trkpt>
      <trkpt lat="47.96743" lon="-2.99449">
        <ele>137</ele>
        <time>2018-08-14T14:26:22Z</time>
      </trkpt>
      <trkpt lat="47.96757" lon="-2.99478">
        <ele>137.6</ele>
        <time>2018-08-14T14:26:27Z</time>
      </trkpt>
      <trkpt lat="47.96776" lon="-2.9953">
        <ele>138</ele>
        <time>2018-08-14T14:26:35Z</time>
      </trkpt>
      <trkpt lat="47.96781" lon="-2.99542">
        <ele>137.9</ele>
        <time>2018-08-14T14:26:37Z</time>
      </trkpt>
      <trkpt lat="47.96795" lon="-2.99573">
        <ele>137.9</ele>
        <time>2018-08-14T14:26:42Z</time>
      </trkpt>
      <trkpt lat="47.96809" lon="-2.99606">
        <ele>138</ele>
        <time>2018-08-14T14:26:47Z</time>
      </trkpt>
      <trkpt lat="47.96825" lon="-2.99637">
        <ele>138</ele>
        <time>2018-08-14T14:26:52Z</time>
      </trkpt>
      <trkpt lat="47.9684" lon="-2.99671">
        <ele>139</ele>
        <time>2018-08-14T14:26:57Z</time>
      </trkpt>
      <trkpt lat="47.96854" lon="-2.99707">
        <ele>138.3</ele>
        <time>2018-08-14T14:27:02Z</time>
      </trkpt>
      <trkpt lat="47.96871" lon="-2.99734">
        <ele>137.7</ele>
        <time>2018-08-14T14:27:07Z</time>
      </trkpt>
      <trkpt lat="47.9689" lon="-2.99762">
        <ele>136.9</ele>
        <time>2018-08-14T14:27:12Z</time>
      </trkpt>
      <trkpt lat="47.9691" lon="-2.99785">
        <ele>136.8</ele>
        <time>2018-08-14T14:27:17Z</time>
      </trkpt>
      <trkpt lat="47.96934" lon="-2.99807">
        <ele>136.8</ele>
        <time>2018-08-14T14:27:22Z</time>
      </trkpt>
      <trkpt lat="47.96955" lon="-2.99829">
        <ele>136.7</ele>
        <time>2018-08-14T14:27:27Z</time>
      </trkpt>
      <trkpt lat="47.96975" lon="-2.9985">
        <ele>136.7</ele>
        <time>2018-08-14T14:27:32Z</time>
      </trkpt>
      <trkpt lat="47.97012" lon="-2.9989">
        <ele>136.6</ele>
        <time>2018-08-14T14:27:41Z</time>
      </trkpt>
      <trkpt lat="47.97038" lon="-2.99912">
        <ele>136.6</ele>
        <time>2018-08-14T14:27:46Z</time>
      </trkpt>
      <trkpt lat="47.9705" lon="-2.9992">
        <ele>136.5</ele>
        <time>2018-08-14T14:27:48Z</time>
      </trkpt>
      <trkpt lat="47.97091" lon="-2.99954">
        <ele>136.2</ele>
        <time>2018-08-14T14:27:56Z</time>
      </trkpt>
      <trkpt lat="47.97096" lon="-2.99959">
        <ele>136.2</ele>
        <time>2018-08-14T14:27:57Z</time>
      </trkpt>
      <trkpt lat="47.97122" lon="-2.99981">
        <ele>135.9</ele>
        <time>2018-08-14T14:28:02Z</time>
      </trkpt>
      <trkpt lat="47.97149" lon="-3.00002">
        <ele>135.2</ele>
        <time>2018-08-14T14:28:07Z</time>
      </trkpt>
      <trkpt lat="47.97194" lon="-3.00043">
        <ele>134</ele>
        <time>2018-08-14T14:28:16Z</time>
      </trkpt>
      <trkpt lat="47.97209" lon="-3.00057">
        <ele>134.1</ele>
        <time>2018-08-14T14:28:19Z</time>
      </trkpt>
      <trkpt lat="47.97229" lon="-3.00075">
        <ele>134.1</ele>
        <time>2018-08-14T14:28:23Z</time>
      </trkpt>
      <trkpt lat="47.9725" lon="-3.00091">
        <ele>134.1</ele>
        <time>2018-08-14T14:28:27Z</time>
      </trkpt>
      <trkpt lat="47.97275" lon="-3.00114">
        <ele>134</ele>
        <time>2018-08-14T14:28:32Z</time>
      </trkpt>
      <trkpt lat="47.97299" lon="-3.00138">
        <ele>134.1</ele>
        <time>2018-08-14T14:28:37Z</time>
      </trkpt>
      <trkpt lat="47.97323" lon="-3.00162">
        <ele>134.3</ele>
        <time>2018-08-14T14:28:42Z</time>
      </trkpt>
      <trkpt lat="47.97348" lon="-3.00186">
        <ele>134.5</ele>
        <time>2018-08-14T14:28:47Z</time>
      </trkpt>
      <trkpt lat="47.9737" lon="-3.00212">
        <ele>135</ele>
        <time>2018-08-14T14:28:52Z</time>
      </trkpt>
      <trkpt lat="47.97392" lon="-3.00241">
        <ele>135.7</ele>
        <time>2018-08-14T14:28:57Z</time>
      </trkpt>
      <trkpt lat="47.97421" lon="-3.00279">
        <ele>135.7</ele>
        <time>2018-08-14T14:29:03Z</time>
      </trkpt>
      <trkpt lat="47.9744" lon="-3.00307">
        <ele>135.3</ele>
        <time>2018-08-14T14:29:07Z</time>
      </trkpt>
      <trkpt lat="47.97462" lon="-3.0034">
        <ele>134.4</ele>
        <time>2018-08-14T14:29:12Z</time>
      </trkpt>
      <trkpt lat="47.97503" lon="-3.00407">
        <ele>133</ele>
        <time>2018-08-14T14:29:21Z</time>
      </trkpt>
      <trkpt lat="47.97521" lon="-3.0044">
        <ele>132.6</ele>
        <time>2018-08-14T14:29:25Z</time>
      </trkpt>
      <trkpt lat="47.97529" lon="-3.00457">
        <ele>132</ele>
        <time>2018-08-14T14:29:27Z</time>
      </trkpt>
      <trkpt lat="47.97546" lon="-3.00501">
        <ele>131.7</ele>
        <time>2018-08-14T14:29:32Z</time>
      </trkpt>
      <trkpt lat="47.97564" lon="-3.00547">
        <ele>131.1</ele>
        <time>2018-08-14T14:29:37Z</time>
      </trkpt>
      <trkpt lat="47.97596" lon="-3.00632">
        <ele>129.8</ele>
        <time>2018-08-14T14:29:46Z</time>
      </trkpt>
      <trkpt lat="47.97599" lon="-3.00641">
        <ele>129.7</ele>
        <time>2018-08-14T14:29:47Z</time>
      </trkpt>
      <trkpt lat="47.97613" lon="-3.00687">
        <ele>129.1</ele>
        <time>2018-08-14T14:29:52Z</time>
      </trkpt>
      <trkpt lat="47.97631" lon="-3.00749">
        <ele>128.6</ele>
        <time>2018-08-14T14:29:59Z</time>
      </trkpt>
      <trkpt lat="47.97642" lon="-3.00783">
        <ele>128.3</ele>
        <time>2018-08-14T14:30:03Z</time>
      </trkpt>
      <trkpt lat="47.97652" lon="-3.00816">
        <ele>128.1</ele>
        <time>2018-08-14T14:30:07Z</time>
      </trkpt>
      <trkpt lat="47.97664" lon="-3.0086">
        <ele>127.7</ele>
        <time>2018-08-14T14:30:12Z</time>
      </trkpt>
      <trkpt lat="47.97673" lon="-3.00901">
        <ele>127.3</ele>
        <time>2018-08-14T14:30:17Z</time>
      </trkpt>
      <trkpt lat="47.97679" lon="-3.00941">
        <ele>126.9</ele>
        <time>2018-08-14T14:30:22Z</time>
      </trkpt>
      <trkpt lat="47.97687" lon="-3.00984">
        <ele>126.4</ele>
        <time>2018-08-14T14:30:27Z</time>
      </trkpt>
      <trkpt lat="47.97694" lon="-3.01029">
        <ele>125.9</ele>
        <time>2018-08-14T14:30:32Z</time>
      </trkpt>
      <trkpt lat="47.97703" lon="-3.01073">
        <ele>125.4</ele>
        <time>2018-08-14T14:30:37Z</time>
      </trkpt>
      <trkpt lat="47.97706" lon="-3.01113">
        <ele>125</ele>
        <time>2018-08-14T14:30:42Z</time>
      </trkpt>
      <trkpt lat="47.9771" lon="-3.01154">
        <ele>124.6</ele>
        <time>2018-08-14T14:30:47Z</time>
      </trkpt>
      <trkpt lat="47.97714" lon="-3.01195">
        <ele>124.1</ele>
        <time>2018-08-14T14:30:52Z</time>
      </trkpt>
      <trkpt lat="47.97718" lon="-3.01236">
        <ele>123.7</ele>
        <time>2018-08-14T14:30:57Z</time>
      </trkpt>
      <trkpt lat="47.97722" lon="-3.01278">
        <ele>123.3</ele>
        <time>2018-08-14T14:31:02Z</time>
      </trkpt>
      <trkpt lat="47.97727" lon="-3.0132">
        <ele>123.1</ele>
        <time>2018-08-14T14:31:07Z</time>
      </trkpt>
      <trkpt lat="47.97732" lon="-3.01361">
        <ele>123</ele>
        <time>2018-08-14T14:31:12Z</time>
      </trkpt>
      <trkpt lat="47.9774" lon="-3.01399">
        <ele>122.8</ele>
        <time>2018-08-14T14:31:17Z</time>
      </trkpt>
      <trkpt lat="47.97757" lon="-3.01471">
        <ele>122.4</ele>
        <time>2018-08-14T14:31:26Z</time>
      </trkpt>
      <trkpt lat="47.9777" lon="-3.01512">
        <ele>122.3</ele>
        <time>2018-08-14T14:31:31Z</time>
      </trkpt>
      <trkpt lat="47.9778" lon="-3.01556">
        <ele>121.9</ele>
        <time>2018-08-14T14:31:36Z</time>
      </trkpt>
      <trkpt lat="47.97793" lon="-3.0159">
        <ele>121.6</ele>
        <time>2018-08-14T14:31:40Z</time>
      </trkpt>
      <trkpt lat="47.97801" lon="-3.01606">
        <ele>121.4</ele>
        <time>2018-08-14T14:31:42Z</time>
      </trkpt>
      <trkpt lat="47.97824" lon="-3.01645">
        <ele>120.5</ele>
        <time>2018-08-14T14:31:47Z</time>
      </trkpt>
      <trkpt lat="47.97852" lon="-3.01687">
        <ele>117.9</ele>
        <time>2018-08-14T14:31:52Z</time>
      </trkpt>
      <trkpt lat="47.97881" lon="-3.01733">
        <ele>114.8</ele>
        <time>2018-08-14T14:31:57Z</time>
      </trkpt>
      <trkpt lat="47.97914" lon="-3.01784">
        <ele>111.3</ele>
        <time>2018-08-14T14:32:02Z</time>
      </trkpt>
      <trkpt lat="47.97948" lon="-3.01839">
        <ele>108</ele>
        <time>2018-08-14T14:32:07Z</time>
      </trkpt>
      <trkpt lat="47.97985" lon="-3.01895">
        <ele>105.1</ele>
        <time>2018-08-14T14:32:12Z</time>
      </trkpt>
      <trkpt lat="47.98009" lon="-3.01962">
        <ele>105</ele>
        <time>2018-08-14T14:32:17Z</time>
      </trkpt>
      <trkpt lat="47.98016" lon="-3.02035">
        <ele>103.1</ele>
        <time>2018-08-14T14:32:22Z</time>
      </trkpt>
      <trkpt lat="47.98021" lon="-3.02104">
        <ele>101.2</ele>
        <time>2018-08-14T14:32:27Z</time>
      </trkpt>
      <trkpt lat="47.98024" lon="-3.02173">
        <ele>99.4</ele>
        <time>2018-08-14T14:32:32Z</time>
      </trkpt>
      <trkpt lat="47.98027" lon="-3.02241">
        <ele>97</ele>
        <time>2018-08-14T14:32:37Z</time>
      </trkpt>
      <trkpt lat="47.98037" lon="-3.02369">
        <ele>93.1</ele>
        <time>2018-08-14T14:32:46Z</time>
      </trkpt>
      <trkpt lat="47.9804" lon="-3.0244">
        <ele>90.4</ele>
        <time>2018-08-14T14:32:51Z</time>
      </trkpt>
      <trkpt lat="47.98042" lon="-3.02467">
        <ele>89</ele>
        <time>2018-08-14T14:32:53Z</time>
      </trkpt>
      <trkpt lat="47.98034" lon="-3.02525">
        <ele>85.8</ele>
        <time>2018-08-14T14:32:57Z</time>
      </trkpt>
      <trkpt lat="47.98014" lon="-3.0259">
        <ele>82.8</ele>
        <time>2018-08-14T14:33:02Z</time>
      </trkpt>
      <trkpt lat="47.97977" lon="-3.02644">
        <ele>80.8</ele>
        <time>2018-08-14T14:33:07Z</time>
      </trkpt>
      <trkpt lat="47.97933" lon="-3.0267">
        <ele>79.5</ele>
        <time>2018-08-14T14:33:12Z</time>
      </trkpt>
      <trkpt lat="47.97891" lon="-3.02692">
        <ele>78.3</ele>
        <time>2018-08-14T14:33:17Z</time>
      </trkpt>
      <trkpt lat="47.97839" lon="-3.02775">
        <ele>75.8</ele>
        <time>2018-08-14T14:33:26Z</time>
      </trkpt>
      <trkpt lat="47.97834" lon="-3.02787">
        <ele>75.4</ele>
        <time>2018-08-14T14:33:27Z</time>
      </trkpt>
      <trkpt lat="47.97818" lon="-3.02844">
        <ele>74</ele>
        <time>2018-08-14T14:33:32Z</time>
      </trkpt>
      <trkpt lat="47.978" lon="-3.029">
        <ele>72.6</ele>
        <time>2018-08-14T14:33:37Z</time>
      </trkpt>
      <trkpt lat="47.97782" lon="-3.02956">
        <ele>71.2</ele>
        <time>2018-08-14T14:33:42Z</time>
      </trkpt>
      <trkpt lat="47.97765" lon="-3.03009">
        <ele>69.9</ele>
        <time>2018-08-14T14:33:47Z</time>
      </trkpt>
      <trkpt lat="47.9775" lon="-3.03058">
        <ele>68.6</ele>
        <time>2018-08-14T14:33:52Z</time>
      </trkpt>
      <trkpt lat="47.97742" lon="-3.03111">
        <ele>67.5</ele>
        <time>2018-08-14T14:33:57Z</time>
      </trkpt>
      <trkpt lat="47.97747" lon="-3.03162">
        <ele>66</ele>
        <time>2018-08-14T14:34:02Z</time>
      </trkpt>
      <trkpt lat="47.97756" lon="-3.03223">
        <ele>64.1</ele>
        <time>2018-08-14T14:34:08Z</time>
      </trkpt>
      <trkpt lat="47.97763" lon="-3.03264">
        <ele>62.9</ele>
        <time>2018-08-14T14:34:12Z</time>
      </trkpt>
      <trkpt lat="47.97775" lon="-3.03332">
        <ele>62</ele>
        <time>2018-08-14T14:34:19Z</time>
      </trkpt>
      <trkpt lat="47.97792" lon="-3.03384">
        <ele>61.4</ele>
        <time>2018-08-14T14:34:25Z</time>
      </trkpt>
      <trkpt lat="47.97802" lon="-3.03402">
        <ele>61.2</ele>
        <time>2018-08-14T14:34:28Z</time>
      </trkpt>
      <trkpt lat="47.97813" lon="-3.03414">
        <ele>61</ele>
        <time>2018-08-14T14:34:33Z</time>
      </trkpt>
      <trkpt lat="47.97815" lon="-3.03415">
        <ele>61</ele>
        <time>2018-08-14T14:34:37Z</time>
      </trkpt>
      <trkpt lat="47.97815" lon="-3.03414">
        <ele>61</ele>
        <time>2018-08-14T14:34:42Z</time>
      </trkpt>
      <trkpt lat="47.97815" lon="-3.03413">
        <ele>61</ele>
        <time>2018-08-14T14:34:48Z</time>
      </trkpt>
      <trkpt lat="47.97815" lon="-3.03412">
        <ele>61</ele>
        <time>2018-08-14T14:34:52Z</time>
      </trkpt>
      <trkpt lat="47.97815" lon="-3.03412">
        <ele>61</ele>
        <time>2018-08-14T14:34:57Z</time>
      </trkpt>
      <trkpt lat="47.97815" lon="-3.03412">
        <ele>61</ele>
        <time>2018-08-14T14:35:02Z</time>
      </trkpt>
      <trkpt lat="47.97815" lon="-3.03412">
        <ele>61</ele>
        <time>2018-08-14T14:35:07Z</time>
      </trkpt>
      <trkpt lat="47.97815" lon="-3.03412">
        <ele>61</ele>
        <time>2018-08-14T14:35:12Z</time>
      </trkpt>
      <trkpt lat="47.97814" lon="-3.03412">
        <ele>61</ele>
        <time>2018-08-14T14:35:17Z</time>
      </trkpt>
      <trkpt lat="47.97815" lon="-3.03416">
        <ele>60.9</ele>
        <time>2018-08-14T14:35:22Z</time>
      </trkpt>
      <trkpt lat="47.97818" lon="-3.0343">
        <ele>60.6</ele>
        <time>2018-08-14T14:35:27Z</time>
      </trkpt>
      <trkpt lat="47.97835" lon="-3.03457">
        <ele>59.9</ele>
        <time>2018-08-14T14:35:33Z</time>
      </trkpt>
      <trkpt lat="47.97854" lon="-3.03505">
        <ele>58.4</ele>
        <time>2018-08-14T14:35:39Z</time>
      </trkpt>
      <trkpt lat="47.97855" lon="-3.03536">
        <ele>57.5</ele>
        <time>2018-08-14T14:35:42Z</time>
      </trkpt>
      <trkpt lat="47.97838" lon="-3.03626">
        <ele>55.4</ele>
        <time>2018-08-14T14:35:51Z</time>
      </trkpt>
      <trkpt lat="47.9782" lon="-3.03665">
        <ele>54.3</ele>
        <time>2018-08-14T14:35:55Z</time>
      </trkpt>
      <trkpt lat="47.97811" lon="-3.03687">
        <ele>53.6</ele>
        <time>2018-08-14T14:35:57Z</time>
      </trkpt>
      <trkpt lat="47.97808" lon="-3.03768">
        <ele>51.5</ele>
        <time>2018-08-14T14:36:04Z</time>
      </trkpt>
      <trkpt lat="47.97812" lon="-3.03855">
        <ele>48.7</ele>
        <time>2018-08-14T14:36:11Z</time>
      </trkpt>
      <trkpt lat="47.97812" lon="-3.03923">
        <ele>46.2</ele>
        <time>2018-08-14T14:36:16Z</time>
      </trkpt>
      <trkpt lat="47.97803" lon="-3.03965">
        <ele>44.8</ele>
        <time>2018-08-14T14:36:19Z</time>
      </trkpt>
      <trkpt lat="47.97793" lon="-3.04007">
        <ele>47.4</ele>
        <time>2018-08-14T14:36:22Z</time>
      </trkpt>
      <trkpt lat="47.97777" lon="-3.04074">
        <ele>47.4</ele>
        <time>2018-08-14T14:36:27Z</time>
      </trkpt>
      <trkpt lat="47.9776" lon="-3.04127">
        <ele>59</ele>
        <time>2018-08-14T14:36:32Z</time>
      </trkpt>
      <trkpt lat="47.97728" lon="-3.04129">
        <ele>59.1</ele>
        <time>2018-08-14T14:36:37Z</time>
      </trkpt>
      <trkpt lat="47.97704" lon="-3.04124">
        <ele>59.2</ele>
        <time>2018-08-14T14:36:42Z</time>
      </trkpt>
      <trkpt lat="47.97683" lon="-3.04113">
        <ele>59.5</ele>
        <time>2018-08-14T14:36:47Z</time>
      </trkpt>
      <trkpt lat="47.97653" lon="-3.04101">
        <ele>59.9</ele>
        <time>2018-08-14T14:36:55Z</time>
      </trkpt>
      <trkpt lat="47.97645" lon="-3.04096">
        <ele>60</ele>
        <time>2018-08-14T14:36:57Z</time>
      </trkpt>
      <trkpt lat="47.97627" lon="-3.04085">
        <ele>60.2</ele>
        <time>2018-08-14T14:37:02Z</time>
      </trkpt>
      <trkpt lat="47.97608" lon="-3.04073">
        <ele>60.4</ele>
        <time>2018-08-14T14:37:07Z</time>
      </trkpt>
      <trkpt lat="47.97589" lon="-3.04057">
        <ele>60.7</ele>
        <time>2018-08-14T14:37:12Z</time>
      </trkpt>
      <trkpt lat="47.97537" lon="-3.04068">
        <ele>61.2</ele>
        <time>2018-08-14T14:37:21Z</time>
      </trkpt>
      <trkpt lat="47.97529" lon="-3.04075">
        <ele>61.3</ele>
        <time>2018-08-14T14:37:22Z</time>
      </trkpt>
      <trkpt lat="47.97518" lon="-3.04035">
        <ele>61.6</ele>
        <time>2018-08-14T14:37:27Z</time>
      </trkpt>
      <trkpt lat="47.97491" lon="-3.04015">
        <ele>61.8</ele>
        <time>2018-08-14T14:37:35Z</time>
      </trkpt>
      <trkpt lat="47.9748" lon="-3.04009">
        <ele>61.9</ele>
        <time>2018-08-14T14:37:38Z</time>
      </trkpt>
      <trkpt lat="47.9746" lon="-3.04008">
        <ele>62</ele>
        <time>2018-08-14T14:37:43Z</time>
      </trkpt>
      <trkpt lat="47.97436" lon="-3.04">
        <ele>62.2</ele>
        <time>2018-08-14T14:37:50Z</time>
      </trkpt>
      <trkpt lat="47.97418" lon="-3.04">
        <ele>62.4</ele>
        <time>2018-08-14T14:37:54Z</time>
      </trkpt>
      <trkpt lat="47.9741" lon="-3.04001">
        <ele>62.5</ele>
        <time>2018-08-14T14:37:57Z</time>
      </trkpt>
      <trkpt lat="47.97392" lon="-3.04004">
        <ele>62.6</ele>
        <time>2018-08-14T14:38:02Z</time>
      </trkpt>
      <trkpt lat="47.97368" lon="-3.04029">
        <ele>62.8</ele>
        <time>2018-08-14T14:38:10Z</time>
      </trkpt>
      <trkpt lat="47.97355" lon="-3.04045">
        <ele>62.8</ele>
        <time>2018-08-14T14:38:14Z</time>
      </trkpt>
      <trkpt lat="47.97354" lon="-3.04059">
        <ele>62.9</ele>
        <time>2018-08-14T14:38:17Z</time>
      </trkpt>
      <trkpt lat="47.97349" lon="-3.04099">
        <ele>63</ele>
        <time>2018-08-14T14:38:24Z</time>
      </trkpt>
      <trkpt lat="47.97352" lon="-3.04117">
        <ele>62.7</ele>
        <time>2018-08-14T14:38:27Z</time>
      </trkpt>
      <trkpt lat="47.97359" lon="-3.04159">
        <ele>61.2</ele>
        <time>2018-08-14T14:38:34Z</time>
      </trkpt>
      <trkpt lat="47.97364" lon="-3.04174">
        <ele>60.9</ele>
        <time>2018-08-14T14:38:37Z</time>
      </trkpt>
      <trkpt lat="47.97384" lon="-3.04199">
        <ele>60.8</ele>
        <time>2018-08-14T14:38:43Z</time>
      </trkpt>
      <trkpt lat="47.97407" lon="-3.04241">
        <ele>60.5</ele>
        <time>2018-08-14T14:38:51Z</time>
      </trkpt>
      <trkpt lat="47.97418" lon="-3.04256">
        <ele>60.1</ele>
        <time>2018-08-14T14:38:55Z</time>
      </trkpt>
      <trkpt lat="47.97425" lon="-3.0426">
        <ele>60.1</ele>
        <time>2018-08-14T14:38:57Z</time>
      </trkpt>
      <trkpt lat="47.97447" lon="-3.04251">
        <ele>60</ele>
        <time>2018-08-14T14:39:02Z</time>
      </trkpt>
      <trkpt lat="47.97484" lon="-3.04225">
        <ele>60</ele>
        <time>2018-08-14T14:39:11Z</time>
      </trkpt>
      <trkpt lat="47.97494" lon="-3.0422">
        <ele>59.9</ele>
        <time>2018-08-14T14:39:14Z</time>
      </trkpt>
      <trkpt lat="47.97517" lon="-3.04203">
        <ele>59.3</ele>
        <time>2018-08-14T14:39:20Z</time>
      </trkpt>
      <trkpt lat="47.97525" lon="-3.04199">
        <ele>59.1</ele>
        <time>2018-08-14T14:39:22Z</time>
      </trkpt>
      <trkpt lat="47.97549" lon="-3.04182">
        <ele>58.3</ele>
        <time>2018-08-14T14:39:27Z</time>
      </trkpt>
      <trkpt lat="47.97567" lon="-3.04177">
        <ele>57.9</ele>
        <time>2018-08-14T14:39:32Z</time>
      </trkpt>
      <trkpt lat="47.97593" lon="-3.04172">
        <ele>57.4</ele>
        <time>2018-08-14T14:39:37Z</time>
      </trkpt>
      <trkpt lat="47.97614" lon="-3.04172">
        <ele>57.1</ele>
        <time>2018-08-14T14:39:42Z</time>
      </trkpt>
      <trkpt lat="47.97637" lon="-3.0418">
        <ele>56.6</ele>
        <time>2018-08-14T14:39:47Z</time>
      </trkpt>
      <trkpt lat="47.97668" lon="-3.04192">
        <ele>56.2</ele>
        <time>2018-08-14T14:39:53Z</time>
      </trkpt>
      <trkpt lat="47.97693" lon="-3.04198">
        <ele>56</ele>
        <time>2018-08-14T14:39:57Z</time>
      </trkpt>
      <trkpt lat="47.97719" lon="-3.04208">
        <ele>55.7</ele>
        <time>2018-08-14T14:40:02Z</time>
      </trkpt>
      <trkpt lat="47.9774" lon="-3.04217">
        <ele>55.5</ele>
        <time>2018-08-14T14:40:07Z</time>
      </trkpt>
      <trkpt lat="47.97762" lon="-3.04225">
        <ele>55.2</ele>
        <time>2018-08-14T14:40:12Z</time>
      </trkpt>
      <trkpt lat="47.97786" lon="-3.04235">
        <ele>54.7</ele>
        <time>2018-08-14T14:40:17Z</time>
      </trkpt>
      <trkpt lat="47.97815" lon="-3.04241">
        <ele>54.3</ele>
        <time>2018-08-14T14:40:22Z</time>
      </trkpt>
      <trkpt lat="47.97837" lon="-3.04254">
        <ele>54</ele>
        <time>2018-08-14T14:40:27Z</time>
      </trkpt>
      <trkpt lat="47.97877" lon="-3.04265">
        <ele>53.4</ele>
        <time>2018-08-14T14:40:34Z</time>
      </trkpt>
      <trkpt lat="47.97892" lon="-3.04274">
        <ele>53.2</ele>
        <time>2018-08-14T14:40:37Z</time>
      </trkpt>
      <trkpt lat="47.97914" lon="-3.04289">
        <ele>52.8</ele>
        <time>2018-08-14T14:40:42Z</time>
      </trkpt>
      <trkpt lat="47.97948" lon="-3.04312">
        <ele>52.1</ele>
        <time>2018-08-14T14:40:49Z</time>
      </trkpt>
      <trkpt lat="47.97957" lon="-3.04322">
        <ele>51.8</ele>
        <time>2018-08-14T14:40:52Z</time>
      </trkpt>
      <trkpt lat="47.9799" lon="-3.04349">
        <ele>51.9</ele>
        <time>2018-08-14T14:41:00Z</time>
      </trkpt>
      <trkpt lat="47.97998" lon="-3.04355">
        <ele>53.4</ele>
        <time>2018-08-14T14:41:02Z</time>
      </trkpt>
      <trkpt lat="47.98029" lon="-3.04378">
        <ele>58.5</ele>
        <time>2018-08-14T14:41:09Z</time>
      </trkpt>
      <trkpt lat="47.9804" lon="-3.04389">
        <ele>60.2</ele>
        <time>2018-08-14T14:41:12Z</time>
      </trkpt>
      <trkpt lat="47.98065" lon="-3.04412">
        <ele>64.3</ele>
        <time>2018-08-14T14:41:19Z</time>
      </trkpt>
      <trkpt lat="47.98076" lon="-3.04421">
        <ele>66.7</ele>
        <time>2018-08-14T14:41:22Z</time>
      </trkpt>
      <trkpt lat="47.98098" lon="-3.04433">
        <ele>70.6</ele>
        <time>2018-08-14T14:41:27Z</time>
      </trkpt>
      <trkpt lat="47.9812" lon="-3.04449">
        <ele>73.8</ele>
        <time>2018-08-14T14:41:33Z</time>
      </trkpt>
      <trkpt lat="47.98135" lon="-3.04462">
        <ele>76.9</ele>
        <time>2018-08-14T14:41:37Z</time>
      </trkpt>
      <trkpt lat="47.98154" lon="-3.04478">
        <ele>81.9</ele>
        <time>2018-08-14T14:41:42Z</time>
      </trkpt>
      <trkpt lat="47.98183" lon="-3.04505">
        <ele>87.8</ele>
        <time>2018-08-14T14:41:50Z</time>
      </trkpt>
      <trkpt lat="47.98189" lon="-3.04512">
        <ele>88.8</ele>
        <time>2018-08-14T14:41:52Z</time>
      </trkpt>
      <trkpt lat="47.98205" lon="-3.04528">
        <ele>91.5</ele>
        <time>2018-08-14T14:41:57Z</time>
      </trkpt>
      <trkpt lat="47.98231" lon="-3.04551">
        <ele>94.2</ele>
        <time>2018-08-14T14:42:04Z</time>
      </trkpt>
      <trkpt lat="47.9825" lon="-3.04571">
        <ele>96.1</ele>
        <time>2018-08-14T14:42:10Z</time>
      </trkpt>
      <trkpt lat="47.98254" lon="-3.04578">
        <ele>96.6</ele>
        <time>2018-08-14T14:42:12Z</time>
      </trkpt>
      <trkpt lat="47.98272" lon="-3.04599">
        <ele>97.4</ele>
        <time>2018-08-14T14:42:18Z</time>
      </trkpt>
      <trkpt lat="47.98288" lon="-3.04616">
        <ele>97.9</ele>
        <time>2018-08-14T14:42:23Z</time>
      </trkpt>
      <trkpt lat="47.983" lon="-3.0463">
        <ele>98.2</ele>
        <time>2018-08-14T14:42:27Z</time>
      </trkpt>
      <trkpt lat="47.98315" lon="-3.04649">
        <ele>98.6</ele>
        <time>2018-08-14T14:42:32Z</time>
      </trkpt>
      <trkpt lat="47.98331" lon="-3.04668">
        <ele>98.9</ele>
        <time>2018-08-14T14:42:37Z</time>
      </trkpt>
      <trkpt lat="47.98346" lon="-3.04686">
        <ele>99.2</ele>
        <time>2018-08-14T14:42:42Z</time>
      </trkpt>
      <trkpt lat="47.98362" lon="-3.04705">
        <ele>99.5</ele>
        <time>2018-08-14T14:42:47Z</time>
      </trkpt>
      <trkpt lat="47.98376" lon="-3.04727">
        <ele>99.7</ele>
        <time>2018-08-14T14:42:52Z</time>
      </trkpt>
      <trkpt lat="47.9839" lon="-3.04751">
        <ele>99.9</ele>
        <time>2018-08-14T14:42:57Z</time>
      </trkpt>
      <trkpt lat="47.98404" lon="-3.04773">
        <ele>100.7</ele>
        <time>2018-08-14T14:43:02Z</time>
      </trkpt>
      <trkpt lat="47.98426" lon="-3.04806">
        <ele>103.1</ele>
        <time>2018-08-14T14:43:10Z</time>
      </trkpt>
      <trkpt lat="47.98428" lon="-3.04818">
        <ele>103.3</ele>
        <time>2018-08-14T14:43:12Z</time>
      </trkpt>
      <trkpt lat="47.98439" lon="-3.04846">
        <ele>103.8</ele>
        <time>2018-08-14T14:43:17Z</time>
      </trkpt>
      <trkpt lat="47.9845" lon="-3.04871">
        <ele>104.1</ele>
        <time>2018-08-14T14:43:22Z</time>
      </trkpt>
      <trkpt lat="47.98462" lon="-3.04898">
        <ele>104.6</ele>
        <time>2018-08-14T14:43:27Z</time>
      </trkpt>
      <trkpt lat="47.98471" lon="-3.04925">
        <ele>105</ele>
        <time>2018-08-14T14:43:32Z</time>
      </trkpt>
      <trkpt lat="47.98478" lon="-3.04957">
        <ele>105.7</ele>
        <time>2018-08-14T14:43:37Z</time>
      </trkpt>
      <trkpt lat="47.98485" lon="-3.04989">
        <ele>106.5</ele>
        <time>2018-08-14T14:43:42Z</time>
      </trkpt>
      <trkpt lat="47.98491" lon="-3.0502">
        <ele>107.6</ele>
        <time>2018-08-14T14:43:47Z</time>
      </trkpt>
      <trkpt lat="47.98496" lon="-3.05054">
        <ele>108.6</ele>
        <time>2018-08-14T14:43:52Z</time>
      </trkpt>
      <trkpt lat="47.98497" lon="-3.05087">
        <ele>109.9</ele>
        <time>2018-08-14T14:43:57Z</time>
      </trkpt>
      <trkpt lat="47.98496" lon="-3.05119">
        <ele>111.1</ele>
        <time>2018-08-14T14:44:02Z</time>
      </trkpt>
      <trkpt lat="47.98495" lon="-3.05151">
        <ele>112.3</ele>
        <time>2018-08-14T14:44:07Z</time>
      </trkpt>
      <trkpt lat="47.98493" lon="-3.0518">
        <ele>113.3</ele>
        <time>2018-08-14T14:44:12Z</time>
      </trkpt>
      <trkpt lat="47.98491" lon="-3.05208">
        <ele>114.3</ele>
        <time>2018-08-14T14:44:17Z</time>
      </trkpt>
      <trkpt lat="47.98492" lon="-3.05238">
        <ele>115.2</ele>
        <time>2018-08-14T14:44:22Z</time>
      </trkpt>
      <trkpt lat="47.98491" lon="-3.05272">
        <ele>116.2</ele>
        <time>2018-08-14T14:44:27Z</time>
      </trkpt>
      <trkpt lat="47.98497" lon="-3.05296">
        <ele>116.5</ele>
        <time>2018-08-14T14:44:32Z</time>
      </trkpt>
      <trkpt lat="47.98498" lon="-3.05325">
        <ele>116.9</ele>
        <time>2018-08-14T14:44:37Z</time>
      </trkpt>
      <trkpt lat="47.98499" lon="-3.05359">
        <ele>117.2</ele>
        <time>2018-08-14T14:44:42Z</time>
      </trkpt>
      <trkpt lat="47.98499" lon="-3.05392">
        <ele>117.3</ele>
        <time>2018-08-14T14:44:47Z</time>
      </trkpt>
      <trkpt lat="47.98502" lon="-3.05454">
        <ele>117.1</ele>
        <time>2018-08-14T14:44:56Z</time>
      </trkpt>
      <trkpt lat="47.98503" lon="-3.05484">
        <ele>116.9</ele>
        <time>2018-08-14T14:45:00Z</time>
      </trkpt>
      <trkpt lat="47.98507" lon="-3.05525">
        <ele>116.3</ele>
        <time>2018-08-14T14:45:06Z</time>
      </trkpt>
      <trkpt lat="47.98507" lon="-3.05532">
        <ele>116.2</ele>
        <time>2018-08-14T14:45:07Z</time>
      </trkpt>
      <trkpt lat="47.98511" lon="-3.05571">
        <ele>115</ele>
        <time>2018-08-14T14:45:12Z</time>
      </trkpt>
      <trkpt lat="47.98518" lon="-3.05611">
        <ele>113.8</ele>
        <time>2018-08-14T14:45:17Z</time>
      </trkpt>
      <trkpt lat="47.98528" lon="-3.05655">
        <ele>112.4</ele>
        <time>2018-08-14T14:45:22Z</time>
      </trkpt>
      <trkpt lat="47.98539" lon="-3.05699">
        <ele>110.8</ele>
        <time>2018-08-14T14:45:27Z</time>
      </trkpt>
      <trkpt lat="47.98552" lon="-3.05745">
        <ele>109.2</ele>
        <time>2018-08-14T14:45:32Z</time>
      </trkpt>
      <trkpt lat="47.9856" lon="-3.05791">
        <ele>107.7</ele>
        <time>2018-08-14T14:45:37Z</time>
      </trkpt>
      <trkpt lat="47.98568" lon="-3.05874">
        <ele>105.5</ele>
        <time>2018-08-14T14:45:45Z</time>
      </trkpt>
      <trkpt lat="47.9857" lon="-3.05906">
        <ele>104.8</ele>
        <time>2018-08-14T14:45:48Z</time>
      </trkpt>
      <trkpt lat="47.98571" lon="-3.05958">
        <ele>104</ele>
        <time>2018-08-14T14:45:53Z</time>
      </trkpt>
      <trkpt lat="47.98576" lon="-3.06023">
        <ele>105.1</ele>
        <time>2018-08-14T14:46:00Z</time>
      </trkpt>
      <trkpt lat="47.98577" lon="-3.06041">
        <ele>105.4</ele>
        <time>2018-08-14T14:46:02Z</time>
      </trkpt>
      <trkpt lat="47.98581" lon="-3.06088">
        <ele>106.4</ele>
        <time>2018-08-14T14:46:07Z</time>
      </trkpt>
      <trkpt lat="47.98584" lon="-3.06136">
        <ele>107.3</ele>
        <time>2018-08-14T14:46:13Z</time>
      </trkpt>
      <trkpt lat="47.9859" lon="-3.06165">
        <ele>108</ele>
        <time>2018-08-14T14:46:17Z</time>
      </trkpt>
      <trkpt lat="47.98587" lon="-3.06199">
        <ele>106.9</ele>
        <time>2018-08-14T14:46:22Z</time>
      </trkpt>
      <trkpt lat="47.98584" lon="-3.0624">
        <ele>105.3</ele>
        <time>2018-08-14T14:46:28Z</time>
      </trkpt>
      <trkpt lat="47.98583" lon="-3.06277">
        <ele>104</ele>
        <time>2018-08-14T14:46:33Z</time>
      </trkpt>
      <trkpt lat="47.98577" lon="-3.06301">
        <ele>103.6</ele>
        <time>2018-08-14T14:46:37Z</time>
      </trkpt>
      <trkpt lat="47.98534" lon="-3.06324">
        <ele>100.8</ele>
        <time>2018-08-14T14:46:46Z</time>
      </trkpt>
      <trkpt lat="47.98528" lon="-3.06327">
        <ele>100.4</ele>
        <time>2018-08-14T14:46:47Z</time>
      </trkpt>
      <trkpt lat="47.98495" lon="-3.06337">
        <ele>98.7</ele>
        <time>2018-08-14T14:46:52Z</time>
      </trkpt>
      <trkpt lat="47.98463" lon="-3.0635">
        <ele>97.7</ele>
        <time>2018-08-14T14:46:57Z</time>
      </trkpt>
      <trkpt lat="47.98435" lon="-3.06362">
        <ele>97.2</ele>
        <time>2018-08-14T14:47:02Z</time>
      </trkpt>
      <trkpt lat="47.98412" lon="-3.06373">
        <ele>97</ele>
        <time>2018-08-14T14:47:07Z</time>
      </trkpt>
      <trkpt lat="47.98395" lon="-3.06368">
        <ele>96.9</ele>
        <time>2018-08-14T14:47:12Z</time>
      </trkpt>
      <trkpt lat="47.98392" lon="-3.06337">
        <ele>96</ele>
        <time>2018-08-14T14:47:17Z</time>
      </trkpt>
      <trkpt lat="47.98391" lon="-3.06308">
        <ele>95.1</ele>
        <time>2018-08-14T14:47:22Z</time>
      </trkpt>
      <trkpt lat="47.98389" lon="-3.06275">
        <ele>94.4</ele>
        <time>2018-08-14T14:47:27Z</time>
      </trkpt>
      <trkpt lat="47.98382" lon="-3.0623">
        <ele>95</ele>
        <time>2018-08-14T14:47:34Z</time>
      </trkpt>
      <trkpt lat="47.98362" lon="-3.06237">
        <ele>94.9</ele>
        <time>2018-08-14T14:47:39Z</time>
      </trkpt>
      <trkpt lat="47.98347" lon="-3.06244">
        <ele>94.2</ele>
        <time>2018-08-14T14:47:42Z</time>
      </trkpt>
      <trkpt lat="47.98324" lon="-3.06262">
        <ele>93.7</ele>
        <time>2018-08-14T14:47:47Z</time>
      </trkpt>
      <trkpt lat="47.9831" lon="-3.06269">
        <ele>93.8</ele>
        <time>2018-08-14T14:47:52Z</time>
      </trkpt>
      <trkpt lat="47.98298" lon="-3.06273">
        <ele>94</ele>
        <time>2018-08-14T14:47:57Z</time>
      </trkpt>
      <trkpt lat="47.98291" lon="-3.06279">
        <ele>94.2</ele>
        <time>2018-08-14T14:48:02Z</time>
      </trkpt>
      <trkpt lat="47.9829" lon="-3.0628">
        <ele>94.2</ele>
        <time>2018-08-14T14:48:07Z</time>
      </trkpt>
      <trkpt lat="47.9829" lon="-3.06284">
        <ele>94.3</ele>
        <time>2018-08-14T14:48:12Z</time>
      </trkpt>
      <trkpt lat="47.98289" lon="-3.06282">
        <ele>94.3</ele>
        <time>2018-08-14T14:48:17Z</time>
      </trkpt>
      <trkpt lat="47.98289" lon="-3.06282">
        <ele>94.3</ele>
        <time>2018-08-14T14:48:22Z</time>
      </trkpt>
      <trkpt lat="47.98289" lon="-3.06282">
        <ele>94.3</ele>
        <time>2018-08-14T14:48:27Z</time>
      </trkpt>
      <trkpt lat="47.9829" lon="-3.06284">
        <ele>94.4</ele>
        <time>2018-08-14T14:48:32Z</time>
      </trkpt>
      <trkpt lat="47.98291" lon="-3.06294">
        <ele>94.5</ele>
        <time>2018-08-14T14:48:41Z</time>
      </trkpt>
      <trkpt lat="47.98291" lon="-3.06294">
        <ele>94.5</ele>
        <time>2018-08-14T14:48:42Z</time>
      </trkpt>
      <trkpt lat="47.98292" lon="-3.06295">
        <ele>94.5</ele>
        <time>2018-08-14T14:48:47Z</time>
      </trkpt>
      <trkpt lat="47.98293" lon="-3.06295">
        <ele>94.5</ele>
        <time>2018-08-14T14:48:52Z</time>
      </trkpt>
      <trkpt lat="47.98293" lon="-3.06295">
        <ele>94.5</ele>
        <time>2018-08-14T14:48:57Z</time>
      </trkpt>
      <trkpt lat="47.98293" lon="-3.06295">
        <ele>94.5</ele>
        <time>2018-08-14T14:49:02Z</time>
      </trkpt>
      <trkpt lat="47.98293" lon="-3.06295">
        <ele>94.5</ele>
        <time>2018-08-14T14:49:07Z</time>
      </trkpt>
      <trkpt lat="47.98293" lon="-3.06295">
        <ele>94.5</ele>
        <time>2018-08-14T14:49:12Z</time>
      </trkpt>
      <trkpt lat="47.98293" lon="-3.06295">
        <ele>94.5</ele>
        <time>2018-08-14T14:49:17Z</time>
      </trkpt>
      <trkpt lat="47.98294" lon="-3.06296">
        <ele>94.5</ele>
        <time>2018-08-14T14:49:22Z</time>
      </trkpt>
      <trkpt lat="47.98293" lon="-3.06296">
        <ele>94.5</ele>
        <time>2018-08-14T14:49:27Z</time>
      </trkpt>
      <trkpt lat="47.98292" lon="-3.06292">
        <ele>94.5</ele>
        <time>2018-08-14T14:49:32Z</time>
      </trkpt>
      <trkpt lat="47.98292" lon="-3.06294">
        <ele>94.5</ele>
        <time>2018-08-14T14:49:37Z</time>
      </trkpt>
      <trkpt lat="47.98292" lon="-3.06296">
        <ele>94.5</ele>
        <time>2018-08-14T14:49:42Z</time>
      </trkpt>
      <trkpt lat="47.98291" lon="-3.06295">
        <ele>94.5</ele>
        <time>2018-08-14T14:49:47Z</time>
      </trkpt>
      <trkpt lat="47.9829" lon="-3.06296">
        <ele>94.6</ele>
        <time>2018-08-14T14:49:52Z</time>
      </trkpt>
      <trkpt lat="47.98291" lon="-3.06296">
        <ele>94.6</ele>
        <time>2018-08-14T14:49:57Z</time>
      </trkpt>
      <trkpt lat="47.98291" lon="-3.06298">
        <ele>94.6</ele>
        <time>2018-08-14T14:50:02Z</time>
      </trkpt>
      <trkpt lat="47.98291" lon="-3.063">
        <ele>94.6</ele>
        <time>2018-08-14T14:50:07Z</time>
      </trkpt>
      <trkpt lat="47.9829" lon="-3.063">
        <ele>94.6</ele>
        <time>2018-08-14T14:50:16Z</time>
      </trkpt>
      <trkpt lat="47.9829" lon="-3.06301">
        <ele>94.6</ele>
        <time>2018-08-14T14:50:17Z</time>
      </trkpt>
      <trkpt lat="47.9829" lon="-3.06299">
        <ele>94.6</ele>
        <time>2018-08-14T14:50:22Z</time>
      </trkpt>
    </trkseg>
  </trk>
</gpx>